Wetterdaten: Dienstag, 14.05.2019
Datum Zeit Temp. A. Pool Temp. Temp. 5cm Feuchte A. Luftdruck Regen Wind Richtung Richtung Sonnenschein ET UV Solar Taupunkt Windchill Windben Empfang
14.05.2019 00:00 7,7 C 13,9 C 6,7 C 84 % 1030,2 hPa 0,0 l/m 2,5 km/h (1 Bft) SW 220 0 min 0,000 mm 0,0 UV-I 0 W/m 5,2 C 7,7 C 4,8 km/h (1 Bft) 100,00 %
14.05.2019 00:02 7,7 C 13,9 C 6,7 C 84 % 1030,2 hPa 0,0 l/m 5,1 km/h (1 Bft) SW 222 0 min 0,000 mm 0,0 UV-I 0 W/m 5,2 C 7,7 C 8,0 km/h (2 Bft) 97,62 %
14.05.2019 00:04 7,7 C 13,9 C 7,2 C 84 % 1030,2 hPa 0,0 l/m 3,9 km/h (1 Bft) SW 234 0 min 0,000 mm 0,0 UV-I 0 W/m 5,2 C 7,7 C 6,4 km/h (2 Bft) 100,00 %
14.05.2019 00:06 7,7 C 13,9 C 7,2 C 84 % 1030,1 hPa 0,0 l/m 4,6 km/h (1 Bft) SW 235 0 min 0,000 mm 0,0 UV-I 0 W/m 5,2 C 7,7 C 6,4 km/h (2 Bft) 100,00 %
14.05.2019 00:08 7,7 C 13,9 C 6,7 C 84 % 1030,1 hPa 0,0 l/m 4,0 km/h (1 Bft) SW 235 0 min 0,000 mm 0,0 UV-I 0 W/m 5,2 C 7,7 C 4,8 km/h (1 Bft) 100,00 %
14.05.2019 00:10 7,6 C 13,9 C 6,7 C 84 % 1030,1 hPa 0,0 l/m 1,9 km/h (1 Bft) SW 235 0 min 0,000 mm 0,0 UV-I 0 W/m 5,1 C 7,6 C 4,8 km/h (1 Bft) 97,87 %
14.05.2019 00:12 7,6 C 13,9 C 6,7 C 85 % 1030,1 hPa 0,0 l/m 2,4 km/h (1 Bft) SW 235 0 min 0,000 mm 0,0 UV-I 0 W/m 5,2 C 7,6 C 3,2 km/h (1 Bft) 100,00 %
14.05.2019 00:14 7,5 C 13,9 C 6,7 C 85 % 1030,1 hPa 0,0 l/m 1,9 km/h (1 Bft) SW 235 0 min 0,000 mm 0,0 UV-I 0 W/m 5,1 C 7,5 C 3,2 km/h (1 Bft) 97,87 %
14.05.2019 00:16 7,4 C 13,9 C 6,7 C 85 % 1030,1 hPa 0,0 l/m 2,7 km/h (1 Bft) SW 235 0 min 0,000 mm 0,0 UV-I 0 W/m 5,0 C 7,4 C 4,8 km/h (1 Bft) 100,00 %
14.05.2019 00:18 7,4 C 13,9 C 6,7 C 85 % 1030,1 hPa 0,0 l/m 3,1 km/h (1 Bft) SW 235 0 min 0,000 mm 0,0 UV-I 0 W/m 5,0 C 7,4 C 4,8 km/h (1 Bft) 100,00 %
14.05.2019 00:20 7,4 C 13,9 C 6,1 C 85 % 1030,0 hPa 0,0 l/m 2,2 km/h (1 Bft) SW 235 0 min 0,000 mm 0,0 UV-I 0 W/m 5,0 C 7,4 C 4,8 km/h (1 Bft) 100,00 %
14.05.2019 00:22 7,4 C 13,9 C 6,1 C 86 % 1030,0 hPa 0,0 l/m 1,7 km/h (1 Bft) SW 235 0 min 0,000 mm 0,0 UV-I 0 W/m 5,2 C 7,4 C 3,2 km/h (1 Bft) 100,00 %
14.05.2019 00:24 7,3 C 13,9 C 6,1 C 86 % 1030,0 hPa 0,0 l/m 1,6 km/h (1 Bft) SW 235 0 min 0,000 mm 0,0 UV-I 0 W/m 5,1 C 7,3 C 3,2 km/h (1 Bft) 97,87 %
14.05.2019 00:26 7,3 C 13,9 C 6,1 C 86 % 1030,0 hPa 0,0 l/m 3,6 km/h (1 Bft) SW 235 0 min 0,000 mm 0,0 UV-I 0 W/m 5,1 C 7,3 C 4,8 km/h (1 Bft) 97,87 %
14.05.2019 00:28 7,3 C 13,9 C 6,1 C 86 % 1030,0 hPa 0,0 l/m 3,7 km/h (1 Bft) SW 235 0 min 0,000 mm 0,0 UV-I 0 W/m 5,1 C 7,3 C 4,8 km/h (1 Bft) 97,87 %
14.05.2019 00:30 7,3 C 13,9 C 6,1 C 87 % 1030,0 hPa 0,0 l/m 4,0 km/h (1 Bft) SW 235 0 min 0,000 mm 0,0 UV-I 0 W/m 5,3 C 7,3 C 4,8 km/h (1 Bft) 95,83 %
14.05.2019 00:32 7,2 C 13,9 C 6,1 C 87 % 1030,0 hPa 0,0 l/m 5,2 km/h (1 Bft) SW 235 0 min 0,000 mm 0,0 UV-I 0 W/m 5,2 C 7,2 C 6,4 km/h (2 Bft) 97,87 %
14.05.2019 00:34 7,2 C 13,9 C 6,1 C 87 % 1030,0 hPa 0,0 l/m 5,2 km/h (1 Bft) W-NW 296 0 min 0,000 mm 0,0 UV-I 0 W/m 5,2 C 7,2 C 11,3 km/h (2 Bft) 97,87 %
14.05.2019 00:36 7,2 C 13,9 C 6,1 C 87 % 1030,0 hPa 0,0 l/m 4,5 km/h (1 Bft) W 259 0 min 0,000 mm 0,0 UV-I 0 W/m 5,2 C 7,2 C 6,4 km/h (2 Bft) 97,87 %
14.05.2019 00:38 7,2 C 13,9 C 6,1 C 87 % 1030,0 hPa 0,0 l/m 5,2 km/h (1 Bft) W-SW 255 0 min 0,000 mm 0,0 UV-I 0 W/m 5,2 C 7,2 C 6,4 km/h (2 Bft) 95,74 %
14.05.2019 00:40 7,2 C 13,9 C 6,1 C 88 % 1030,1 hPa 0,0 l/m 2,6 km/h (1 Bft) W-SW 254 0 min 0,000 mm 0,0 UV-I 0 W/m 5,3 C 7,2 C 4,8 km/h (1 Bft) 96,00 %
14.05.2019 00:42 7,1 C 13,9 C 6,1 C 88 % 1030,0 hPa 0,0 l/m 3,5 km/h (1 Bft) W-SW 254 0 min 0,000 mm 0,0 UV-I 0 W/m 5,2 C 7,1 C 4,8 km/h (1 Bft) 95,74 %
14.05.2019 00:44 7,1 C 13,9 C 6,1 C 88 % 1030,0 hPa 0,0 l/m 2,3 km/h (1 Bft) W-SW 254 0 min 0,000 mm 0,0 UV-I 0 W/m 5,2 C 7,1 C 4,8 km/h (1 Bft) 97,87 %
14.05.2019 00:46 7,1 C 13,9 C 6,1 C 88 % 1030,1 hPa 0,0 l/m 3,6 km/h (1 Bft) W-SW 254 0 min 0,000 mm 0,0 UV-I 0 W/m 5,2 C 7,1 C 4,8 km/h (1 Bft) 93,62 %
14.05.2019 00:48 7,1 C 13,9 C 6,1 C 88 % 1030,1 hPa 0,0 l/m 4,5 km/h (1 Bft) W-SW 253 0 min 0,000 mm 0,0 UV-I 0 W/m 5,2 C 7,1 C 6,4 km/h (2 Bft) 97,14 %
14.05.2019 00:50 7,1 C 13,9 C 6,1 C 88 % 1030,1 hPa 0,0 l/m 3,1 km/h (1 Bft) W-SW 254 0 min 0,000 mm 0,0 UV-I 0 W/m 5,2 C 7,1 C 4,8 km/h (1 Bft) 98,00 %
14.05.2019 00:52 7,1 C 13,9 C 6,1 C 88 % 1030,1 hPa 0,0 l/m 3,1 km/h (1 Bft) W-SW 254 0 min 0,000 mm 0,0 UV-I 0 W/m 5,2 C 7,1 C 4,8 km/h (1 Bft) 92,00 %
14.05.2019 00:54 7,1 C 13,9 C 6,1 C 88 % 1030,0 hPa 0,0 l/m 3,5 km/h (1 Bft) W-SW 254 0 min 0,000 mm 0,0 UV-I 0 W/m 5,2 C 7,1 C 4,8 km/h (1 Bft) 93,62 %
14.05.2019 00:56 7,1 C 13,9 C 6,1 C 88 % 1030,0 hPa 0,0 l/m 3,3 km/h (1 Bft) W-SW 254 0 min 0,000 mm 0,0 UV-I 0 W/m 5,2 C 7,1 C 4,8 km/h (1 Bft) 93,62 %
14.05.2019 00:58 7,0 C 13,9 C 6,1 C 88 % 1029,9 hPa 0,0 l/m 3,4 km/h (1 Bft) W-SW 254 0 min 0,000 mm 0,0 UV-I 0 W/m 5,2 C 7,0 C 4,8 km/h (1 Bft) 95,74 %
14.05.2019 01:00 7,0 C 13,9 C 6,1 C 88 % 1030,0 hPa 0,0 l/m 3,3 km/h (1 Bft) W-SW 254 0 min 0,000 mm 0,0 UV-I 0 W/m 5,2 C 7,0 C 4,8 km/h (1 Bft) 95,74 %
14.05.2019 01:02 6,9 C 13,9 C 6,1 C 89 % 1029,9 hPa 0,0 l/m 2,5 km/h (1 Bft) W-SW 254 0 min 0,000 mm 0,0 UV-I 0 W/m 5,2 C 6,9 C 3,2 km/h (1 Bft) 96,00 %
14.05.2019 01:04 6,9 C 13,9 C 6,1 C 89 % 1029,9 hPa 0,0 l/m 1,7 km/h (1 Bft) W-SW 254 0 min 0,000 mm 0,0 UV-I 0 W/m 5,2 C 6,9 C 3,2 km/h (1 Bft) 91,49 %
14.05.2019 01:06 6,9 C 13,9 C 6,1 C 89 % 1029,9 hPa 0,0 l/m 1,7 km/h (1 Bft) W-SW 254 0 min 0,000 mm 0,0 UV-I 0 W/m 5,2 C 6,9 C 3,2 km/h (1 Bft) 95,74 %
14.05.2019 01:08 6,8 C 13,9 C 6,1 C 89 % 1029,9 hPa 0,0 l/m 2,1 km/h (1 Bft) W-SW 253 0 min 0,000 mm 0,0 UV-I 0 W/m 5,1 C 6,8 C 3,2 km/h (1 Bft) 94,87 %
14.05.2019 01:10 6,8 C 13,9 C 6,1 C 89 % 1029,9 hPa 0,0 l/m 1,9 km/h (1 Bft) W-SW 253 0 min 0,000 mm 0,0 UV-I 0 W/m 5,1 C 6,8 C 3,2 km/h (1 Bft) 95,74 %
14.05.2019 01:12 6,8 C 13,9 C 6,1 C 89 % 1029,8 hPa 0,0 l/m 2,3 km/h (1 Bft) W-SW 253 0 min 0,000 mm 0,0 UV-I 0 W/m 5,1 C 6,8 C 3,2 km/h (1 Bft) 95,74 %
14.05.2019 01:14 6,8 C 13,9 C 6,1 C 90 % 1029,9 hPa 0,0 l/m 2,6 km/h (1 Bft) W-SW 253 0 min 0,000 mm 0,0 UV-I 0 W/m 5,3 C 6,8 C 3,2 km/h (1 Bft) 91,49 %
14.05.2019 01:16 6,8 C 13,9 C 5,6 C 89 % 1029,8 hPa 0,0 l/m 2,9 km/h (1 Bft) W-SW 253 0 min 0,000 mm 0,0 UV-I 0 W/m 5,1 C 6,8 C 3,2 km/h (1 Bft) 93,62 %
14.05.2019 01:18 6,8 C 13,9 C 5,6 C 89 % 1029,8 hPa 0,0 l/m 2,8 km/h (1 Bft) W-SW 253 0 min 0,000 mm 0,0 UV-I 0 W/m 5,1 C 6,8 C 4,8 km/h (1 Bft) 95,74 %
14.05.2019 01:20 6,7 C 13,9 C 5,6 C 89 % 1029,8 hPa 0,0 l/m 2,4 km/h (1 Bft) W-SW 253 0 min 0,000 mm 0,0 UV-I 0 W/m 5,0 C 6,7 C 4,8 km/h (1 Bft) 95,74 %
14.05.2019 01:22 6,7 C 13,9 C 5,6 C 89 % 1029,7 hPa 0,0 l/m 3,5 km/h (1 Bft) W-SW 253 0 min 0,000 mm 0,0 UV-I 0 W/m 5,0 C 6,7 C 4,8 km/h (1 Bft) 96,00 %
14.05.2019 01:24 6,7 C 13,9 C 5,6 C 90 % 1029,7 hPa 0,0 l/m 3,3 km/h (1 Bft) W-SW 253 0 min 0,000 mm 0,0 UV-I 0 W/m 5,2 C 6,7 C 4,8 km/h (1 Bft) 95,74 %
14.05.2019 01:26 6,6 C 13,9 C 5,0 C 89 % 1029,6 hPa 0,0 l/m 2,2 km/h (1 Bft) W-SW 253 0 min 0,000 mm 0,0 UV-I 0 W/m 4,9 C 6,6 C 3,2 km/h (1 Bft) 95,74 %
14.05.2019 01:28 6,6 C 13,9 C 5,0 C 90 % 1029,5 hPa 0,0 l/m 3,5 km/h (1 Bft) W-SW 252 0 min 0,000 mm 0,0 UV-I 0 W/m 5,1 C 6,6 C 4,8 km/h (1 Bft) 95,74 %
14.05.2019 01:30 6,6 C 13,9 C 5,0 C 89 % 1029,5 hPa 0,0 l/m 4,1 km/h (1 Bft) W-SW 252 0 min 0,000 mm 0,0 UV-I 0 W/m 4,9 C 6,6 C 4,8 km/h (1 Bft) 96,00 %
14.05.2019 01:32 6,6 C 13,9 C 5,0 C 89 % 1029,5 hPa 0,0 l/m 3,3 km/h (1 Bft) W-SW 238 0 min 0,000 mm 0,0 UV-I 0 W/m 4,9 C 6,6 C 4,8 km/h (1 Bft) 93,62 %
14.05.2019 01:34 6,4 C 13,9 C 4,4 C 89 % 1029,4 hPa 0,0 l/m 3,1 km/h (1 Bft) W-SW 238 0 min 0,000 mm 0,0 UV-I 0 W/m 4,7 C 6,4 C 4,8 km/h (1 Bft) 97,87 %
14.05.2019 01:36 6,3 C 13,9 C 4,4 C 90 % 1029,4 hPa 0,0 l/m 3,9 km/h (1 Bft) SW 223 0 min 0,000 mm 0,0 UV-I 0 W/m 4,8 C 6,3 C 6,4 km/h (2 Bft) 94,74 %
14.05.2019 01:38 6,3 C 13,9 C 5,0 C 90 % 1029,4 hPa 0,0 l/m 4,0 km/h (1 Bft) SW 223 0 min 0,000 mm 0,0 UV-I 0 W/m 4,8 C 6,3 C 4,8 km/h (1 Bft) 96,23 %
14.05.2019 01:40 6,3 C 13,9 C 5,0 C 90 % 1029,4 hPa 0,0 l/m 3,2 km/h (1 Bft) SW 223 0 min 0,000 mm 0,0 UV-I 0 W/m 4,8 C 6,3 C 4,8 km/h (1 Bft) 97,87 %
14.05.2019 01:42 6,3 C 13,3 C 5,0 C 90 % 1029,4 hPa 0,0 l/m 3,0 km/h (1 Bft) SW 223 0 min 0,000 mm 0,0 UV-I 0 W/m 4,8 C 6,3 C 4,8 km/h (1 Bft) 100,00 %
14.05.2019 01:44 6,2 C 13,3 C 5,0 C 90 % 1029,3 hPa 0,0 l/m 2,9 km/h (1 Bft) SW 223 0 min 0,000 mm 0,0 UV-I 0 W/m 4,7 C 6,2 C 3,2 km/h (1 Bft) 91,67 %
14.05.2019 01:46 6,2 C 13,9 C 5,0 C 90 % 1029,3 hPa 0,0 l/m 3,0 km/h (1 Bft) SW 223 0 min 0,000 mm 0,0 UV-I 0 W/m 4,7 C 6,2 C 4,8 km/h (1 Bft) 97,83 %
14.05.2019 01:48 6,2 C 13,9 C 5,0 C 90 % 1029,3 hPa 0,0 l/m 3,5 km/h (1 Bft) SW 223 0 min 0,000 mm 0,0 UV-I 0 W/m 4,7 C 6,2 C 4,8 km/h (1 Bft) 91,67 %
14.05.2019 01:50 6,1 C 13,3 C 5,0 C 90 % 1029,3 hPa 0,0 l/m 3,6 km/h (1 Bft) SW 223 0 min 0,000 mm 0,0 UV-I 0 W/m 4,6 C 6,1 C 4,8 km/h (1 Bft) 98,15 %
14.05.2019 01:52 6,1 C 13,3 C 5,0 C 90 % 1029,3 hPa 0,0 l/m 4,0 km/h (1 Bft) SW 223 0 min 0,000 mm 0,0 UV-I 0 W/m 4,6 C 6,1 C 4,8 km/h (1 Bft) 97,87 %
14.05.2019 01:54 6,1 C 13,3 C 5,0 C 90 % 1029,3 hPa 0,0 l/m 2,3 km/h (1 Bft) SW 223 0 min 0,000 mm 0,0 UV-I 0 W/m 4,6 C 6,1 C 4,8 km/h (1 Bft) 98,00 %
14.05.2019 01:56 6,2 C 13,3 C 5,0 C 90 % 1029,3 hPa 0,0 l/m 3,4 km/h (1 Bft) SW 223 0 min 0,000 mm 0,0 UV-I 0 W/m 4,7 C 6,2 C 4,8 km/h (1 Bft) 98,00 %
14.05.2019 01:58 6,2 C 13,3 C 5,0 C 90 % 1029,3 hPa 0,0 l/m 3,1 km/h (1 Bft) SW 223 0 min 0,000 mm 0,0 UV-I 0 W/m 4,7 C 6,2 C 3,2 km/h (1 Bft) 95,74 %
14.05.2019 02:00 6,2 C 13,3 C 5,0 C 90 % 1029,2 hPa 0,0 l/m 2,8 km/h (1 Bft) SW 223 0 min 0,000 mm 0,0 UV-I 0 W/m 4,7 C 6,2 C 3,2 km/h (1 Bft) 97,87 %
14.05.2019 02:02 6,1 C 13,3 C 5,0 C 90 % 1029,2 hPa 0,0 l/m 3,6 km/h (1 Bft) SW 223 0 min 0,000 mm 0,0 UV-I 0 W/m 4,6 C 6,1 C 6,4 km/h (2 Bft) 97,87 %
14.05.2019 02:04 6,1 C 13,3 C 5,0 C 90 % 1029,2 hPa 0,0 l/m 4,6 km/h (1 Bft) SW 223 0 min 0,000 mm 0,0 UV-I 0 W/m 4,6 C 6,1 C 6,4 km/h (2 Bft) 97,22 %
14.05.2019 02:06 6,1 C 13,3 C 5,0 C 90 % 1029,2 hPa 0,0 l/m 2,8 km/h (1 Bft) SW 223 0 min 0,000 mm 0,0 UV-I 0 W/m 4,6 C 6,1 C 4,8 km/h (1 Bft) 97,87 %
14.05.2019 02:08 6,0 C 13,3 C 5,0 C 90 % 1029,2 hPa 0,0 l/m 3,3 km/h (1 Bft) SW 223 0 min 0,000 mm 0,0 UV-I 0 W/m 4,5 C 6,0 C 4,8 km/h (1 Bft) 97,87 %
14.05.2019 02:10 6,0 C 13,3 C 5,0 C 91 % 1029,2 hPa 0,0 l/m 2,5 km/h (1 Bft) SW 223 0 min 0,000 mm 0,0 UV-I 0 W/m 4,6 C 6,0 C 3,2 km/h (1 Bft) 97,87 %
14.05.2019 02:12 5,9 C 13,3 C 5,0 C 91 % 1029,2 hPa 0,0 l/m 3,0 km/h (1 Bft) SW 223 0 min 0,000 mm 0,0 UV-I 0 W/m 4,5 C 5,9 C 4,8 km/h (1 Bft) 100,00 %
14.05.2019 02:14 5,9 C 13,3 C 5,0 C 91 % 1029,2 hPa 0,0 l/m 2,8 km/h (1 Bft) SW 223 0 min 0,000 mm 0,0 UV-I 0 W/m 4,5 C 5,9 C 3,2 km/h (1 Bft) 95,74 %
14.05.2019 02:16 5,9 C 13,3 C 5,0 C 91 % 1029,1 hPa 0,0 l/m 2,7 km/h (1 Bft) SW 223 0 min 0,000 mm 0,0 UV-I 0 W/m 4,5 C 5,9 C 4,8 km/h (1 Bft) 100,00 %
14.05.2019 02:18 5,9 C 13,3 C 5,0 C 91 % 1029,1 hPa 0,0 l/m 3,4 km/h (1 Bft) SW 223 0 min 0,000 mm 0,0 UV-I 0 W/m 4,5 C 5,9 C 4,8 km/h (1 Bft) 98,00 %
14.05.2019 02:20 5,9 C 13,3 C 5,0 C 91 % 1029,2 hPa 0,0 l/m 1,9 km/h (1 Bft) SW 223 0 min 0,000 mm 0,0 UV-I 0 W/m 4,5 C 5,9 C 3,2 km/h (1 Bft) 100,00 %
14.05.2019 02:22 6,0 C 13,3 C 5,0 C 91 % 1029,1 hPa 0,0 l/m 0,9 km/h (0 Bft) SW 223 0 min 0,000 mm 0,0 UV-I 0 W/m 4,6 C 6,0 C 1,6 km/h (1 Bft) 97,87 %
14.05.2019 02:24 6,1 C 13,3 C 5,0 C 91 % 1029,1 hPa 0,0 l/m 1,4 km/h (1 Bft) SW 223 0 min 0,000 mm 0,0 UV-I 0 W/m 4,7 C 6,1 C 3,2 km/h (1 Bft) 100,00 %
14.05.2019 02:26 6,1 C 13,3 C 5,0 C 90 % 1029,1 hPa 0,0 l/m 1,7 km/h (1 Bft) SW 223 0 min 0,000 mm 0,0 UV-I 0 W/m 4,6 C 6,1 C 3,2 km/h (1 Bft) 100,00 %
14.05.2019 02:28 6,1 C 13,3 C 5,0 C 90 % 1029,1 hPa 0,0 l/m 2,6 km/h (1 Bft) SW 223 0 min 0,000 mm 0,0 UV-I 0 W/m 4,6 C 6,1 C 3,2 km/h (1 Bft) 100,00 %
14.05.2019 02:30 6,1 C 13,3 C 5,0 C 90 % 1029,1 hPa 0,0 l/m 2,7 km/h (1 Bft) SW 223 0 min 0,000 mm 0,0 UV-I 0 W/m 4,6 C 6,1 C 3,2 km/h (1 Bft) 97,37 %
14.05.2019 02:32 6,1 C 13,3 C 5,0 C 90 % 1029,1 hPa 0,0 l/m 3,3 km/h (1 Bft) SW 223 0 min 0,000 mm 0,0 UV-I 0 W/m 4,6 C 6,1 C 4,8 km/h (1 Bft) 95,74 %
14.05.2019 02:34 5,9 C 13,3 C 5,6 C 91 % 1029,1 hPa 0,0 l/m 3,5 km/h (1 Bft) SW 223 0 min 0,000 mm 0,0 UV-I 0 W/m 4,5 C 5,9 C 4,8 km/h (1 Bft) 97,87 %
14.05.2019 02:36 5,9 C 13,3 C 5,6 C 91 % 1029,1 hPa 0,0 l/m 2,8 km/h (1 Bft) SW 223 0 min 0,000 mm 0,0 UV-I 0 W/m 4,5 C 5,9 C 4,8 km/h (1 Bft) 95,74 %
14.05.2019 02:38 5,9 C 13,3 C 5,6 C 91 % 1029,0 hPa 0,0 l/m 3,3 km/h (1 Bft) SW 223 0 min 0,000 mm 0,0 UV-I 0 W/m 4,5 C 5,9 C 4,8 km/h (1 Bft) 100,00 %
14.05.2019 02:41 5,9 C 13,3 C 5,6 C 91 % 1029,0 hPa 0,0 l/m 2,9 km/h (1 Bft) SW 223 0 min 0,000 mm 0,0 UV-I 0 W/m 4,5 C 5,9 C 4,8 km/h (1 Bft) 100,00 %
14.05.2019 02:42 5,9 C 13,3 C 5,6 C 91 % 1029,0 hPa 0,0 l/m 3,0 km/h (1 Bft) SW 223 0 min 0,000 mm 0,0 UV-I 0 W/m 4,5 C 5,9 C 4,8 km/h (1 Bft) 100,00 %
14.05.2019 02:44 5,9 C 13,3 C 5,6 C 91 % 1029,0 hPa 0,0 l/m 4,4 km/h (1 Bft) SW 223 0 min 0,000 mm 0,0 UV-I 0 W/m 4,5 C 5,9 C 6,4 km/h (2 Bft) 100,00 %
14.05.2019 02:46 5,8 C 13,3 C 5,0 C 91 % 1029,0 hPa 0,0 l/m 4,6 km/h (1 Bft) SW 223 0 min 0,000 mm 0,0 UV-I 0 W/m 4,4 C 5,8 C 6,4 km/h (2 Bft) 100,00 %
14.05.2019 02:48 5,8 C 13,3 C 5,0 C 92 % 1029,1 hPa 0,0 l/m 4,3 km/h (1 Bft) SW 223 0 min 0,000 mm 0,0 UV-I 0 W/m 4,6 C 5,8 C 6,4 km/h (2 Bft) 100,00 %
14.05.2019 02:50 5,9 C 13,3 C 5,0 C 92 % 1029,0 hPa 0,0 l/m 4,3 km/h (1 Bft) SW 223 0 min 0,000 mm 0,0 UV-I 0 W/m 4,7 C 5,9 C 4,8 km/h (1 Bft) 100,00 %
14.05.2019 02:52 5,9 C 13,3 C 5,0 C 92 % 1029,0 hPa 0,0 l/m 5,0 km/h (1 Bft) SW 226 0 min 0,000 mm 0,0 UV-I 0 W/m 4,7 C 5,9 C 6,4 km/h (2 Bft) 100,00 %
14.05.2019 02:54 5,9 C 13,3 C 5,0 C 92 % 1029,0 hPa 0,0 l/m 3,7 km/h (1 Bft) SW 226 0 min 0,000 mm 0,0 UV-I 0 W/m 4,7 C 5,9 C 4,8 km/h (1 Bft) 100,00 %
14.05.2019 02:56 5,9 C 13,3 C 5,0 C 92 % 1029,0 hPa 0,0 l/m 2,9 km/h (1 Bft) SW 226 0 min 0,000 mm 0,0 UV-I 0 W/m 4,7 C 5,9 C 4,8 km/h (1 Bft) 97,87 %
14.05.2019 02:58 5,9 C 13,3 C 4,4 C 92 % 1029,0 hPa 0,0 l/m 3,6 km/h (1 Bft) SW 226 0 min 0,000 mm 0,0 UV-I 0 W/m 4,7 C 5,9 C 4,8 km/h (1 Bft) 100,00 %
14.05.2019 03:00 5,9 C 13,3 C 4,4 C 92 % 1029,0 hPa 0,0 l/m 4,8 km/h (1 Bft) SW 226 0 min 0,000 mm 0,0 UV-I 0 W/m 4,7 C 5,9 C 6,4 km/h (2 Bft) 97,96 %
14.05.2019 03:02 5,8 C 13,3 C 4,4 C 92 % 1029,0 hPa 0,0 l/m 4,4 km/h (1 Bft) SW 226 0 min 0,000 mm 0,0 UV-I 0 W/m 4,6 C 5,8 C 4,8 km/h (1 Bft) 97,92 %
14.05.2019 03:04 5,8 C 13,3 C 4,4 C 92 % 1028,9 hPa 0,0 l/m 3,7 km/h (1 Bft) SW 226 0 min 0,000 mm 0,0 UV-I 0 W/m 4,6 C 5,8 C 4,8 km/h (1 Bft) 93,62 %
14.05.2019 03:06 5,8 C 13,3 C 3,9 C 92 % 1029,0 hPa 0,0 l/m 3,2 km/h (1 Bft) SW 225 0 min 0,000 mm 0,0 UV-I 0 W/m 4,6 C 5,8 C 4,8 km/h (1 Bft) 93,62 %
14.05.2019 03:08 5,8 C 13,3 C 3,9 C 92 % 1028,9 hPa 0,0 l/m 4,4 km/h (1 Bft) SW 225 0 min 0,000 mm 0,0 UV-I 0 W/m 4,6 C 5,8 C 6,4 km/h (2 Bft) 89,36 %
14.05.2019 03:10 5,7 C 13,3 C 3,9 C 92 % 1028,9 hPa 0,0 l/m 3,9 km/h (1 Bft) SW 225 0 min 0,000 mm 0,0 UV-I 0 W/m 4,5 C 5,7 C 4,8 km/h (1 Bft) 91,49 %
14.05.2019 03:12 5,7 C 13,3 C 3,9 C 92 % 1028,9 hPa 0,0 l/m 4,3 km/h (1 Bft) SW 225 0 min 0,000 mm 0,0 UV-I 0 W/m 4,5 C 5,7 C 6,4 km/h (2 Bft) 95,74 %
14.05.2019 03:14 5,7 C 13,3 C 3,9 C 92 % 1028,9 hPa 0,0 l/m 4,2 km/h (1 Bft) SW 225 0 min 0,000 mm 0,0 UV-I 0 W/m 4,5 C 5,7 C 6,4 km/h (2 Bft) 89,36 %
14.05.2019 03:16 5,6 C 13,3 C 3,9 C 92 % 1028,9 hPa 0,0 l/m 4,0 km/h (1 Bft) SW 225 0 min 0,000 mm 0,0 UV-I 0 W/m 4,4 C 5,6 C 6,4 km/h (2 Bft) 95,74 %
14.05.2019 03:18 5,6 C 13,3 C 3,9 C 92 % 1028,9 hPa 0,0 l/m 3,4 km/h (1 Bft) SW 225 0 min 0,000 mm 0,0 UV-I 0 W/m 4,4 C 5,6 C 4,8 km/h (1 Bft) 91,49 %
14.05.2019 03:20 5,5 C 13,3 C 3,9 C 92 % 1028,9 hPa 0,0 l/m 3,9 km/h (1 Bft) SW 225 0 min 0,000 mm 0,0 UV-I 0 W/m 4,3 C 5,5 C 4,8 km/h (1 Bft) 95,74 %
14.05.2019 03:22 5,5 C 13,3 C 3,9 C 93 % 1028,9 hPa 0,0 l/m 2,3 km/h (1 Bft) SW 225 0 min 0,000 mm 0,0 UV-I 0 W/m 4,5 C 5,5 C 3,2 km/h (1 Bft) 96,00 %
14.05.2019 03:24 5,4 C 13,3 C 3,9 C 93 % 1028,9 hPa 0,0 l/m 3,3 km/h (1 Bft) SW 225 0 min 0,000 mm 0,0 UV-I 0 W/m 4,4 C 5,4 C 4,8 km/h (1 Bft) 97,87 %
14.05.2019 03:26 5,4 C 13,3 C 3,9 C 93 % 1028,9 hPa 0,0 l/m 4,9 km/h (1 Bft) SW 225 0 min 0,000 mm 0,0 UV-I 0 W/m 4,4 C 5,4 C 6,4 km/h (2 Bft) 97,87 %
14.05.2019 03:28 5,5 C 13,3 C 4,4 C 93 % 1028,8 hPa 0,0 l/m 4,9 km/h (1 Bft) SW 225 0 min 0,000 mm 0,0 UV-I 0 W/m 4,5 C 5,5 C 6,4 km/h (2 Bft) 97,14 %
14.05.2019 03:30 5,5 C 13,3 C 4,4 C 93 % 1028,8 hPa 0,0 l/m 3,4 km/h (1 Bft) S-SW 212 0 min 0,000 mm 0,0 UV-I 0 W/m 4,5 C 5,5 C 4,8 km/h (1 Bft) 98,00 %
14.05.2019 03:32 5,6 C 13,3 C 4,4 C 93 % 1028,7 hPa 0,0 l/m 2,8 km/h (1 Bft) S-SW 212 0 min 0,000 mm 0,0 UV-I 0 W/m 4,6 C 5,6 C 4,8 km/h (1 Bft) 96,00 %
14.05.2019 03:34 5,6 C 13,3 C 4,4 C 93 % 1028,8 hPa 0,0 l/m 3,2 km/h (1 Bft) S-SW 212 0 min 0,000 mm 0,0 UV-I 0 W/m 4,6 C 5,6 C 4,8 km/h (1 Bft) 98,00 %
14.05.2019 03:36 5,6 C 13,3 C 3,9 C 93 % 1028,7 hPa 0,0 l/m 3,8 km/h (1 Bft) S-SW 213 0 min 0,000 mm 0,0 UV-I 0 W/m 4,6 C 5,6 C 4,8 km/h (1 Bft) 100,00 %
14.05.2019 03:38 5,5 C 13,3 C 3,9 C 93 % 1028,6 hPa 0,0 l/m 4,1 km/h (1 Bft) S-SW 213 0 min 0,000 mm 0,0 UV-I 0 W/m 4,5 C 5,5 C 6,4 km/h (2 Bft) 100,00 %
14.05.2019 03:40 5,5 C 13,3 C 3,9 C 92 % 1028,7 hPa 0,0 l/m 5,0 km/h (1 Bft) SW 226 0 min 0,000 mm 0,0 UV-I 0 W/m 4,3 C 5,5 C 6,4 km/h (2 Bft) 100,00 %
14.05.2019 03:42 5,5 C 13,3 C 3,3 C 92 % 1028,6 hPa 0,0 l/m 4,1 km/h (1 Bft) SW 226 0 min 0,000 mm 0,0 UV-I 0 W/m 4,3 C 5,5 C 6,4 km/h (2 Bft) 100,00 %
14.05.2019 03:44 5,4 C 13,3 C 3,9 C 92 % 1028,6 hPa 0,0 l/m 3,9 km/h (1 Bft) SW 226 0 min 0,000 mm 0,0 UV-I 0 W/m 4,2 C 5,4 C 4,8 km/h (1 Bft) 97,87 %
14.05.2019 03:46 5,3 C 13,3 C 3,9 C 92 % 1028,6 hPa 0,0 l/m 4,1 km/h (1 Bft) SW 226 0 min 0,000 mm 0,0 UV-I 0 W/m 4,1 C 5,3 C 4,8 km/h (1 Bft) 100,00 %
14.05.2019 03:48 5,3 C 13,3 C 3,9 C 92 % 1028,5 hPa 0,0 l/m 3,1 km/h (1 Bft) SW 226 0 min 0,000 mm 0,0 UV-I 0 W/m 4,1 C 5,3 C 4,8 km/h (1 Bft) 100,00 %
14.05.2019 03:50 5,2 C 13,3 C 3,3 C 92 % 1028,5 hPa 0,0 l/m 2,7 km/h (1 Bft) SW 226 0 min 0,000 mm 0,0 UV-I 0 W/m 4,0 C 5,2 C 3,2 km/h (1 Bft) 100,00 %
14.05.2019 03:52 5,1 C 13,3 C 3,3 C 92 % 1028,5 hPa 0,0 l/m 3,7 km/h (1 Bft) SW 226 0 min 0,000 mm 0,0 UV-I 0 W/m 3,9 C 5,1 C 4,8 km/h (1 Bft) 95,74 %
14.05.2019 03:54 4,9 C 13,3 C 3,3 C 93 % 1028,5 hPa 0,0 l/m 3,6 km/h (1 Bft) SW 226 0 min 0,000 mm 0,0 UV-I 0 W/m 3,9 C 4,9 C 4,8 km/h (1 Bft) 97,87 %
14.05.2019 03:56 4,9 C 13,3 C 3,3 C 93 % 1028,5 hPa 0,0 l/m 2,6 km/h (1 Bft) SW 226 0 min 0,000 mm 0,0 UV-I 0 W/m 3,9 C 4,9 C 4,8 km/h (1 Bft) 96,00 %
14.05.2019 03:58 4,9 C 13,3 C 3,3 C 93 % 1028,5 hPa 0,0 l/m 3,5 km/h (1 Bft) SW 226 0 min 0,000 mm 0,0 UV-I 0 W/m 3,9 C 4,9 C 4,8 km/h (1 Bft) 95,74 %
14.05.2019 04:00 5,0 C 13,3 C 3,3 C 93 % 1028,5 hPa 0,0 l/m 3,5 km/h (1 Bft) SW 226 0 min 0,000 mm 0,0 UV-I 0 W/m 4,0 C 5,0 C 4,8 km/h (1 Bft) 97,87 %
14.05.2019 04:02 5,1 C 13,3 C 3,3 C 93 % 1028,5 hPa 0,0 l/m 3,2 km/h (1 Bft) SW 225 0 min 0,000 mm 0,0 UV-I 0 W/m 4,1 C 5,1 C 3,2 km/h (1 Bft) 92,86 %
14.05.2019 04:04 5,2 C 13,3 C 3,9 C 93 % 1028,5 hPa 0,0 l/m 2,7 km/h (1 Bft) SW 226 0 min 0,000 mm 0,0 UV-I 0 W/m 4,2 C 5,2 C 3,2 km/h (1 Bft) 97,87 %
14.05.2019 04:06 5,2 C 13,3 C 3,9 C 93 % 1028,4 hPa 0,0 l/m 2,5 km/h (1 Bft) SW 226 0 min 0,000 mm 0,0 UV-I 0 W/m 4,2 C 5,2 C 3,2 km/h (1 Bft) 93,62 %
14.05.2019 04:08 5,2 C 13,3 C 3,9 C 93 % 1028,4 hPa 0,0 l/m 2,4 km/h (1 Bft) SW 226 0 min 0,000 mm 0,0 UV-I 0 W/m 4,2 C 5,2 C 3,2 km/h (1 Bft) 95,74 %
14.05.2019 04:10 5,2 C 13,3 C 4,4 C 93 % 1028,4 hPa 0,0 l/m 2,6 km/h (1 Bft) SW 226 0 min 0,000 mm 0,0 UV-I 0 W/m 4,2 C 5,2 C 3,2 km/h (1 Bft) 97,96 %
14.05.2019 04:12 5,2 C 13,3 C 4,4 C 93 % 1028,4 hPa 0,0 l/m 2,3 km/h (1 Bft) SW 226 0 min 0,000 mm 0,0 UV-I 0 W/m 4,2 C 5,2 C 3,2 km/h (1 Bft) 95,74 %
14.05.2019 04:14 5,2 C 13,3 C 4,4 C 93 % 1028,3 hPa 0,0 l/m 3,5 km/h (1 Bft) SW 226 0 min 0,000 mm 0,0 UV-I 0 W/m 4,2 C 5,2 C 4,8 km/h (1 Bft) 97,87 %
14.05.2019 04:16 5,2 C 13,3 C 4,4 C 93 % 1028,3 hPa 0,0 l/m 3,6 km/h (1 Bft) SW 225 0 min 0,000 mm 0,0 UV-I 0 W/m 4,2 C 5,2 C 4,8 km/h (1 Bft) 92,00 %
14.05.2019 04:18 5,2 C 13,3 C 4,4 C 93 % 1028,3 hPa 0,0 l/m 3,2 km/h (1 Bft) SW 226 0 min 0,000 mm 0,0 UV-I 0 W/m 4,2 C 5,2 C 4,8 km/h (1 Bft) 95,12 %
14.05.2019 04:20 5,2 C 13,3 C 4,4 C 93 % 1028,3 hPa 0,0 l/m 4,0 km/h (1 Bft) SW 225 0 min 0,000 mm 0,0 UV-I 0 W/m 4,2 C 5,2 C 6,4 km/h (2 Bft) 91,49 %
14.05.2019 04:22 5,2 C 13,3 C 5,0 C 93 % 1028,3 hPa 0,0 l/m 3,6 km/h (1 Bft) SW 225 0 min 0,000 mm 0,0 UV-I 0 W/m 4,2 C 5,2 C 4,8 km/h (1 Bft) 93,62 %
14.05.2019 04:24 5,2 C 13,3 C 4,4 C 93 % 1028,3 hPa 0,0 l/m 3,7 km/h (1 Bft) SW 226 0 min 0,000 mm 0,0 UV-I 0 W/m 4,2 C 5,2 C 6,4 km/h (2 Bft) 93,62 %
14.05.2019 04:26 5,3 C 13,3 C 4,4 C 93 % 1028,2 hPa 0,0 l/m 3,6 km/h (1 Bft) SW 226 0 min 0,000 mm 0,0 UV-I 0 W/m 4,3 C 5,3 C 4,8 km/h (1 Bft) 93,62 %
14.05.2019 04:28 5,2 C 13,3 C 4,4 C 93 % 1028,2 hPa 0,0 l/m 4,3 km/h (1 Bft) SW 226 0 min 0,000 mm 0,0 UV-I 0 W/m 4,2 C 5,2 C 4,8 km/h (1 Bft) 95,74 %
14.05.2019 04:30 5,2 C 13,3 C 4,4 C 93 % 1028,2 hPa 0,0 l/m 4,0 km/h (1 Bft) SW 225 0 min 0,000 mm 0,0 UV-I 0 W/m 4,2 C 5,2 C 6,4 km/h (2 Bft) 95,74 %
14.05.2019 04:32 5,2 C 13,3 C 4,4 C 93 % 1028,2 hPa 0,0 l/m 4,5 km/h (1 Bft) SW 225 0 min 0,000 mm 0,0 UV-I 0 W/m 4,2 C 5,2 C 6,4 km/h (2 Bft) 96,00 %
14.05.2019 04:34 5,1 C 13,3 C 4,4 C 93 % 1028,1 hPa 0,0 l/m 3,7 km/h (1 Bft) S-SW 213 0 min 0,000 mm 0,0 UV-I 0 W/m 4,1 C 5,1 C 4,8 km/h (1 Bft) 95,74 %
14.05.2019 04:37 5,1 C 13,3 C 4,4 C 93 % 1028,1 hPa 0,0 l/m 3,5 km/h (1 Bft) S-SW 213 0 min 0,000 mm 0,0 UV-I 0 W/m 4,1 C 5,1 C 4,8 km/h (1 Bft) 94,92 %
14.05.2019 04:38 5,1 C 13,3 C 4,4 C 93 % 1028,1 hPa 0,0 l/m 2,2 km/h (1 Bft) S-SW 213 0 min 0,000 mm 0,0 UV-I 0 W/m 4,1 C 5,1 C 3,2 km/h (1 Bft) 100,00 %
14.05.2019 04:40 5,1 C 13,3 C 4,4 C 93 % 1028,1 hPa 0,0 l/m 2,9 km/h (1 Bft) S-SW 213 0 min 0,000 mm 0,0 UV-I 0 W/m 4,1 C 5,1 C 3,2 km/h (1 Bft) 92,00 %
14.05.2019 04:42 5,1 C 13,3 C 4,4 C 93 % 1028,1 hPa 0,0 l/m 3,5 km/h (1 Bft) S-SW 213 0 min 0,000 mm 0,0 UV-I 0 W/m 4,1 C 5,1 C 4,8 km/h (1 Bft) 98,00 %
14.05.2019 04:44 5,1 C 13,3 C 3,9 C 93 % 1028,1 hPa 0,0 l/m 3,4 km/h (1 Bft) S-SW 213 0 min 0,000 mm 0,0 UV-I 0 W/m 4,1 C 5,1 C 4,8 km/h (1 Bft) 100,00 %
14.05.2019 04:46 5,2 C 13,3 C 3,9 C 93 % 1028,1 hPa 0,0 l/m 2,4 km/h (1 Bft) S-SW 213 0 min 0,000 mm 0,0 UV-I 0 W/m 4,2 C 5,2 C 3,2 km/h (1 Bft) 100,00 %
14.05.2019 04:48 5,1 C 13,3 C 3,9 C 93 % 1028,0 hPa 0,0 l/m 3,2 km/h (1 Bft) S-SW 213 0 min 0,000 mm 0,0 UV-I 0 W/m 4,1 C 5,1 C 4,8 km/h (1 Bft) 100,00 %
14.05.2019 04:50 5,1 C 13,3 C 3,9 C 93 % 1028,1 hPa 0,0 l/m 3,3 km/h (1 Bft) S-SW 213 0 min 0,000 mm 0,0 UV-I 0 W/m 4,1 C 5,1 C 4,8 km/h (1 Bft) 100,00 %
14.05.2019 04:52 5,1 C 13,3 C 3,3 C 93 % 1028,1 hPa 0,0 l/m 3,7 km/h (1 Bft) S-SW 213 0 min 0,000 mm 0,0 UV-I 0 W/m 4,1 C 5,1 C 4,8 km/h (1 Bft) 100,00 %
14.05.2019 04:54 5,0 C 13,3 C 3,3 C 93 % 1028,1 hPa 0,0 l/m 2,5 km/h (1 Bft) S-SW 213 0 min 0,000 mm 0,0 UV-I 0 W/m 4,0 C 5,0 C 4,8 km/h (1 Bft) 97,22 %
14.05.2019 04:56 5,0 C 13,3 C 3,3 C 93 % 1028,1 hPa 0,0 l/m 3,2 km/h (1 Bft) SW 218 0 min 0,000 mm 0,0 UV-I 0 W/m 4,0 C 5,0 C 4,8 km/h (1 Bft) 100,00 %
14.05.2019 04:58 5,0 C 13,3 C 2,8 C 93 % 1028,0 hPa 0,0 l/m 4,1 km/h (1 Bft) SW 218 0 min 0,000 mm 0,0 UV-I 0 W/m 4,0 C 5,0 C 6,4 km/h (2 Bft) 95,74 %
14.05.2019 05:00 4,9 C 13,3 C 2,8 C 93 % 1028,0 hPa 0,0 l/m 3,3 km/h (1 Bft) SW 218 0 min 0,000 mm 0,0 UV-I 0 W/m 3,9 C 4,9 C 4,8 km/h (1 Bft) 98,31 %
14.05.2019 05:01 4,9 C 13,3 C 2,8 C 93 % 1027,9 hPa 0,0 l/m 3,0 km/h (1 Bft) SW 218 0 min 0,000 mm 0,0 UV-I 0 W/m 3,9 C 4,9 C 4,8 km/h (1 Bft) 100,00 %
14.05.2019 05:04 4,8 C 13,3 C 2,2 C 93 % 1027,9 hPa 0,0 l/m 2,4 km/h (1 Bft) SW 218 0 min 0,000 mm 0,0 UV-I 0 W/m 3,8 C 4,8 C 4,8 km/h (1 Bft) 100,00 %
14.05.2019 05:06 4,8 C 13,3 C 2,2 C 93 % 1027,9 hPa 0,0 l/m 3,4 km/h (1 Bft) SW 217 0 min 0,000 mm 0,0 UV-I 0 W/m 3,8 C 4,8 C 4,8 km/h (1 Bft) 100,00 %
14.05.2019 05:08 4,8 C 13,3 C 2,2 C 93 % 1027,9 hPa 0,0 l/m 4,4 km/h (1 Bft) S-SW 205 0 min 0,000 mm 0,0 UV-I 0 W/m 3,8 C 4,8 C 6,4 km/h (2 Bft) 98,21 %
14.05.2019 05:10 4,7 C 13,3 C 2,2 C 93 % 1027,8 hPa 0,0 l/m 3,1 km/h (1 Bft) S-SW 205 0 min 0,000 mm 0,0 UV-I 0 W/m 3,7 C 4,7 C 4,8 km/h (1 Bft) 96,00 %
14.05.2019 05:12 4,7 C 13,3 C 2,2 C 93 % 1027,8 hPa 0,0 l/m 3,1 km/h (1 Bft) S-SW 205 0 min 0,000 mm 0,0 UV-I 0 W/m 3,7 C 4,7 C 4,8 km/h (1 Bft) 97,56 %
14.05.2019 05:14 4,7 C 13,3 C 2,2 C 94 % 1027,8 hPa 0,0 l/m 3,2 km/h (1 Bft) S-SW 205 0 min 0,000 mm 0,0 UV-I 0 W/m 3,8 C 4,7 C 4,8 km/h (1 Bft) 94,29 %
14.05.2019 05:16 4,6 C 13,3 C 1,7 C 94 % 1027,8 hPa 0,0 l/m 3,4 km/h (1 Bft) S-SW 205 0 min 0,000 mm 0,0 UV-I 4 W/m 3,7 C 4,6 C 4,8 km/h (1 Bft) 96,92 %
14.05.2019 05:18 4,6 C 13,3 C 1,7 C 94 % 1027,8 hPa 0,0 l/m 3,3 km/h (1 Bft) S-SW 205 0 min 0,000 mm 0,0 UV-I 5 W/m 3,7 C 4,6 C 4,8 km/h (1 Bft) 97,87 %
14.05.2019 05:20 4,5 C 13,3 C 1,7 C 93 % 1027,8 hPa 0,0 l/m 2,6 km/h (1 Bft) S-SW 205 0 min 0,000 mm 0,0 UV-I 5 W/m 3,5 C 4,5 C 4,8 km/h (1 Bft) 95,74 %
14.05.2019 05:22 4,4 C 13,3 C 1,1 C 94 % 1027,8 hPa 0,0 l/m 4,2 km/h (1 Bft) S-SW 205 0 min 0,000 mm 0,0 UV-I 5 W/m 3,5 C 4,4 C 6,4 km/h (2 Bft) 97,56 %
14.05.2019 05:24 4,5 C 13,3 C 1,1 C 94 % 1027,7 hPa 0,0 l/m 5,0 km/h (1 Bft) S-SW 213 0 min 0,000 mm 0,0 UV-I 6 W/m 3,6 C 4,5 C 6,4 km/h (2 Bft) 97,87 %
14.05.2019 05:27 4,5 C 13,3 C 1,1 C 94 % 1027,6 hPa 0,0 l/m 5,0 km/h (1 Bft) SW 215 0 min 0,000 mm 0,0 UV-I 7 W/m 3,6 C 4,5 C 6,4 km/h (2 Bft) 95,38 %
14.05.2019 05:28 4,5 C 13,3 C 1,1 C 94 % 1027,6 hPa 0,0 l/m 5,0 km/h (1 Bft) SW 215 0 min 0,000 mm 0,0 UV-I 7 W/m 3,6 C 4,5 C 6,4 km/h (2 Bft) 100,00 %
14.05.2019 05:30 4,4 C 13,3 C 1,1 C 94 % 1027,6 hPa 0,0 l/m 4,1 km/h (1 Bft) SW 215 0 min 0,000 mm 0,0 UV-I 8 W/m 3,5 C 4,4 C 4,8 km/h (1 Bft) 98,00 %
14.05.2019 05:32 4,4 C 13,3 C 1,1 C 94 % 1027,6 hPa 0,0 l/m 3,7 km/h (1 Bft) SW 215 0 min 0,000 mm 0,0 UV-I 9 W/m 3,5 C 4,4 C 4,8 km/h (1 Bft) 94,00 %
14.05.2019 05:34 4,2 C 13,3 C 0,6 C 94 % 1027,6 hPa 0,0 l/m 2,8 km/h (1 Bft) SW 215 0 min 0,000 mm 0,0 UV-I 11 W/m 3,3 C 4,2 C 4,8 km/h (1 Bft) 93,62 %
14.05.2019 05:36 4,2 C 13,3 C 0,6 C 94 % 1027,7 hPa 0,0 l/m 1,6 km/h (1 Bft) SW 215 0 min 0,000 mm 0,0 UV-I 12 W/m 3,3 C 4,2 C 3,2 km/h (1 Bft) 94,87 %
14.05.2019 05:38 4,1 C 13,3 C 0,6 C 94 % 1027,6 hPa 0,0 l/m 2,4 km/h (1 Bft) SW 215 2 min 0,000 mm 0,0 UV-I 12 W/m 3,2 C 4,1 C 4,8 km/h (1 Bft) 95,74 %
14.05.2019 05:41 4,1 C 13,3 C 0,0 C 94 % 1027,7 hPa 0,0 l/m 3,4 km/h (1 Bft) SW 215 3 min 0,000 mm 0,0 UV-I 15 W/m 3,2 C 4,1 C 4,8 km/h (1 Bft) 94,94 %
14.05.2019 05:42 4,1 C 13,3 C 0,0 C 94 % 1027,6 hPa 0,0 l/m 3,6 km/h (1 Bft) SW 215 1 min 0,000 mm 0,0 UV-I 20 W/m 3,2 C 4,1 C 4,8 km/h (1 Bft) 100,00 %
14.05.2019 05:46 4,1 C 13,3 C 0,0 C 94 % 1027,6 hPa 0,0 l/m 3,4 km/h (1 Bft) SW 215 4 min 0,000 mm 0,0 UV-I 27 W/m 3,2 C 4,1 C 4,8 km/h (1 Bft) 97,62 %
14.05.2019 05:48 4,1 C 13,3 C 0,0 C 94 % 1027,7 hPa 0,0 l/m 3,1 km/h (1 Bft) SW 215 2 min 0,000 mm 0,0 UV-I 30 W/m 3,2 C 4,1 C 4,8 km/h (1 Bft) 94,00 %
14.05.2019 05:50 4,0 C 13,3 C 0,6 C 94 % 1027,7 hPa 0,0 l/m 3,4 km/h (1 Bft) SW 215 2 min 0,000 mm 0,0 UV-I 33 W/m 3,1 C 4,0 C 4,8 km/h (1 Bft) 97,87 %
14.05.2019 05:52 4,1 C 13,3 C 0,6 C 94 % 1027,7 hPa 0,0 l/m 3,3 km/h (1 Bft) SW 215 2 min 0,000 mm 0,0 UV-I 36 W/m 3,2 C 4,1 C 4,8 km/h (1 Bft) 97,14 %
14.05.2019 05:54 3,9 C 13,3 C 0,6 C 94 % 1027,7 hPa 0,0 l/m 3,6 km/h (1 Bft) SW 215 2 min 0,000 mm 0,0 UV-I 39 W/m 3,0 C 3,9 C 4,8 km/h (1 Bft) 98,11 %
14.05.2019 05:56 3,8 C 13,3 C 0,6 C 94 % 1027,8 hPa 0,0 l/m 2,8 km/h (1 Bft) SW 215 2 min 0,000 mm 0,0 UV-I 41 W/m 2,9 C 3,8 C 4,8 km/h (1 Bft) 100,00 %
14.05.2019 05:58 3,8 C 13,3 C 1,1 C 94 % 1027,8 hPa 0,0 l/m 1,6 km/h (1 Bft) SW 215 2 min 0,000 mm 0,0 UV-I 44 W/m 2,9 C 3,8 C 3,2 km/h (1 Bft) 95,71 %
14.05.2019 06:00 3,7 C 13,3 C 1,1 C 94 % 1027,8 hPa 0,0 l/m 2,3 km/h (1 Bft) SW 215 2 min 0,000 mm 0,0 UV-I 48 W/m 2,8 C 3,7 C 3,2 km/h (1 Bft) 100,00 %
14.05.2019 06:02 3,7 C 13,3 C 1,1 C 94 % 1027,8 hPa 0,0 l/m 1,8 km/h (1 Bft) SW 215 2 min 0,000 mm 0,0 UV-I 53 W/m 2,8 C 3,7 C 3,2 km/h (1 Bft) 100,00 %
14.05.2019 06:05 3,7 C 13,3 C 1,1 C 94 % 1027,8 hPa 0,0 l/m 2,4 km/h (1 Bft) SW 215 3 min 0,000 mm 0,0 UV-I 57 W/m 2,8 C 3,7 C 3,2 km/h (1 Bft) 100,00 %
14.05.2019 06:06 3,7 C 13,3 C 1,1 C 94 % 1027,8 hPa 0,0 l/m 2,3 km/h (1 Bft) SW 215 1 min 0,000 mm 0,0 UV-I 61 W/m 2,8 C 3,7 C 3,2 km/h (1 Bft) 100,00 %
14.05.2019 06:10 4,0 C 13,3 C 1,1 C 95 % 1027,8 hPa 0,0 l/m 3,9 km/h (1 Bft) SW 215 4 min 0,000 mm 0,0 UV-I 68 W/m 3,3 C 4,0 C 6,4 km/h (2 Bft) 97,44 %
14.05.2019 06:12 4,1 C 13,3 C 1,7 C 95 % 1027,8 hPa 0,0 l/m 4,0 km/h (1 Bft) SW 215 2 min 0,000 mm 0,0 UV-I 71 W/m 3,4 C 4,1 C 4,8 km/h (1 Bft) 100,00 %
14.05.2019 06:14 4,2 C 13,3 C 1,7 C 95 % 1027,8 hPa 0,0 l/m 3,2 km/h (1 Bft) SW 215 2 min 0,000 mm 0,0 UV-I 74 W/m 3,5 C 4,2 C 4,8 km/h (1 Bft) 100,00 %
14.05.2019 06:16 4,3 C 13,3 C 2,2 C 95 % 1027,8 hPa 0,0 l/m 2,8 km/h (1 Bft) SW 215 2 min 0,000 mm 0,0 UV-I 78 W/m 3,6 C 4,3 C 4,8 km/h (1 Bft) 98,00 %
14.05.2019 06:18 4,3 C 13,3 C 2,2 C 95 % 1027,8 hPa 0,0 l/m 3,4 km/h (1 Bft) SW 215 2 min 0,000 mm 0,0 UV-I 78 W/m 3,6 C 4,3 C 4,8 km/h (1 Bft) 100,00 %
14.05.2019 06:20 4,3 C 13,3 C 2,2 C 95 % 1027,8 hPa 0,0 l/m 3,3 km/h (1 Bft) SW 215 2 min 0,000 mm 0,0 UV-I 80 W/m 3,6 C 4,3 C 4,8 km/h (1 Bft) 97,44 %
14.05.2019 06:22 4,3 C 13,3 C 1,7 C 95 % 1027,9 hPa 0,0 l/m 3,0 km/h (1 Bft) SW 215 2 min 0,000 mm 0,0 UV-I 88 W/m 3,6 C 4,3 C 4,8 km/h (1 Bft) 98,00 %
14.05.2019 06:24 4,3 C 13,3 C 1,7 C 95 % 1027,9 hPa 0,0 l/m 3,1 km/h (1 Bft) SW 215 2 min 0,000 mm 0,0 UV-I 94 W/m 3,6 C 4,3 C 4,8 km/h (1 Bft) 100,00 %
14.05.2019 06:27 4,4 C 13,3 C 1,7 C 95 % 1027,9 hPa 0,0 l/m 2,3 km/h (1 Bft) SW 215 3 min 0,000 mm 0,0 UV-I 99 W/m 3,7 C 4,4 C 3,2 km/h (1 Bft) 98,68 %
14.05.2019 06:28 4,4 C 13,3 C 1,7 C 95 % 1027,9 hPa 0,0 l/m 2,8 km/h (1 Bft) SW 215 1 min 0,000 mm 0,0 UV-I 104 W/m 3,7 C 4,4 C 3,2 km/h (1 Bft) 100,00 %
14.05.2019 06:30 4,5 C 13,3 C 1,7 C 95 % 1027,8 hPa 0,0 l/m 3,0 km/h (1 Bft) SW 215 2 min 0,000 mm 0,0 UV-I 107 W/m 3,8 C 4,5 C 4,8 km/h (1 Bft) 100,00 %
14.05.2019 06:32 4,5 C 13,3 C 2,2 C 95 % 1027,8 hPa 0,0 l/m 3,0 km/h (1 Bft) SW 215 2 min 0,000 mm 0,0 UV-I 111 W/m 3,8 C 4,5 C 4,8 km/h (1 Bft) 97,37 %
14.05.2019 06:34 4,5 C 13,3 C 2,2 C 95 % 1027,9 hPa 0,0 l/m 3,1 km/h (1 Bft) SW 215 2 min 0,000 mm 0,0 UV-I 115 W/m 3,8 C 4,5 C 4,8 km/h (1 Bft) 96,23 %
14.05.2019 06:36 4,6 C 13,3 C 2,2 C 95 % 1027,8 hPa 0,0 l/m 3,8 km/h (1 Bft) SW 215 2 min 0,000 mm 0,0 UV-I 119 W/m 3,9 C 4,6 C 4,8 km/h (1 Bft) 100,00 %
14.05.2019 06:38 4,6 C 13,3 C 2,2 C 95 % 1027,9 hPa 0,0 l/m 4,3 km/h (1 Bft) SW 217 2 min 0,000 mm 0,0 UV-I 124 W/m 3,9 C 4,6 C 6,4 km/h (2 Bft) 100,00 %
14.05.2019 06:40 4,7 C 13,3 C 2,2 C 95 % 1027,8 hPa 0,0 l/m 3,1 km/h (1 Bft) SW 217 2 min 0,000 mm 0,0 UV-I 129 W/m 4,0 C 4,7 C 4,8 km/h (1 Bft) 100,00 %
14.05.2019 06:42 4,7 C 13,3 C 2,2 C 94 % 1027,8 hPa 0,0 l/m 3,0 km/h (1 Bft) SW 217 2 min 0,000 mm 0,0 UV-I 135 W/m 3,8 C 4,7 C 4,8 km/h (1 Bft) 100,00 %
14.05.2019 06:45 4,7 C 13,3 C 2,2 C 94 % 1027,8 hPa 0,0 l/m 3,8 km/h (1 Bft) SW 218 3 min 0,000 mm 0,0 UV-I 141 W/m 3,8 C 4,7 C 4,8 km/h (1 Bft) 100,00 %
14.05.2019 06:46 4,8 C 13,3 C 2,2 C 94 % 1027,8 hPa 0,0 l/m 2,5 km/h (1 Bft) SW 218 1 min 0,000 mm 0,0 UV-I 146 W/m 3,9 C 4,8 C 3,2 km/h (1 Bft) 96,15 %
14.05.2019 06:48 4,8 C 13,3 C 2,2 C 94 % 1027,8 hPa 0,0 l/m 2,9 km/h (1 Bft) SW 218 2 min 0,000 mm 0,0 UV-I 149 W/m 3,9 C 4,8 C 4,8 km/h (1 Bft) 95,12 %
14.05.2019 06:50 4,9 C 13,3 C 2,8 C 94 % 1027,8 hPa 0,0 l/m 2,3 km/h (1 Bft) SW 218 2 min 0,000 mm 0,0 UV-I 153 W/m 4,0 C 4,9 C 3,2 km/h (1 Bft) 98,00 %
14.05.2019 06:52 5,0 C 13,3 C 2,8 C 94 % 1027,8 hPa 0,0 l/m 1,8 km/h (1 Bft) SW 218 2 min 0,000 mm 0,0 UV-I 159 W/m 4,1 C 5,0 C 3,2 km/h (1 Bft) 95,74 %
14.05.2019 06:54 5,1 C 13,3 C 2,8 C 94 % 1027,8 hPa 0,0 l/m 1,3 km/h (1 Bft) SW 218 2 min 0,000 mm 0,0 UV-I 163 W/m 4,2 C 5,1 C 3,2 km/h (1 Bft) 95,74 %
14.05.2019 06:57 5,2 C 13,3 C 2,8 C 94 % 1027,8 hPa 0,0 l/m 2,3 km/h (1 Bft) SW 222 3 min 0,000 mm 0,0 UV-I 169 W/m 4,3 C 5,2 C 4,8 km/h (1 Bft) 94,59 %
14.05.2019 06:58 5,3 C 13,3 C 2,8 C 93 % 1027,8 hPa 0,0 l/m 2,4 km/h (1 Bft) SW 222 1 min 0,000 mm 0,0 UV-I 172 W/m 4,3 C 5,3 C 3,2 km/h (1 Bft) 100,00 %
14.05.2019 07:00 5,4 C 13,3 C 3,3 C 93 % 1027,8 hPa 0,0 l/m 2,0 km/h (1 Bft) SW 222 2 min 0,051 mm 0,0 UV-I 177 W/m 4,4 C 5,4 C 3,2 km/h (1 Bft) 92,86 %
14.05.2019 07:02 5,5 C 13,3 C 3,3 C 92 % 1027,9 hPa 0,0 l/m 2,2 km/h (1 Bft) SW 222 2 min 0,000 mm 0,0 UV-I 183 W/m 4,3 C 5,5 C 3,2 km/h (1 Bft) 96,00 %
14.05.2019 07:05 5,7 C 13,3 C 3,9 C 92 % 1027,8 hPa 0,0 l/m 1,8 km/h (1 Bft) SW 223 3 min 0,000 mm 0,0 UV-I 187 W/m 4,5 C 5,7 C 3,2 km/h (1 Bft) 94,52 %
14.05.2019 07:06 5,7 C 13,3 C 3,9 C 91 % 1027,8 hPa 0,0 l/m 1,2 km/h (1 Bft) SW 223 1 min 0,000 mm 0,0 UV-I 189 W/m 4,3 C 5,7 C 3,2 km/h (1 Bft) 91,67 %
14.05.2019 07:08 5,7 C 13,3 C 3,9 C 90 % 1027,8 hPa 0,0 l/m 2,9 km/h (1 Bft) W 277 2 min 0,000 mm 0,0 UV-I 193 W/m 4,2 C 5,7 C 4,8 km/h (1 Bft) 94,00 %
14.05.2019 07:10 5,8 C 13,3 C 4,4 C 89 % 1027,8 hPa 0,0 l/m 2,9 km/h (1 Bft) W 278 2 min 0,000 mm 0,0 UV-I 198 W/m 4,1 C 5,8 C 3,2 km/h (1 Bft) 98,11 %
14.05.2019 07:12 5,9 C 13,3 C 4,4 C 88 % 1027,8 hPa 0,0 l/m 2,8 km/h (1 Bft) W 278 2 min 0,000 mm 0,0 UV-I 204 W/m 4,1 C 5,9 C 4,8 km/h (1 Bft) 97,56 %
14.05.2019 07:14 6,1 C 13,3 C 4,4 C 87 % 1027,7 hPa 0,0 l/m 2,8 km/h (1 Bft) W 278 2 min 0,000 mm 0,0 UV-I 209 W/m 4,1 C 6,1 C 4,8 km/h (1 Bft) 98,00 %
14.05.2019 07:16 6,2 C 13,3 C 4,4 C 86 % 1027,8 hPa 0,0 l/m 3,0 km/h (1 Bft) W-NW 288 2 min 0,000 mm 0,0 UV-I 215 W/m 4,0 C 6,2 C 4,8 km/h (1 Bft) 97,87 %
14.05.2019 07:18 6,2 C 13,3 C 4,4 C 86 % 1027,8 hPa 0,0 l/m 2,2 km/h (1 Bft) W-NW 289 2 min 0,000 mm 0,0 UV-I 221 W/m 4,0 C 6,2 C 3,2 km/h (1 Bft) 98,00 %
14.05.2019 07:21 6,3 C 13,3 C 5,0 C 84 % 1027,7 hPa 0,0 l/m 2,6 km/h (1 Bft) NW 323 3 min 0,000 mm 0,0 UV-I 232 W/m 3,8 C 6,3 C 4,8 km/h (1 Bft) 98,57 %
14.05.2019 07:22 6,4 C 13,3 C 5,0 C 84 % 1027,7 hPa 0,0 l/m 2,5 km/h (1 Bft) NW 323 1 min 0,000 mm 0,0 UV-I 242 W/m 3,9 C 6,4 C 3,2 km/h (1 Bft) 100,00 %
14.05.2019 07:26 6,6 C 13,3 C 5,0 C 80 % 1027,5 hPa 0,0 l/m 3,4 km/h (1 Bft) W-NW 285 4 min 0,000 mm 0,0 UV-I 259 W/m 3,4 C 6,6 C 4,8 km/h (1 Bft) 100,00 %
14.05.2019 07:27 6,7 C 13,3 C 5,0 C 80 % 1027,6 hPa 0,0 l/m 2,2 km/h (1 Bft) W-NW 285 1 min 0,000 mm 0,0 UV-I 271 W/m 3,5 C 6,7 C 3,2 km/h (1 Bft) 100,00 %
14.05.2019 07:28 6,7 C 13,3 C 5,6 C 80 % 1027,6 hPa 0,0 l/m 1,7 km/h (1 Bft) W-NW 285 1 min 0,000 mm 0,0 UV-I 232 W/m 3,5 C 6,7 C 3,2 km/h (1 Bft) 100,00 %
14.05.2019 07:30 6,7 C 13,3 C 5,6 C 79 % 1027,6 hPa 0,0 l/m 2,2 km/h (1 Bft) W-NW 285 0 min 0,000 mm 0,0 UV-I 96 W/m 3,3 C 6,7 C 4,8 km/h (1 Bft) 100,00 %
14.05.2019 07:32 6,6 C 13,3 C 5,6 C 77 % 1027,5 hPa 0,0 l/m 1,9 km/h (1 Bft) W-NW 285 0 min 0,000 mm 0,0 UV-I 124 W/m 2,9 C 6,6 C 3,2 km/h (1 Bft) 98,21 %
14.05.2019 07:35 6,6 C 13,3 C 6,1 C 78 % 1027,6 hPa 0,0 l/m 1,1 km/h (1 Bft) W-NW 285 0 min 0,000 mm 0,0 UV-I 135 W/m 3,0 C 6,6 C 3,2 km/h (1 Bft) 100,00 %
14.05.2019 07:36 6,6 C 13,3 C 6,1 C 78 % 1027,6 hPa 0,0 l/m 0,7 km/h (0 Bft) W-NW 285 0 min 0,000 mm 0,0 UV-I 121 W/m 3,0 C 6,6 C 1,6 km/h (1 Bft) 100,00 %
14.05.2019 07:38 6,6 C 13,3 C 6,1 C 77 % 1027,6 hPa 0,0 l/m 0,8 km/h (0 Bft) W-NW 285 0 min 0,000 mm 0,0 UV-I 124 W/m 2,9 C 6,6 C 3,2 km/h (1 Bft) 100,00 %
14.05.2019 07:41 6,7 C 13,3 C 6,7 C 77 % 1027,6 hPa 0,0 l/m 1,6 km/h (1 Bft) W-NW 285 0 min 0,000 mm 0,1 UV-I 168 W/m 3,0 C 6,7 C 3,2 km/h (1 Bft) 100,00 %
14.05.2019 07:42 6,7 C 13,3 C 7,2 C 78 % 1027,6 hPa 0,0 l/m 1,4 km/h (1 Bft) W-NW 285 1 min 0,000 mm 0,0 UV-I 288 W/m 3,1 C 6,7 C 3,2 km/h (1 Bft) 91,67 %
14.05.2019 07:46 6,8 C 13,3 C 7,2 C 77 % 1027,6 hPa 0,0 l/m 1,3 km/h (1 Bft) W-NW 285 0 min 0,000 mm 0,0 UV-I 159 W/m 3,1 C 6,8 C 3,2 km/h (1 Bft) 100,00 %
14.05.2019 07:48 6,8 C 13,3 C 7,8 C 78 % 1027,6 hPa 0,0 l/m 1,6 km/h (1 Bft) W-NW 285 0 min 0,000 mm 0,0 UV-I 149 W/m 3,2 C 6,8 C 3,2 km/h (1 Bft) 100,00 %
14.05.2019 07:50 6,8 C 13,3 C 7,8 C 79 % 1027,6 hPa 0,0 l/m 2,1 km/h (1 Bft) W-NW 285 0 min 0,000 mm 0,0 UV-I 163 W/m 3,4 C 6,8 C 3,2 km/h (1 Bft) 97,56 %
14.05.2019 07:52 6,9 C 13,3 C 7,8 C 78 % 1027,6 hPa 0,0 l/m 1,9 km/h (1 Bft) W-NW 285 2 min 0,000 mm 0,4 UV-I 261 W/m 3,3 C 6,9 C 3,2 km/h (1 Bft) 96,00 %
14.05.2019 07:54 7,0 C 13,3 C 7,8 C 77 % 1027,5 hPa 0,0 l/m 3,0 km/h (1 Bft) N-NW 333 2 min 0,000 mm 0,3 UV-I 232 W/m 3,2 C 7,0 C 4,8 km/h (1 Bft) 94,00 %
14.05.2019 07:56 7,0 C 13,3 C 8,3 C 77 % 1027,5 hPa 0,0 l/m 3,2 km/h (1 Bft) N-NW 333 0 min 0,000 mm 0,5 UV-I 161 W/m 3,2 C 7,0 C 4,8 km/h (1 Bft) 95,74 %
14.05.2019 07:58 7,1 C 13,3 C 8,3 C 76 % 1027,6 hPa 0,0 l/m 2,1 km/h (1 Bft) N-NW 333 0 min 0,000 mm 0,5 UV-I 148 W/m 3,2 C 7,1 C 3,2 km/h (1 Bft) 95,74 %
14.05.2019 08:00 7,1 C 13,3 C 8,3 C 75 % 1027,5 hPa 0,0 l/m 1,4 km/h (1 Bft) N-NW 333 0 min 0,076 mm 0,5 UV-I 165 W/m 3,0 C 7,1 C 3,2 km/h (1 Bft) 94,74 %
14.05.2019 08:02 7,1 C 13,3 C 8,9 C 77 % 1027,5 hPa 0,0 l/m 1,9 km/h (1 Bft) N-NW 333 0 min 0,000 mm 0,5 UV-I 170 W/m 3,3 C 7,1 C 3,2 km/h (1 Bft) 96,00 %
14.05.2019 08:04 7,1 C 13,3 C 8,9 C 75 % 1027,5 hPa 0,0 l/m 1,1 km/h (1 Bft) N-NW 333 0 min 0,000 mm 0,5 UV-I 169 W/m 3,0 C 7,1 C 3,2 km/h (1 Bft) 95,12 %
14.05.2019 08:06 7,1 C 13,3 C 9,4 C 76 % 1027,5 hPa 0,0 l/m 1,2 km/h (1 Bft) N-NW 333 0 min 0,000 mm 0,5 UV-I 168 W/m 3,2 C 7,1 C 3,2 km/h (1 Bft) 94,34 %
14.05.2019 08:08 7,1 C 13,3 C 9,4 C 75 % 1027,5 hPa 0,0 l/m 1,5 km/h (1 Bft) N-NW 333 0 min 0,000 mm 0,5 UV-I 170 W/m 3,0 C 7,1 C 3,2 km/h (1 Bft) 93,62 %
14.05.2019 08:10 7,1 C 13,3 C 10,0 C 75 % 1027,5 hPa 0,0 l/m 1,1 km/h (1 Bft) N-NW 333 0 min 0,000 mm 0,5 UV-I 174 W/m 3,0 C 7,1 C 3,2 km/h (1 Bft) 95,56 %
14.05.2019 08:12 7,1 C 13,3 C 10,0 C 75 % 1027,5 hPa 0,0 l/m 1,8 km/h (1 Bft) N-NW 333 0 min 0,000 mm 0,5 UV-I 178 W/m 3,0 C 7,1 C 3,2 km/h (1 Bft) 93,88 %
14.05.2019 08:14 7,1 C 13,3 C 10,0 C 75 % 1027,5 hPa 0,0 l/m 2,8 km/h (1 Bft) N-NW 333 0 min 0,000 mm 0,5 UV-I 181 W/m 3,0 C 7,1 C 4,8 km/h (1 Bft) 95,83 %
14.05.2019 08:16 7,1 C 13,3 C 10,0 C 74 % 1027,4 hPa 0,0 l/m 1,9 km/h (1 Bft) N-NW 333 0 min 0,000 mm 0,5 UV-I 190 W/m 2,8 C 7,1 C 3,2 km/h (1 Bft) 96,00 %
14.05.2019 08:18 7,2 C 13,3 C 10,6 C 75 % 1027,5 hPa 0,0 l/m 2,4 km/h (1 Bft) N-NW 333 0 min 0,000 mm 0,5 UV-I 197 W/m 3,1 C 7,2 C 3,2 km/h (1 Bft) 97,87 %
14.05.2019 08:21 7,3 C 13,3 C 10,6 C 76 % 1027,4 hPa 0,0 l/m 2,8 km/h (1 Bft) N-NW 340 0 min 0,000 mm 0,5 UV-I 197 W/m 3,4 C 7,3 C 4,8 km/h (1 Bft) 97,26 %
14.05.2019 08:22 7,3 C 13,3 C 10,6 C 75 % 1027,4 hPa 0,0 l/m 2,7 km/h (1 Bft) N-NW 340 0 min 0,000 mm 0,6 UV-I 199 W/m 3,2 C 7,3 C 4,8 km/h (1 Bft) 100,00 %
14.05.2019 08:24 7,2 C 13,3 C 11,1 C 73 % 1027,4 hPa 0,0 l/m 2,3 km/h (1 Bft) N-NW 338 0 min 0,000 mm 0,6 UV-I 201 W/m 2,7 C 7,2 C 3,2 km/h (1 Bft) 100,00 %
14.05.2019 08:26 7,3 C 13,3 C 11,1 C 74 % 1027,4 hPa 0,0 l/m 2,7 km/h (1 Bft) N-NW 327 0 min 0,000 mm 0,6 UV-I 207 W/m 3,0 C 7,3 C 4,8 km/h (1 Bft) 100,00 %
14.05.2019 08:28 7,3 C 13,3 C 11,7 C 73 % 1027,4 hPa 0,0 l/m 1,5 km/h (1 Bft) N-NW 328 0 min 0,000 mm 0,6 UV-I 212 W/m 2,8 C 7,3 C 3,2 km/h (1 Bft) 100,00 %
14.05.2019 08:31 7,3 C 13,3 C 11,7 C 72 % 1027,4 hPa 0,0 l/m 2,2 km/h (1 Bft) W 270 0 min 0,000 mm 0,6 UV-I 214 W/m 2,6 C 7,3 C 4,8 km/h (1 Bft) 98,63 %
14.05.2019 08:32 7,3 C 13,3 C 11,7 C 71 % 1027,4 hPa 0,0 l/m 1,9 km/h (1 Bft) W 271 0 min 0,000 mm 0,6 UV-I 213 W/m 2,4 C 7,3 C 3,2 km/h (1 Bft) 100,00 %
14.05.2019 08:34 7,3 C 13,3 C 11,7 C 71 % 1027,4 hPa 0,0 l/m 0,9 km/h (0 Bft) W 271 0 min 0,000 mm 0,6 UV-I 213 W/m 2,4 C 7,3 C 3,2 km/h (1 Bft) 100,00 %
14.05.2019 08:36 7,4 C 13,3 C 11,7 C 71 % 1027,3 hPa 0,0 l/m 2,9 km/h (1 Bft) W 270 0 min 0,000 mm 0,6 UV-I 209 W/m 2,5 C 7,4 C 4,8 km/h (1 Bft) 100,00 %
14.05.2019 08:38 7,4 C 13,3 C 11,7 C 70 % 1027,3 hPa 0,0 l/m 1,5 km/h (1 Bft) W 271 0 min 0,000 mm 0,7 UV-I 209 W/m 2,3 C 7,4 C 3,2 km/h (1 Bft) 94,00 %
14.05.2019 08:40 7,6 C 13,3 C 12,2 C 72 % 1027,3 hPa 0,0 l/m 1,3 km/h (1 Bft) W 275 0 min 0,000 mm 0,7 UV-I 213 W/m 2,9 C 7,6 C 3,2 km/h (1 Bft) 100,00 %
14.05.2019 08:42 7,6 C 13,3 C 12,2 C 71 % 1027,3 hPa 0,0 l/m 2,0 km/h (1 Bft) NW 325 0 min 0,000 mm 0,7 UV-I 221 W/m 2,7 C 7,6 C 4,8 km/h (1 Bft) 100,00 %
14.05.2019 08:44 7,7 C 13,3 C 12,2 C 69 % 1027,3 hPa 0,0 l/m 2,5 km/h (1 Bft) NW 325 0 min 0,000 mm 0,8 UV-I 234 W/m 2,4 C 7,7 C 4,8 km/h (1 Bft) 97,37 %
14.05.2019 08:46 7,7 C 13,3 C 12,8 C 68 % 1027,3 hPa 0,0 l/m 0,8 km/h (0 Bft) NW 325 0 min 0,000 mm 0,8 UV-I 233 W/m 2,2 C 7,7 C 1,6 km/h (1 Bft) 100,00 %
14.05.2019 08:48 7,6 C 13,3 C 12,8 C 66 % 1027,3 hPa 0,0 l/m 0,8 km/h (0 Bft) NW 325 0 min 0,000 mm 0,8 UV-I 225 W/m 1,7 C 7,6 C 3,2 km/h (1 Bft) 100,00 %
14.05.2019 08:50 7,7 C 13,3 C 12,8 C 68 % 1027,3 hPa 0,0 l/m 2,4 km/h (1 Bft) NW 325 0 min 0,000 mm 0,8 UV-I 207 W/m 2,2 C 7,7 C 4,8 km/h (1 Bft) 100,00 %
14.05.2019 08:52 7,7 C 13,3 C 12,2 C 67 % 1027,3 hPa 0,0 l/m 3,1 km/h (1 Bft) NW 326 0 min 0,000 mm 0,8 UV-I 200 W/m 2,0 C 7,7 C 4,8 km/h (1 Bft) 100,00 %
14.05.2019 08:54 7,8 C 13,3 C 12,8 C 68 % 1027,3 hPa 0,0 l/m 2,3 km/h (1 Bft) NW 326 0 min 0,000 mm 0,9 UV-I 202 W/m 2,3 C 7,8 C 3,2 km/h (1 Bft) 100,00 %
14.05.2019 08:56 7,8 C 13,3 C 13,3 C 68 % 1027,3 hPa 0,0 l/m 2,0 km/h (1 Bft) NW 325 0 min 0,000 mm 1,1 UV-I 213 W/m 2,3 C 7,8 C 3,2 km/h (1 Bft) 94,87 %
14.05.2019 08:58 7,9 C 13,3 C 15,0 C 66 % 1027,3 hPa 0,0 l/m 2,0 km/h (1 Bft) NW 326 2 min 0,000 mm 1,1 UV-I 315 W/m 1,9 C 7,9 C 3,2 km/h (1 Bft) 98,00 %
14.05.2019 09:00 8,1 C 13,3 C 16,7 C 66 % 1027,3 hPa 0,0 l/m 2,2 km/h (1 Bft) NW 326 2 min 0,102 mm 1,2 UV-I 543 W/m 2,1 C 8,1 C 3,2 km/h (1 Bft) 100,00 %
14.05.2019 09:02 8,4 C 13,3 C 18,3 C 66 % 1027,2 hPa 0,0 l/m 4,1 km/h (1 Bft) N-NW 343 2 min 0,000 mm 1,3 UV-I 527 W/m 2,4 C 8,4 C 6,4 km/h (2 Bft) 100,00 %
14.05.2019 09:04 8,6 C 13,3 C 18,3 C 64 % 1027,3 hPa 0,0 l/m 2,9 km/h (1 Bft) N-NW 343 2 min 0,000 mm 1,2 UV-I 465 W/m 2,2 C 8,6 C 4,8 km/h (1 Bft) 100,00 %
14.05.2019 09:06 8,6 C 13,3 C 17,8 C 64 % 1027,2 hPa 0,0 l/m 4,3 km/h (1 Bft) W 264 2 min 0,000 mm 1,1 UV-I 343 W/m 2,2 C 8,6 C 6,4 km/h (2 Bft) 100,00 %
14.05.2019 09:08 8,5 C 13,3 C 18,3 C 62 % 1027,2 hPa 0,0 l/m 2,6 km/h (1 Bft) W 263 0 min 0,000 mm 1,2 UV-I 282 W/m 1,6 C 8,5 C 11,3 km/h (2 Bft) 100,00 %
14.05.2019 09:10 8,4 C 13,3 C 18,3 C 63 % 1027,2 hPa 0,0 l/m 3,1 km/h (1 Bft) W 263 2 min 0,000 mm 1,3 UV-I 429 W/m 1,8 C 8,4 C 9,7 km/h (2 Bft) 98,21 %
14.05.2019 09:12 8,3 C 13,3 C 17,8 C 63 % 1027,2 hPa 0,0 l/m 1,4 km/h (1 Bft) W 263 2 min 0,000 mm 1,1 UV-I 422 W/m 1,7 C 8,3 C 3,2 km/h (1 Bft) 97,37 %
14.05.2019 09:14 8,2 C 13,3 C 16,7 C 62 % 1027,2 hPa 0,0 l/m 1,1 km/h (1 Bft) W 263 0 min 0,000 mm 1,1 UV-I 261 W/m 1,4 C 8,2 C 1,6 km/h (1 Bft) 98,21 %
14.05.2019 09:16 8,3 C 13,3 C 16,7 C 64 % 1027,2 hPa 0,0 l/m 1,6 km/h (1 Bft) W 263 0 min 0,000 mm 1,2 UV-I 296 W/m 1,9 C 8,3 C 3,2 km/h (1 Bft) 97,56 %
14.05.2019 09:18 8,4 C 13,3 C 17,2 C 65 % 1027,2 hPa 0,0 l/m 0,8 km/h (0 Bft) W 263 2 min 0,000 mm 1,3 UV-I 350 W/m 2,2 C 8,4 C 3,2 km/h (1 Bft) 97,37 %
14.05.2019 09:20 8,6 C 13,3 C 17,2 C 65 % 1027,2 hPa 0,0 l/m 2,9 km/h (1 Bft) W 263 2 min 0,000 mm 1,2 UV-I 342 W/m 2,4 C 8,6 C 4,8 km/h (1 Bft) 96,61 %
14.05.2019 09:22 8,6 C 13,3 C 17,2 C 62 % 1027,1 hPa 0,0 l/m 2,4 km/h (1 Bft) W 263 2 min 0,000 mm 1,2 UV-I 370 W/m 1,7 C 8,6 C 4,8 km/h (1 Bft) 95,12 %
14.05.2019 09:24 8,7 C 13,3 C 18,3 C 63 % 1027,0 hPa 0,0 l/m 2,1 km/h (1 Bft) W 263 2 min 0,000 mm 1,3 UV-I 386 W/m 2,1 C 8,7 C 3,2 km/h (1 Bft) 92,45 %
14.05.2019 09:26 8,8 C 13,3 C 18,9 C 62 % 1027,1 hPa 0,0 l/m 0,0 km/h (0 Bft) W 263 2 min 0,000 mm 1,3 UV-I 415 W/m 1,9 C 8,8 C 0,0 km/h (0 Bft) 94,44 %
14.05.2019 09:28 9,1 C 13,3 C 19,4 C 61 % 1027,1 hPa 0,0 l/m 1,0 km/h (0 Bft) W 263 2 min 0,000 mm 1,3 UV-I 358 W/m 2,0 C 9,1 C 1,6 km/h (1 Bft) 94,34 %
14.05.2019 09:30 9,3 C 13,3 C 20,6 C 62 % 1027,0 hPa 0,0 l/m 1,2 km/h (1 Bft) W 263 2 min 0,000 mm 1,5 UV-I 409 W/m 2,4 C 9,3 C 3,2 km/h (1 Bft) 97,83 %
14.05.2019 09:32 9,4 C 13,3 C 20,0 C 62 % 1027,0 hPa 0,0 l/m 1,8 km/h (1 Bft) W 263 2 min 0,000 mm 1,3 UV-I 448 W/m 2,5 C 9,4 C 4,8 km/h (1 Bft) 97,37 %
14.05.2019 09:34 9,3 C 13,3 C 19,4 C 59 % 1027,0 hPa 0,0 l/m 2,6 km/h (1 Bft) W 263 0 min 0,000 mm 1,3 UV-I 311 W/m 1,7 C 9,3 C 4,8 km/h (1 Bft) 94,34 %
14.05.2019 09:36 9,3 C 13,3 C 20,0 C 60 % 1026,9 hPa 0,0 l/m 3,3 km/h (1 Bft) W 265 2 min 0,000 mm 1,5 UV-I 384 W/m 1,9 C 9,3 C 4,8 km/h (1 Bft) 98,00 %
14.05.2019 09:38 9,4 C 13,3 C 21,7 C 60 % 1026,9 hPa 0,0 l/m 3,7 km/h (1 Bft) N-NW 333 2 min 0,000 mm 1,7 UV-I 684 W/m 2,0 C 9,4 C 6,4 km/h (2 Bft) 97,87 %
14.05.2019 09:40 9,6 C 13,3 C 23,3 C 62 % 1026,9 hPa 0,0 l/m 3,8 km/h (1 Bft) W-NW 290 2 min 0,000 mm 1,7 UV-I 688 W/m 2,7 C 9,6 C 6,4 km/h (2 Bft) 97,87 %
14.05.2019 09:42 9,7 C 13,3 C 22,2 C 61 % 1026,9 hPa 0,0 l/m 4,5 km/h (1 Bft) N 360 2 min 0,000 mm 1,3 UV-I 495 W/m 2,5 C 9,7 C 6,4 km/h (2 Bft) 97,87 %
14.05.2019 09:44 9,7 C 13,3 C 21,1 C 61 % 1026,8 hPa 0,0 l/m 3,5 km/h (1 Bft) N-NO 29 0 min 0,000 mm 1,5 UV-I 331 W/m 2,5 C 9,7 C 4,8 km/h (1 Bft) 95,74 %
14.05.2019 09:46 9,7 C 13,3 C 22,2 C 63 % 1026,8 hPa 0,0 l/m 3,0 km/h (1 Bft) N-NO 28 2 min 0,000 mm 1,5 UV-I 532 W/m 3,0 C 9,7 C 4,8 km/h (1 Bft) 96,00 %
14.05.2019 09:48 9,9 C 13,3 C 23,3 C 64 % 1026,7 hPa 0,0 l/m 4,6 km/h (1 Bft) N-NO 22 2 min 0,000 mm 1,8 UV-I 664 W/m 3,4 C 9,9 C 9,7 km/h (2 Bft) 92,68 %
14.05.2019 09:50 10,1 C 13,3 C 23,3 C 65 % 1026,7 hPa 0,0 l/m 10,1 km/h (2 Bft) N-NO 13 2 min 0,000 mm 1,8 UV-I 650 W/m 3,8 C 7,6 C 14,5 km/h (3 Bft) 98,11 %
14.05.2019 09:52 10,3 C 13,3 C 24,4 C 63 % 1026,7 hPa 0,0 l/m 6,4 km/h (2 Bft) N-NO 17 2 min 0,000 mm 1,8 UV-I 622 W/m 3,6 C 10,3 C 11,3 km/h (2 Bft) 92,00 %
14.05.2019 09:54 10,3 C 13,3 C 23,9 C 59 % 1026,6 hPa 0,0 l/m 4,0 km/h (1 Bft) N 11 2 min 0,000 mm 1,6 UV-I 675 W/m 2,6 C 10,3 C 6,4 km/h (2 Bft) 100,00 %
14.05.2019 09:56 10,2 C 13,3 C 23,3 C 58 % 1026,6 hPa 0,0 l/m 2,8 km/h (1 Bft) W 278 2 min 0,000 mm 1,6 UV-I 677 W/m 2,3 C 10,2 C 4,8 km/h (1 Bft) 93,62 %
14.05.2019 09:58 9,9 C 13,3 C 21,1 C 60 % 1026,5 hPa 0,0 l/m 7,6 km/h (2 Bft) N 11 2 min 0,000 mm 1,2 UV-I 462 W/m 2,5 C 9,0 C 12,9 km/h (3 Bft) 93,62 %
14.05.2019 10:00 9,8 C 13,3 C 19,4 C 61 % 1026,5 hPa 0,0 l/m 7,1 km/h (2 Bft) O-NO 65 0 min 0,228 mm 1,1 UV-I 321 W/m 2,6 C 9,3 C 9,7 km/h (2 Bft) 94,64 %
14.05.2019 10:02 9,7 C 13,3 C 18,3 C 60 % 1026,5 hPa 0,0 l/m 3,5 km/h (1 Bft) NW 325 0 min 0,000 mm 0,9 UV-I 227 W/m 2,3 C 9,7 C 6,4 km/h (2 Bft) 94,74 %
14.05.2019 10:04 9,6 C 13,3 C 16,7 C 58 % 1026,5 hPa 0,0 l/m 5,0 km/h (1 Bft) N-NO 15 0 min 0,000 mm 0,8 UV-I 166 W/m 1,8 C 9,6 C 6,4 km/h (2 Bft) 96,23 %
14.05.2019 10:06 9,3 C 13,3 C 15,0 C 56 % 1026,5 hPa 0,0 l/m 5,0 km/h (1 Bft) NW 319 0 min 0,000 mm 0,8 UV-I 151 W/m 1,0 C 9,3 C 8,0 km/h (2 Bft) 94,87 %
14.05.2019 10:08 9,2 C 13,3 C 13,9 C 55 % 1026,5 hPa 0,0 l/m 2,8 km/h (1 Bft) N-NW 342 0 min 0,000 mm 0,8 UV-I 145 W/m 0,6 C 9,2 C 8,0 km/h (2 Bft) 96,15 %
14.05.2019 10:10 9,1 C 13,3 C 13,3 C 58 % 1026,5 hPa 0,0 l/m 6,0 km/h (2 Bft) N-NW 332 0 min 0,000 mm 0,8 UV-I 134 W/m 1,3 C 9,1 C 8,0 km/h (2 Bft) 94,00 %
14.05.2019 10:12 9,0 C 13,3 C 12,8 C 59 % 1026,4 hPa 0,0 l/m 3,6 km/h (1 Bft) NW 317 0 min 0,000 mm 0,8 UV-I 128 W/m 1,4 C 9,0 C 4,8 km/h (1 Bft) 94,44 %
14.05.2019 10:14 8,9 C 13,3 C 12,2 C 60 % 1026,4 hPa 0,0 l/m 1,9 km/h (1 Bft) W-NW 282 0 min 0,000 mm 1,0 UV-I 135 W/m 1,6 C 8,9 C 6,4 km/h (2 Bft) 98,00 %
14.05.2019 10:16 8,9 C 13,3 C 12,2 C 61 % 1026,4 hPa 0,0 l/m 2,3 km/h (1 Bft) W 261 0 min 0,000 mm 1,1 UV-I 150 W/m 1,8 C 8,9 C 4,8 km/h (1 Bft) 98,11 %
14.05.2019 10:18 8,9 C 13,3 C 12,2 C 59 % 1026,4 hPa 0,0 l/m 1,7 km/h (1 Bft) W 262 0 min 0,000 mm 1,2 UV-I 168 W/m 1,3 C 8,9 C 3,2 km/h (1 Bft) 93,62 %
14.05.2019 10:20 8,9 C 13,3 C 12,8 C 60 % 1026,4 hPa 0,0 l/m 3,9 km/h (1 Bft) W-NW 300 0 min 0,000 mm 1,3 UV-I 222 W/m 1,6 C 8,9 C 9,7 km/h (2 Bft) 95,45 %
14.05.2019 10:22 9,0 C 13,3 C 14,4 C 57 % 1026,4 hPa 0,0 l/m 4,0 km/h (1 Bft) W 269 0 min 0,000 mm 1,7 UV-I 330 W/m 0,9 C 9,0 C 6,4 km/h (2 Bft) 98,11 %
14.05.2019 10:24 9,2 C 13,3 C 17,8 C 57 % 1026,3 hPa 0,0 l/m 2,6 km/h (1 Bft) W-NW 290 2 min 0,000 mm 2,1 UV-I 608 W/m 1,1 C 9,2 C 4,8 km/h (1 Bft) 95,74 %
14.05.2019 10:26 9,3 C 13,3 C 18,3 C 56 % 1026,3 hPa 0,0 l/m 2,5 km/h (1 Bft) NO 53 2 min 0,000 mm 1,6 UV-I 591 W/m 1,0 C 9,3 C 6,4 km/h (2 Bft) 97,56 %
14.05.2019 10:28 9,4 C 13,3 C 17,2 C 60 % 1026,2 hPa 0,0 l/m 4,7 km/h (1 Bft) N 355 0 min 0,000 mm 1,4 UV-I 274 W/m 2,0 C 9,4 C 8,0 km/h (2 Bft) 98,11 %
14.05.2019 10:30 9,4 C 13,3 C 16,7 C 57 % 1026,2 hPa 0,0 l/m 2,4 km/h (1 Bft) N 355 0 min 0,000 mm 1,3 UV-I 242 W/m 1,3 C 9,4 C 3,2 km/h (1 Bft) 97,87 %
14.05.2019 10:32 9,3 C 13,3 C 16,1 C 58 % 1026,2 hPa 0,0 l/m 4,0 km/h (1 Bft) N-NO 16 0 min 0,000 mm 1,3 UV-I 240 W/m 1,5 C 9,3 C 6,4 km/h (2 Bft) 97,87 %
14.05.2019 10:34 9,3 C 13,3 C 15,6 C 55 % 1026,2 hPa 0,0 l/m 0,8 km/h (0 Bft) N-NO 16 0 min 0,000 mm 1,2 UV-I 221 W/m 0,7 C 9,3 C 1,6 km/h (1 Bft) 94,74 %
14.05.2019 10:36 9,3 C 13,3 C 15,6 C 57 % 1026,2 hPa 0,0 l/m 2,1 km/h (1 Bft) N-NO 28 0 min 0,000 mm 1,2 UV-I 228 W/m 1,2 C 9,3 C 4,8 km/h (1 Bft) 97,87 %
14.05.2019 10:38 9,3 C 13,3 C 15,6 C 55 % 1026,2 hPa 0,0 l/m 1,8 km/h (1 Bft) N-NO 28 0 min 0,000 mm 1,3 UV-I 258 W/m 0,7 C 9,3 C 3,2 km/h (1 Bft) 95,74 %
14.05.2019 10:40 9,3 C 13,3 C 15,6 C 55 % 1026,2 hPa 0,0 l/m 2,2 km/h (1 Bft) S-SO 155 0 min 0,000 mm 1,4 UV-I 279 W/m 0,7 C 9,3 C 4,8 km/h (1 Bft) 96,00 %
14.05.2019 10:42 9,3 C 13,3 C 16,7 C 56 % 1026,1 hPa 0,0 l/m 3,6 km/h (1 Bft) NO 49 0 min 0,000 mm 1,6 UV-I 323 W/m 1,0 C 9,3 C 6,4 km/h (2 Bft) 98,11 %
14.05.2019 10:44 9,6 C 13,3 C 17,8 C 58 % 1026,1 hPa 0,0 l/m 4,1 km/h (1 Bft) O 82 0 min 0,000 mm 1,7 UV-I 377 W/m 1,8 C 9,6 C 6,4 km/h (2 Bft) 97,44 %
14.05.2019 10:46 10,0 C 13,3 C 20,0 C 63 % 1026,1 hPa 0,0 l/m 7,8 km/h (2 Bft) NO 49 2 min 0,000 mm 2,0 UV-I 481 W/m 3,3 C 9,0 C 12,9 km/h (3 Bft) 97,96 %
14.05.2019 10:48 10,3 C 13,3 C 19,4 C 62 % 1026,1 hPa 0,0 l/m 13,3 km/h (3 Bft) NO 37 2 min 0,000 mm 1,4 UV-I 458 W/m 3,3 C 6,2 C 20,9 km/h (4 Bft) 96,00 %
14.05.2019 10:50 10,3 C 13,3 C 18,3 C 58 % 1026,1 hPa 0,0 l/m 10,9 km/h (2 Bft) NO 53 0 min 0,000 mm 1,3 UV-I 325 W/m 2,4 C 7,4 C 20,9 km/h (4 Bft) 100,00 %
14.05.2019 10:52 10,2 C 13,3 C 18,9 C 58 % 1026,1 hPa 0,0 l/m 14,2 km/h (3 Bft) O 82 2 min 0,000 mm 1,6 UV-I 455 W/m 2,3 C 5,7 C 19,3 km/h (3 Bft) 97,44 %
14.05.2019 10:54 10,1 C 13,3 C 18,3 C 55 % 1026,1 hPa 0,0 l/m 9,5 km/h (2 Bft) O-NO 57 2 min 0,000 mm 1,2 UV-I 504 W/m 1,5 C 8,0 C 16,1 km/h (3 Bft) 97,87 %
14.05.2019 10:56 9,9 C 13,3 C 18,3 C 58 % 1026,1 hPa 0,0 l/m 7,9 km/h (2 Bft) N-NO 24 0 min 0,000 mm 1,2 UV-I 341 W/m 2,0 C 8,8 C 17,7 km/h (3 Bft) 100,00 %
14.05.2019 10:58 9,7 C 13,3 C 16,7 C 59 % 1026,2 hPa 0,0 l/m 16,9 km/h (3 Bft) O-NO 76 0 min 0,000 mm 0,9 UV-I 293 W/m 2,1 C 4,0 C 29,0 km/h (5 Bft) 100,00 %
14.05.2019 11:00 9,4 C 13,3 C 15,0 C 55 % 1026,1 hPa 0,0 l/m 11,9 km/h (2 Bft) O-NO 76 0 min 0,153 mm 0,7 UV-I 178 W/m 0,8 C 5,9 C 17,7 km/h (3 Bft) 100,00 %
14.05.2019 11:02 9,1 C 13,3 C 13,9 C 59 % 1026,1 hPa 0,0 l/m 8,8 km/h (2 Bft) NO 37 0 min 0,000 mm 0,8 UV-I 185 W/m 1,5 C 7,4 C 12,9 km/h (3 Bft) 100,00 %
14.05.2019 11:04 8,8 C 13,3 C 13,3 C 61 % 1026,0 hPa 0,0 l/m 7,6 km/h (2 Bft) NO 36 0 min 0,000 mm 0,9 UV-I 193 W/m 1,7 C 7,9 C 12,9 km/h (3 Bft) 97,56 %
14.05.2019 11:06 8,7 C 13,3 C 12,2 C 61 % 1026,1 hPa 0,0 l/m 6,8 km/h (2 Bft) NO 45 0 min 0,000 mm 1,0 UV-I 201 W/m 1,6 C 8,4 C 11,3 km/h (2 Bft) 100,00 %
14.05.2019 11:08 8,7 C 13,3 C 12,2 C 63 % 1026,1 hPa 0,0 l/m 5,2 km/h (1 Bft) N-NO 28 0 min 0,000 mm 1,0 UV-I 209 W/m 2,1 C 8,7 C 8,0 km/h (2 Bft) 100,00 %
14.05.2019 11:10 8,7 C 13,3 C 12,8 C 61 % 1026,0 hPa 0,0 l/m 2,4 km/h (1 Bft) NO 55 0 min 0,000 mm 1,1 UV-I 214 W/m 1,6 C 8,7 C 4,8 km/h (1 Bft) 100,00 %
14.05.2019 11:12 8,8 C 13,3 C 12,8 C 62 % 1025,9 hPa 0,0 l/m 3,5 km/h (1 Bft) NO 55 0 min 0,000 mm 1,2 UV-I 221 W/m 1,9 C 8,8 C 6,4 km/h (2 Bft) 100,00 %
14.05.2019 11:14 8,7 C 13,3 C 12,8 C 59 % 1025,9 hPa 0,0 l/m 3,8 km/h (1 Bft) NO 49 0 min 0,000 mm 1,3 UV-I 235 W/m 1,1 C 8,7 C 6,4 km/h (2 Bft) 100,00 %
14.05.2019 11:16 8,8 C 13,3 C 13,3 C 63 % 1026,0 hPa 0,0 l/m 4,1 km/h (1 Bft) O-NO 65 0 min 0,000 mm 1,4 UV-I 262 W/m 2,2 C 8,8 C 6,4 km/h (2 Bft) 100,00 %
14.05.2019 11:18 8,8 C 13,3 C 13,9 C 58 % 1025,9 hPa 0,0 l/m 3,1 km/h (1 Bft) SO 124 0 min 0,000 mm 1,6 UV-I 281 W/m 1,0 C 8,8 C 4,8 km/h (1 Bft) 100,00 %
14.05.2019 11:20 8,9 C 13,3 C 15,0 C 56 % 1025,9 hPa 0,0 l/m 4,0 km/h (1 Bft) O-SO 117 0 min 0,000 mm 1,7 UV-I 341 W/m 0,6 C 8,9 C 6,4 km/h (2 Bft) 100,00 %
14.05.2019 11:22 9,0 C 13,3 C 16,1 C 56 % 1025,9 hPa 0,0 l/m 3,7 km/h (1 Bft) O-SO 118 0 min 0,000 mm 1,8 UV-I 370 W/m 0,7 C 9,0 C 6,4 km/h (2 Bft) 100,00 %
14.05.2019 11:24 9,0 C 13,3 C 16,7 C 54 % 1025,9 hPa 0,0 l/m 2,7 km/h (1 Bft) O-SO 119 0 min 0,000 mm 1,9 UV-I 335 W/m 0,2 C 9,0 C 4,8 km/h (1 Bft) 97,87 %
14.05.2019 11:26 8,9 C 13,3 C 17,8 C 54 % 1025,9 hPa 0,0 l/m 2,2 km/h (1 Bft) SO 144 0 min 0,000 mm 2,0 UV-I 370 W/m 0,1 C 8,9 C 3,2 km/h (1 Bft) 100,00 %
14.05.2019 11:28 9,0 C 13,3 C 18,3 C 55 % 1025,9 hPa 0,0 l/m 2,3 km/h (1 Bft) S 171 0 min 0,000 mm 1,8 UV-I 360 W/m 0,5 C 9,0 C 6,4 km/h (2 Bft) 96,43 %
14.05.2019 11:30 9,2 C 13,3 C 19,4 C 55 % 1025,9 hPa 0,0 l/m 2,6 km/h (1 Bft) S 172 0 min 0,000 mm 1,8 UV-I 358 W/m 0,6 C 9,2 C 3,2 km/h (1 Bft) 96,15 %
14.05.2019 11:32 9,2 C 13,3 C 18,9 C 55 % 1025,7 hPa 0,0 l/m 1,7 km/h (1 Bft) S-SO 150 0 min 0,000 mm 1,5 UV-I 350 W/m 0,6 C 9,2 C 3,2 km/h (1 Bft) 98,53 %
14.05.2019 11:34 9,3 C 13,3 C 19,4 C 59 % 1025,7 hPa 0,0 l/m 3,5 km/h (1 Bft) SW 235 0 min 0,000 mm 2,0 UV-I 402 W/m 1,7 C 9,3 C 4,8 km/h (1 Bft) 98,00 %
14.05.2019 11:36 9,6 C 13,3 C 21,7 C 59 % 1025,7 hPa 0,0 l/m 8,0 km/h (2 Bft) S-SW 202 2 min 0,000 mm 2,7 UV-I 532 W/m 2,0 C 8,4 C 14,5 km/h (3 Bft) 95,74 %
14.05.2019 11:38 9,9 C 13,9 C 24,4 C 58 % 1025,6 hPa 0,0 l/m 12,2 km/h (2 Bft) W-SW 254 2 min 0,000 mm 3,1 UV-I 858 W/m 2,0 C 6,3 C 17,7 km/h (3 Bft) 97,37 %
14.05.2019 11:40 10,2 C 13,3 C 25,6 C 55 % 1025,5 hPa 0,0 l/m 10,1 km/h (2 Bft) SW 230 2 min 0,000 mm 2,7 UV-I 847 W/m 1,6 C 7,8 C 16,1 km/h (3 Bft) 96,00 %
14.05.2019 11:42 10,3 C 13,3 C 24,4 C 52 % 1025,4 hPa 0,0 l/m 11,0 km/h (2 Bft) NW 309 2 min 0,000 mm 1,8 UV-I 560 W/m 0,9 C 7,4 C 17,7 km/h (3 Bft) 98,00 %
14.05.2019 11:44 10,3 C 13,3 C 21,1 C 53 % 1025,5 hPa 0,0 l/m 6,6 km/h (2 Bft) NW 325 0 min 0,000 mm 1,2 UV-I 348 W/m 1,1 C 10,2 C 12,9 km/h (3 Bft) 97,87 %
14.05.2019 11:46 10,2 C 13,3 C 18,9 C 56 % 1025,6 hPa 0,0 l/m 7,9 km/h (2 Bft) W-NW 302 0 min 0,000 mm 1,0 UV-I 219 W/m 1,8 C 9,1 C 12,9 km/h (3 Bft) 97,87 %
14.05.2019 11:48 9,9 C 13,3 C 16,7 C 51 % 1025,5 hPa 0,0 l/m 8,9 km/h (2 Bft) N-NO 14 0 min 0,000 mm 0,9 UV-I 201 W/m 0,2 C 8,2 C 14,5 km/h (3 Bft) 92,11 %
14.05.2019 11:50 9,8 C 13,3 C 15,6 C 54 % 1025,5 hPa 0,0 l/m 4,5 km/h (1 Bft) N 5 0 min 0,000 mm 1,1 UV-I 212 W/m 0,9 C 9,8 C 11,3 km/h (2 Bft) 96,00 %
14.05.2019 11:52 9,7 C 13,3 C 14,4 C 54 % 1025,5 hPa 0,0 l/m 6,0 km/h (2 Bft) NW 320 0 min 0,000 mm 1,2 UV-I 228 W/m 0,9 C 9,7 C 19,3 km/h (3 Bft) 95,74 %
14.05.2019 11:54 9,7 C 13,3 C 14,4 C 55 % 1025,5 hPa 0,0 l/m 10,6 km/h (2 Bft) N-NO 22 0 min 0,000 mm 1,4 UV-I 244 W/m 1,1 C 6,9 C 17,7 km/h (3 Bft) 94,44 %
14.05.2019 11:56 9,6 C 13,3 C 14,4 C 55 % 1025,4 hPa 0,0 l/m 8,9 km/h (2 Bft) N-NO 19 0 min 0,000 mm 1,6 UV-I 278 W/m 1,0 C 7,8 C 14,5 km/h (3 Bft) 93,44 %
14.05.2019 11:58 9,7 C 13,3 C 15,6 C 56 % 1025,5 hPa 0,0 l/m 10,7 km/h (2 Bft) N-NO 24 0 min 0,000 mm 2,0 UV-I 367 W/m 1,4 C 6,9 C 17,7 km/h (3 Bft) 97,56 %
14.05.2019 12:00 9,8 C 13,3 C 16,1 C 55 % 1025,4 hPa 0,0 l/m 9,9 km/h (2 Bft) NW 312 0 min 0,203 mm 2,0 UV-I 447 W/m 1,2 C 7,4 C 14,5 km/h (3 Bft) 98,11 %
14.05.2019 12:02 9,9 C 13,3 C 16,1 C 51 % 1025,4 hPa 0,0 l/m 15,6 km/h (3 Bft) N-NO 28 0 min 0,000 mm 2,0 UV-I 319 W/m 0,2 C 4,8 C 24,1 km/h (4 Bft) 97,62 %
14.05.2019 12:04 9,9 C 13,3 C 16,7 C 50 % 1025,4 hPa 0,0 l/m 15,9 km/h (3 Bft) N-NO 17 0 min 0,000 mm 2,3 UV-I 373 W/m -0,0 C 4,6 C 22,5 km/h (4 Bft) 98,08 %
14.05.2019 12:06 10,1 C 13,3 C 17,8 C 54 % 1025,4 hPa 0,0 l/m 13,5 km/h (3 Bft) N-NO 26 2 min 0,000 mm 2,6 UV-I 575 W/m 1,2 C 5,9 C 20,9 km/h (4 Bft) 94,87 %
14.05.2019 12:08 10,4 C 13,3 C 20,0 C 51 % 1025,3 hPa 0,0 l/m 18,5 km/h (3 Bft) N-NO 33 2 min 0,000 mm 2,9 UV-I 664 W/m 0,7 C 4,3 C 27,4 km/h (4 Bft) 96,00 %
14.05.2019 12:10 10,6 C 13,3 C 20,0 C 51 % 1025,3 hPa 0,0 l/m 21,6 km/h (4 Bft) NO 46 2 min 0,000 mm 2,8 UV-I 633 W/m 0,9 C 3,6 C 32,2 km/h (5 Bft) 96,00 %
14.05.2019 12:12 10,6 C 13,3 C 19,4 C 51 % 1025,3 hPa 0,0 l/m 16,7 km/h (3 Bft) N-NO 13 2 min 0,000 mm 2,5 UV-I 575 W/m 0,9 C 5,2 C 22,5 km/h (4 Bft) 100,00 %
14.05.2019 12:14 10,6 C 13,3 C 20,0 C 50 % 1025,2 hPa 0,0 l/m 21,4 km/h (4 Bft) N-NO 31 2 min 0,000 mm 2,9 UV-I 517 W/m 0,6 C 3,6 C 30,6 km/h (5 Bft) 100,00 %
14.05.2019 12:16 10,7 C 13,3 C 21,1 C 52 % 1025,2 hPa 0,0 l/m 14,7 km/h (3 Bft) NO 51 2 min 0,000 mm 3,1 UV-I 680 W/m 1,3 C 6,1 C 22,5 km/h (4 Bft) 100,00 %
14.05.2019 12:18 10,9 C 13,3 C 22,2 C 50 % 1025,1 hPa 0,0 l/m 26,8 km/h (4 Bft) NO 38 2 min 0,000 mm 3,3 UV-I 762 W/m 0,9 C 2,6 C 33,8 km/h (5 Bft) 100,00 %
14.05.2019 12:20 10,9 C 13,3 C 22,8 C 51 % 1025,1 hPa 0,0 l/m 24,7 km/h (4 Bft) N-NO 24 2 min 0,000 mm 3,5 UV-I 832 W/m 1,2 C 3,1 C 32,2 km/h (5 Bft) 100,00 %
14.05.2019 12:22 11,2 C 13,9 C 23,9 C 53 % 1025,2 hPa 0,0 l/m 19,8 km/h (3 Bft) N 355 2 min 0,000 mm 3,6 UV-I 869 W/m 2,0 C 4,9 C 27,4 km/h (4 Bft) 100,00 %
14.05.2019 12:24 11,4 C 13,9 C 24,4 C 52 % 1025,2 hPa 0,0 l/m 17,7 km/h (3 Bft) N 10 2 min 0,000 mm 3,6 UV-I 881 W/m 1,9 C 5,8 C 27,4 km/h (4 Bft) 100,00 %
14.05.2019 12:26 11,6 C 13,9 C 26,1 C 52 % 1025,1 hPa 0,0 l/m 16,6 km/h (3 Bft) N-NO 21 2 min 0,000 mm 3,7 UV-I 918 W/m 2,1 C 6,5 C 27,4 km/h (4 Bft) 97,56 %
14.05.2019 12:28 11,7 C 13,9 C 26,1 C 48 % 1025,1 hPa 0,0 l/m 21,3 km/h (4 Bft) N-NW 347 2 min 0,000 mm 3,6 UV-I 924 W/m 1,1 C 5,1 C 30,6 km/h (5 Bft) 100,00 %
14.05.2019 12:30 11,7 C 13,9 C 26,7 C 50 % 1025,0 hPa 0,0 l/m 15,1 km/h (3 Bft) N 349 2 min 0,000 mm 3,6 UV-I 937 W/m 1,6 C 7,2 C 22,5 km/h (4 Bft) 100,00 %
14.05.2019 12:32 11,7 C 13,9 C 27,2 C 49 % 1025,0 hPa 0,0 l/m 14,2 km/h (3 Bft) N-NW 330 2 min 0,000 mm 3,6 UV-I 948 W/m 1,3 C 7,5 C 19,3 km/h (3 Bft) 100,00 %
14.05.2019 12:34 11,5 C 13,9 C 23,9 C 46 % 1025,0 hPa 0,0 l/m 14,9 km/h (3 Bft) N-NW 329 2 min 0,000 mm 2,4 UV-I 824 W/m 0,3 C 7,0 C 22,5 km/h (4 Bft) 97,56 %
14.05.2019 12:36 11,4 C 13,9 C 23,9 C 52 % 1025,0 hPa 0,0 l/m 10,5 km/h (2 Bft) N 9 0 min 0,000 mm 2,7 UV-I 338 W/m 1,9 C 8,9 C 19,3 km/h (3 Bft) 100,00 %
14.05.2019 12:39 11,2 C 13,9 C 22,2 C 50 % 1024,9 hPa 0,0 l/m 11,5 km/h (2 Bft) N 355 0 min 0,000 mm 2,6 UV-I 338 W/m 1,2 C 8,1 C 17,7 km/h (3 Bft) 100,00 %
14.05.2019 12:40 11,2 C 13,9 C 23,3 C 53 % 1024,9 hPa 0,0 l/m 12,7 km/h (3 Bft) NW 316 1 min 0,000 mm 3,4 UV-I 634 W/m 2,0 C 7,6 C 20,9 km/h (4 Bft) 100,00 %
14.05.2019 12:42 11,2 C 13,9 C 24,4 C 54 % 1025,0 hPa 0,0 l/m 9,1 km/h (2 Bft) N-NW 343 2 min 0,000 mm 3,4 UV-I 789 W/m 2,2 C 9,4 C 22,5 km/h (4 Bft) 100,00 %
14.05.2019 12:44 11,2 C 13,9 C 23,9 C 47 % 1025,0 hPa 0,0 l/m 14,8 km/h (3 Bft) N-NO 25 2 min 0,000 mm 3,4 UV-I 729 W/m 0,3 C 6,7 C 22,5 km/h (4 Bft) 100,00 %
14.05.2019 12:46 11,2 C 13,9 C 25,0 C 50 % 1024,9 hPa 0,0 l/m 7,2 km/h (2 Bft) NW 318 2 min 0,000 mm 3,5 UV-I 779 W/m 1,2 C 10,6 C 14,5 km/h (3 Bft) 97,37 %
14.05.2019 12:49 11,3 C 13,9 C 25,6 C 48 % 1024,8 hPa 0,0 l/m 13,4 km/h (3 Bft) NO 34 3 min 0,000 mm 3,6 UV-I 816 W/m 0,7 C 7,4 C 20,9 km/h (4 Bft) 100,00 %
14.05.2019 12:50 11,3 C 13,9 C 26,1 C 49 % 1024,8 hPa 0,0 l/m 11,2 km/h (2 Bft) N-NW 327 1 min 0,000 mm 3,7 UV-I 832 W/m 1,0 C 8,4 C 14,5 km/h (3 Bft) 100,00 %
14.05.2019 12:52 11,4 C 13,9 C 27,2 C 50 % 1024,8 hPa 0,0 l/m 11,5 km/h (2 Bft) N 9 2 min 0,000 mm 3,7 UV-I 843 W/m 1,4 C 8,4 C 19,3 km/h (3 Bft) 100,00 %
14.05.2019 12:54 11,5 C 13,9 C 27,2 C 48 % 1024,8 hPa 0,0 l/m 12,8 km/h (3 Bft) N-NO 13 2 min 0,000 mm 3,7 UV-I 874 W/m 0,9 C 7,9 C 20,9 km/h (4 Bft) 98,11 %
14.05.2019 12:56 11,6 C 13,9 C 28,3 C 51 % 1024,8 hPa 0,0 l/m 7,9 km/h (2 Bft) NO 51 2 min 0,000 mm 3,8 UV-I 889 W/m 1,8 C 10,6 C 16,1 km/h (3 Bft) 100,00 %
14.05.2019 12:58 11,8 C 13,9 C 29,4 C 52 % 1024,6 hPa 0,0 l/m 8,4 km/h (2 Bft) NO 38 2 min 0,000 mm 3,8 UV-I 933 W/m 2,3 C 10,5 C 16,1 km/h (3 Bft) 100,00 %
14.05.2019 13:00 12,1 C 13,9 C 27,8 C 50 % 1024,7 hPa 0,0 l/m 15,3 km/h (3 Bft) N-NW 347 2 min 0,000 mm 2,9 UV-I 1014 W/m 2,0 C 7,6 C 19,3 km/h (3 Bft) 100,00 %
14.05.2019 13:02 12,1 C 13,9 C 25,6 C 54 % 1024,6 hPa 0,0 l/m 10,8 km/h (2 Bft) N-NO 30 2 min 0,432 mm 2,8 UV-I 1021 W/m 3,1 C 9,5 C 17,7 km/h (3 Bft) 100,00 %
14.05.2019 13:04 12,0 C 13,9 C 22,8 C 48 % 1024,6 hPa 0,0 l/m 8,0 km/h (2 Bft) W 275 0 min 0,000 mm 1,4 UV-I 450 W/m 1,3 C 11,0 C 17,7 km/h (3 Bft) 100,00 %
14.05.2019 13:06 11,5 C 13,9 C 20,0 C 49 % 1024,7 hPa 0,0 l/m 11,1 km/h (2 Bft) N 9 0 min 0,000 mm 1,0 UV-I 200 W/m 1,2 C 8,7 C 20,9 km/h (4 Bft) 96,23 %
14.05.2019 13:08 11,0 C 13,9 C 17,2 C 46 % 1024,7 hPa 0,0 l/m 12,1 km/h (2 Bft) NO 46 0 min 0,000 mm 0,8 UV-I 160 W/m -0,2 C 7,6 C 20,9 km/h (4 Bft) 94,74 %
14.05.2019 13:10 10,6 C 13,9 C 15,0 C 50 % 1024,6 hPa 0,0 l/m 10,9 km/h (2 Bft) NO 44 0 min 0,000 mm 0,7 UV-I 152 W/m 0,6 C 7,8 C 14,5 km/h (3 Bft) 96,00 %
14.05.2019 13:12 10,3 C 13,9 C 14,4 C 53 % 1024,6 hPa 0,0 l/m 5,7 km/h (1 Bft) NO 39 0 min 0,000 mm 0,8 UV-I 162 W/m 1,1 C 10,3 C 8,0 km/h (2 Bft) 96,23 %
14.05.2019 13:14 10,3 C 13,9 C 13,9 C 54 % 1024,5 hPa 0,0 l/m 6,1 km/h (2 Bft) N-NW 327 0 min 0,000 mm 0,9 UV-I 194 W/m 1,4 C 10,3 C 9,7 km/h (2 Bft) 95,12 %
14.05.2019 13:16 10,3 C 13,9 C 13,9 C 52 % 1024,5 hPa 0,0 l/m 12,5 km/h (3 Bft) N-NW 348 0 min 0,000 mm 1,2 UV-I 222 W/m 0,9 C 6,6 C 24,1 km/h (4 Bft) 95,24 %
14.05.2019 13:18 10,2 C 13,9 C 13,9 C 49 % 1024,5 hPa 0,0 l/m 14,1 km/h (3 Bft) N 9 0 min 0,000 mm 1,3 UV-I 255 W/m -0,0 C 5,8 C 19,3 km/h (3 Bft) 95,45 %
14.05.2019 13:20 10,3 C 13,9 C 13,9 C 51 % 1024,5 hPa 0,0 l/m 10,9 km/h (2 Bft) N-NW 333 0 min 0,000 mm 1,4 UV-I 277 W/m 0,6 C 7,4 C 19,3 km/h (3 Bft) 96,00 %
14.05.2019 13:22 10,3 C 13,9 C 14,4 C 51 % 1024,5 hPa 0,0 l/m 13,0 km/h (3 Bft) N 11 0 min 0,000 mm 1,5 UV-I 307 W/m 0,6 C 6,4 C 20,9 km/h (4 Bft) 92,86 %
14.05.2019 13:24 10,3 C 13,9 C 14,4 C 50 % 1024,5 hPa 0,0 l/m 14,0 km/h (3 Bft) N-NW 347 0 min 0,000 mm 1,5 UV-I 323 W/m 0,3 C 5,9 C 20,9 km/h (4 Bft) 94,74 %
14.05.2019 13:26 10,3 C 13,9 C 14,4 C 51 % 1024,5 hPa 0,0 l/m 9,3 km/h (2 Bft) N-NO 12 0 min 0,000 mm 1,1 UV-I 228 W/m 0,6 C 8,3 C 14,5 km/h (3 Bft) 96,61 %
14.05.2019 13:28 10,2 C 13,9 C 13,9 C 53 % 1024,6 hPa 0,0 l/m 10,5 km/h (2 Bft) N 11 0 min 0,000 mm 0,8 UV-I 169 W/m 1,1 C 7,5 C 16,1 km/h (3 Bft) 95,65 %
14.05.2019 13:30 10,1 C 13,9 C 12,8 C 51 % 1024,5 hPa 0,0 l/m 11,2 km/h (2 Bft) N 5 0 min 0,000 mm 0,6 UV-I 133 W/m 0,4 C 7,0 C 20,9 km/h (4 Bft) 97,06 %
14.05.2019 13:32 9,9 C 13,9 C 12,2 C 53 % 1024,5 hPa 0,0 l/m 12,8 km/h (3 Bft) NW 322 0 min 0,000 mm 0,6 UV-I 118 W/m 0,8 C 6,0 C 24,1 km/h (4 Bft) 97,56 %
14.05.2019 13:34 9,7 C 13,9 C 11,7 C 53 % 1024,5 hPa 0,0 l/m 18,9 km/h (3 Bft) NO 42 0 min 0,000 mm 0,5 UV-I 112 W/m 0,6 C 3,3 C 27,4 km/h (4 Bft) 98,00 %
14.05.2019 13:36 9,4 C 13,9 C 10,0 C 56 % 1024,5 hPa 0,0 l/m 23,6 km/h (4 Bft) N-NO 20 0 min 0,000 mm 0,5 UV-I 105 W/m 1,1 C 1,4 C 30,6 km/h (5 Bft) 97,56 %
14.05.2019 13:38 9,0 C 13,9 C 8,3 C 59 % 1024,6 hPa 0,0 l/m 26,1 km/h (4 Bft) O-NO 63 0 min 0,000 mm 0,5 UV-I 104 W/m 1,4 C 0,2 C 35,4 km/h (5 Bft) 98,11 %
14.05.2019 13:40 8,6 C 13,9 C 7,8 C 62 % 1024,6 hPa 0,0 l/m 20,1 km/h (4 Bft) O-NO 67 0 min 0,000 mm 0,5 UV-I 110 W/m 1,7 C 1,4 C 27,4 km/h (4 Bft) 100,00 %
14.05.2019 13:42 8,3 C 13,9 C 7,8 C 61 % 1024,6 hPa 0,0 l/m 15,0 km/h (3 Bft) O-NO 69 0 min 0,000 mm 0,6 UV-I 124 W/m 1,2 C 3,1 C 19,3 km/h (3 Bft) 97,87 %
14.05.2019 13:44 8,1 C 13,9 C 8,3 C 61 % 1024,4 hPa 0,0 l/m 16,0 km/h (3 Bft) O 82 0 min 0,000 mm 0,8 UV-I 135 W/m 1,0 C 2,4 C 22,5 km/h (4 Bft) 98,00 %
14.05.2019 13:46 8,1 C 13,9 C 8,3 C 56 % 1024,3 hPa 0,0 l/m 11,3 km/h (2 Bft) O 84 0 min 0,000 mm 0,9 UV-I 149 W/m -0,1 C 4,7 C 20,9 km/h (4 Bft) 100,00 %
14.05.2019 13:48 8,3 C 13,9 C 8,9 C 54 % 1024,3 hPa 0,0 l/m 6,8 km/h (2 Bft) NO 42 0 min 0,000 mm 1,0 UV-I 174 W/m -0,5 C 8,0 C 12,9 km/h (3 Bft) 100,00 %
14.05.2019 13:50 8,4 C 13,9 C 10,0 C 58 % 1024,3 hPa 0,0 l/m 8,7 km/h (2 Bft) N-NO 32 0 min 0,000 mm 1,2 UV-I 190 W/m 0,6 C 6,7 C 12,9 km/h (3 Bft) 98,00 %
14.05.2019 13:52 8,6 C 13,9 C 10,0 C 58 % 1024,3 hPa 0,0 l/m 8,3 km/h (2 Bft) NO 52 0 min 0,000 mm 1,3 UV-I 199 W/m 0,8 C 7,2 C 12,9 km/h (3 Bft) 100,00 %
14.05.2019 13:54 8,6 C 13,9 C 10,6 C 55 % 1024,3 hPa 0,0 l/m 13,6 km/h (3 Bft) N-NO 33 0 min 0,000 mm 1,5 UV-I 214 W/m 0,1 C 4,1 C 20,9 km/h (4 Bft) 100,00 %
14.05.2019 13:56 8,7 C 13,9 C 11,1 C 58 % 1024,3 hPa 0,0 l/m 7,5 km/h (2 Bft) NO 38 0 min 0,000 mm 1,7 UV-I 256 W/m 0,9 C 7,9 C 11,3 km/h (2 Bft) 100,00 %
14.05.2019 13:58 8,8 C 13,9 C 12,8 C 58 % 1024,2 hPa 0,0 l/m 8,2 km/h (2 Bft) NO 49 0 min 0,000 mm 2,0 UV-I 360 W/m 1,0 C 7,5 C 11,3 km/h (2 Bft) 100,00 %
14.05.2019 14:00 9,1 C 13,9 C 15,6 C 60 % 1024,2 hPa 0,0 l/m 7,0 km/h (2 Bft) O-NO 59 0 min 0,000 mm 2,4 UV-I 347 W/m 1,8 C 8,7 C 9,7 km/h (2 Bft) 100,00 %
14.05.2019 14:02 9,6 C 13,9 C 19,4 C 59 % 1024,2 hPa 0,0 l/m 4,0 km/h (1 Bft) NO 47 2 min 0,152 mm 3,2 UV-I 655 W/m 2,0 C 9,6 C 6,4 km/h (2 Bft) 100,00 %
14.05.2019 14:04 10,2 C 13,9 C 22,8 C 58 % 1024,1 hPa 0,0 l/m 4,4 km/h (1 Bft) NO 39 2 min 0,000 mm 3,4 UV-I 806 W/m 2,3 C 10,2 C 6,4 km/h (2 Bft) 100,00 %
14.05.2019 14:06 10,7 C 13,9 C 25,0 C 61 % 1024,0 hPa 0,0 l/m 6,0 km/h (2 Bft) O 82 2 min 0,000 mm 3,4 UV-I 811 W/m 3,5 C 10,7 C 9,7 km/h (2 Bft) 100,00 %
14.05.2019 14:08 10,9 C 13,9 C 27,2 C 52 % 1024,0 hPa 0,0 l/m 4,7 km/h (1 Bft) O-SO 102 2 min 0,000 mm 3,4 UV-I 826 W/m 1,4 C 10,9 C 8,0 km/h (2 Bft) 100,00 %
14.05.2019 14:10 10,9 C 13,9 C 28,3 C 48 % 1023,8 hPa 0,0 l/m 4,7 km/h (1 Bft) O-NO 59 2 min 0,000 mm 3,1 UV-I 859 W/m 0,3 C 10,9 C 11,3 km/h (2 Bft) 100,00 %
14.05.2019 14:12 11,1 C 13,9 C 26,7 C 54 % 1023,9 hPa 0,0 l/m 11,6 km/h (2 Bft) NO 38 2 min 0,000 mm 2,5 UV-I 865 W/m 2,2 C 8,0 C 20,9 km/h (4 Bft) 100,00 %
14.05.2019 14:14 11,2 C 13,9 C 23,9 C 55 % 1023,9 hPa 0,0 l/m 17,7 km/h (3 Bft) NW 311 2 min 0,000 mm 2,6 UV-I 865 W/m 2,5 C 5,6 C 24,1 km/h (4 Bft) 100,00 %
14.05.2019 14:16 11,3 C 13,9 C 25,0 C 55 % 1023,9 hPa 0,0 l/m 13,1 km/h (3 Bft) N 355 2 min 0,000 mm 3,3 UV-I 838 W/m 2,6 C 7,5 C 27,4 km/h (4 Bft) 100,00 %
14.05.2019 14:19 11,6 C 13,9 C 25,6 C 52 % 1023,9 hPa 0,0 l/m 17,8 km/h (3 Bft) N-NW 339 3 min 0,000 mm 3,3 UV-I 818 W/m 2,1 C 6,1 C 29,0 km/h (5 Bft) 100,00 %
14.05.2019 14:20 11,7 C 13,9 C 26,1 C 52 % 1023,9 hPa 0,0 l/m 13,0 km/h (3 Bft) N-NO 25 1 min 0,000 mm 3,3 UV-I 812 W/m 2,2 C 8,0 C 20,9 km/h (4 Bft) 100,00 %
14.05.2019 14:22 11,8 C 13,9 C 26,1 C 52 % 1023,9 hPa 0,0 l/m 21,0 km/h (4 Bft) N-NO 17 2 min 0,000 mm 3,3 UV-I 817 W/m 2,3 C 5,3 C 29,0 km/h (5 Bft) 96,00 %
14.05.2019 14:24 11,8 C 13,9 C 25,6 C 55 % 1023,9 hPa 0,0 l/m 18,2 km/h (3 Bft) N-NO 13 2 min 0,000 mm 3,3 UV-I 835 W/m 3,1 C 6,2 C 25,7 km/h (4 Bft) 95,45 %
14.05.2019 14:26 11,9 C 13,9 C 26,1 C 53 % 1023,8 hPa 0,0 l/m 22,9 km/h (4 Bft) N-NW 336 2 min 0,000 mm 3,3 UV-I 864 W/m 2,6 C 4,9 C 27,4 km/h (4 Bft) 97,56 %
14.05.2019 14:28 12,1 C 13,9 C 26,7 C 55 % 1023,8 hPa 0,0 l/m 19,9 km/h (4 Bft) N-NW 336 2 min 0,000 mm 3,4 UV-I 898 W/m 3,3 C 6,0 C 27,4 km/h (4 Bft) 97,78 %
14.05.2019 14:30 12,1 C 13,9 C 26,1 C 55 % 1023,9 hPa 0,0 l/m 18,1 km/h (3 Bft) N-NO 23 2 min 0,000 mm 3,3 UV-I 946 W/m 3,3 C 6,6 C 25,7 km/h (4 Bft) 94,83 %
14.05.2019 14:32 11,8 C 13,9 C 21,1 C 50 % 1023,9 hPa 0,0 l/m 21,8 km/h (4 Bft) N-NO 23 2 min 0,000 mm 1,5 UV-I 468 W/m 1,7 C 5,1 C 30,6 km/h (5 Bft) 100,00 %
14.05.2019 14:34 11,3 C 13,9 C 17,8 C 51 % 1023,9 hPa 0,0 l/m 18,9 km/h (3 Bft) N 355 0 min 0,000 mm 1,5 UV-I 240 W/m 1,5 C 5,3 C 30,6 km/h (5 Bft) 93,75 %
14.05.2019 14:36 10,9 C 13,9 C 16,1 C 50 % 1023,8 hPa 0,0 l/m 19,1 km/h (3 Bft) N-NW 336 0 min 0,000 mm 1,7 UV-I 281 W/m 0,9 C 4,7 C 25,7 km/h (4 Bft) 100,00 %
14.05.2019 14:38 10,7 C 13,9 C 16,7 C 50 % 1023,9 hPa 0,0 l/m 11,0 km/h (2 Bft) N 349 0 min 0,000 mm 2,0 UV-I 420 W/m 0,7 C 7,8 C 19,3 km/h (3 Bft) 96,43 %
14.05.2019 14:40 10,7 C 13,9 C 17,8 C 55 % 1023,9 hPa 0,0 l/m 10,2 km/h (2 Bft) NO 40 2 min 0,000 mm 2,1 UV-I 736 W/m 2,0 C 8,3 C 16,1 km/h (3 Bft) 97,73 %
14.05.2019 14:42 10,8 C 13,9 C 17,8 C 53 % 1023,8 hPa 0,0 l/m 22,3 km/h (4 Bft) N-NO 26 0 min 0,000 mm 2,1 UV-I 351 W/m 1,6 C 3,6 C 32,2 km/h (5 Bft) 97,87 %
14.05.2019 14:44 10,9 C 13,9 C 19,4 C 54 % 1023,8 hPa 0,0 l/m 20,4 km/h (4 Bft) N-NO 32 2 min 0,000 mm 2,6 UV-I 482 W/m 2,0 C 4,3 C 30,6 km/h (5 Bft) 97,56 %
14.05.2019 14:46 11,0 C 13,9 C 18,9 C 53 % 1023,8 hPa 0,0 l/m 16,6 km/h (3 Bft) N-NW 336 2 min 0,000 mm 1,9 UV-I 566 W/m 1,8 C 5,7 C 22,5 km/h (4 Bft) 96,15 %
14.05.2019 14:48 10,9 C 13,9 C 18,9 C 51 % 1023,8 hPa 0,0 l/m 16,3 km/h (3 Bft) N-NO 16 0 min 0,000 mm 2,0 UV-I 360 W/m 1,2 C 5,7 C 20,9 km/h (4 Bft) 95,59 %
14.05.2019 14:50 11,1 C 13,9 C 20,0 C 56 % 1023,7 hPa 0,0 l/m 18,1 km/h (3 Bft) O-NO 58 0 min 0,000 mm 2,3 UV-I 360 W/m 2,7 C 5,3 C 25,7 km/h (4 Bft) 97,59 %
14.05.2019 14:52 11,2 C 13,9 C 19,4 C 55 % 1023,8 hPa 0,0 l/m 13,0 km/h (3 Bft) NO 53 0 min 0,000 mm 1,9 UV-I 321 W/m 2,5 C 7,4 C 20,9 km/h (4 Bft) 95,88 %
14.05.2019 14:54 10,9 C 13,9 C 18,9 C 54 % 1023,7 hPa 0,0 l/m 19,3 km/h (3 Bft) O-NO 74 0 min 0,000 mm 2,1 UV-I 291 W/m 2,0 C 4,7 C 24,1 km/h (4 Bft) 97,73 %
14.05.2019 14:56 10,8 C 13,9 C 18,3 C 55 % 1023,7 hPa 0,0 l/m 10,8 km/h (2 Bft) NO 34 0 min 0,000 mm 2,0 UV-I 274 W/m 2,1 C 8,0 C 16,1 km/h (3 Bft) 98,21 %
14.05.2019 14:58 10,6 C 13,9 C 17,8 C 55 % 1023,7 hPa 0,0 l/m 10,3 km/h (2 Bft) NO 53 0 min 0,000 mm 1,7 UV-I 262 W/m 1,9 C 8,1 C 14,5 km/h (3 Bft) 97,56 %
14.05.2019 15:00 10,7 C 13,9 C 20,0 C 55 % 1023,7 hPa 0,0 l/m 12,0 km/h (2 Bft) N-NO 19 2 min 0,356 mm 2,5 UV-I 506 W/m 2,0 C 7,3 C 16,1 km/h (3 Bft) 97,56 %
14.05.2019 15:02 11,1 C 13,9 C 23,3 C 56 % 1023,6 hPa 0,0 l/m 10,5 km/h (2 Bft) N 355 2 min 0,000 mm 2,8 UV-I 764 W/m 2,7 C 8,5 C 16,1 km/h (3 Bft) 98,00 %
14.05.2019 15:04 11,5 C 13,9 C 25,6 C 55 % 1023,6 hPa 0,0 l/m 8,2 km/h (2 Bft) O-NO 65 2 min 0,000 mm 2,8 UV-I 777 W/m 2,8 C 10,3 C 14,5 km/h (3 Bft) 96,43 %
14.05.2019 15:06 11,9 C 13,9 C 26,7 C 51 % 1023,6 hPa 0,0 l/m 8,5 km/h (2 Bft) N-NO 17 2 min 0,000 mm 2,8 UV-I 763 W/m 2,1 C 10,5 C 16,1 km/h (3 Bft) 100,00 %
14.05.2019 15:08 12,1 C 13,9 C 27,2 C 48 % 1023,6 hPa 0,0 l/m 9,0 km/h (2 Bft) N-NW 336 2 min 0,000 mm 2,8 UV-I 790 W/m 1,4 C 10,5 C 20,9 km/h (4 Bft) 94,00 %
14.05.2019 15:10 12,4 C 13,9 C 27,2 C 54 % 1023,6 hPa 0,0 l/m 13,5 km/h (3 Bft) N 349 2 min 0,000 mm 2,6 UV-I 728 W/m 3,4 C 8,6 C 22,5 km/h (4 Bft) 94,23 %
14.05.2019 15:12 12,6 C 13,9 C 27,2 C 50 % 1023,6 hPa 0,0 l/m 16,9 km/h (3 Bft) N-NW 345 2 min 0,000 mm 2,6 UV-I 716 W/m 2,5 C 7,6 C 24,1 km/h (4 Bft) 95,24 %
14.05.2019 15:14 12,4 C 13,9 C 26,1 C 46 % 1023,6 hPa 0,0 l/m 14,8 km/h (3 Bft) N 5 2 min 0,000 mm 2,6 UV-I 735 W/m 1,1 C 8,1 C 22,5 km/h (4 Bft) 95,74 %
14.05.2019 15:16 12,3 C 14,4 C 26,1 C 48 % 1023,5 hPa 0,0 l/m 18,3 km/h (3 Bft) N-NO 13 2 min 0,000 mm 2,5 UV-I 699 W/m 1,6 C 6,8 C 29,0 km/h (5 Bft) 97,73 %
14.05.2019 15:18 12,3 C 14,4 C 25,6 C 50 % 1023,4 hPa 0,0 l/m 18,1 km/h (3 Bft) NW 320 2 min 0,000 mm 2,6 UV-I 720 W/m 2,2 C 6,8 C 32,2 km/h (5 Bft) 98,00 %
14.05.2019 15:20 12,3 C 14,4 C 25,6 C 46 % 1023,5 hPa 0,0 l/m 15,9 km/h (3 Bft) N 355 2 min 0,000 mm 2,7 UV-I 824 W/m 1,0 C 7,6 C 22,5 km/h (4 Bft) 96,00 %
14.05.2019 15:22 12,2 C 14,4 C 22,8 C 48 % 1023,4 hPa 0,0 l/m 17,2 km/h (3 Bft) N-NO 29 2 min 0,000 mm 1,8 UV-I 803 W/m 1,5 C 7,0 C 25,7 km/h (4 Bft) 96,00 %
14.05.2019 15:25 12,0 C 14,4 C 23,9 C 55 % 1023,4 hPa 0,0 l/m 14,3 km/h (3 Bft) N-NO 17 3 min 0,000 mm 2,5 UV-I 522 W/m 3,2 C 7,8 C 22,5 km/h (4 Bft) 96,88 %
14.05.2019 15:26 12,1 C 14,4 C 24,4 C 53 % 1023,4 hPa 0,0 l/m 19,7 km/h (3 Bft) N-NW 342 1 min 0,000 mm 2,6 UV-I 773 W/m 2,8 C 6,1 C 38,6 km/h (5 Bft) 96,30 %
14.05.2019 15:28 12,1 C 14,4 C 22,2 C 50 % 1023,4 hPa 0,0 l/m 25,6 km/h (4 Bft) N-NO 23 2 min 0,000 mm 2,2 UV-I 763 W/m 2,0 C 4,5 C 32,2 km/h (5 Bft) 97,73 %
14.05.2019 15:30 11,8 C 14,4 C 21,7 C 49 % 1023,3 hPa 0,0 l/m 24,1 km/h (4 Bft) NO 34 2 min 0,000 mm 2,2 UV-I 757 W/m 1,4 C 4,5 C 32,2 km/h (5 Bft) 96,55 %
14.05.2019 15:32 11,8 C 14,4 C 23,3 C 50 % 1023,4 hPa 0,0 l/m 18,1 km/h (3 Bft) N 355 2 min 0,000 mm 2,6 UV-I 747 W/m 1,7 C 6,2 C 27,4 km/h (4 Bft) 98,46 %
14.05.2019 15:34 11,8 C 14,4 C 23,9 C 49 % 1023,4 hPa 0,0 l/m 22,8 km/h (4 Bft) N 355 2 min 0,000 mm 2,6 UV-I 765 W/m 1,4 C 4,8 C 37,0 km/h (5 Bft) 93,62 %
14.05.2019 15:36 11,8 C 14,4 C 23,9 C 47 % 1023,3 hPa 0,0 l/m 24,9 km/h (4 Bft) N 360 2 min 0,000 mm 2,5 UV-I 786 W/m 0,9 C 4,3 C 33,8 km/h (5 Bft) 95,74 %
14.05.2019 15:38 11,8 C 14,4 C 23,3 C 46 % 1023,3 hPa 0,0 l/m 23,7 km/h (4 Bft) N-NO 30 2 min 0,000 mm 2,5 UV-I 770 W/m 0,6 C 4,6 C 32,2 km/h (5 Bft) 98,00 %
14.05.2019 15:40 11,8 C 14,4 C 23,9 C 48 % 1023,3 hPa 0,0 l/m 17,3 km/h (3 Bft) N-NO 23 2 min 0,000 mm 2,3 UV-I 740 W/m 1,2 C 6,5 C 24,1 km/h (4 Bft) 92,68 %
14.05.2019 15:42 11,8 C 14,4 C 24,4 C 46 % 1023,3 hPa 0,0 l/m 16,8 km/h (3 Bft) N-NW 344 2 min 0,000 mm 2,2 UV-I 721 W/m 0,6 C 6,7 C 35,4 km/h (5 Bft) 94,34 %
14.05.2019 15:44 11,9 C 14,4 C 23,3 C 51 % 1023,2 hPa 0,0 l/m 21,5 km/h (4 Bft) N-NW 328 2 min 0,000 mm 2,0 UV-I 662 W/m 2,1 C 5,3 C 40,2 km/h (6 Bft) 97,44 %
14.05.2019 15:46 11,7 C 14,4 C 20,0 C 47 % 1023,2 hPa 0,0 l/m 20,5 km/h (4 Bft) N-NO 15 2 min 0,000 mm 1,6 UV-I 449 W/m 0,8 C 5,3 C 27,4 km/h (4 Bft) 94,23 %
14.05.2019 15:48 11,3 C 14,4 C 19,4 C 49 % 1023,1 hPa 0,0 l/m 12,9 km/h (3 Bft) N-NW 327 0 min 0,000 mm 1,8 UV-I 370 W/m 1,0 C 7,6 C 20,9 km/h (4 Bft) 93,62 %
14.05.2019 15:50 11,3 C 14,4 C 21,7 C 51 % 1023,1 hPa 0,0 l/m 11,2 km/h (2 Bft) N 5 2 min 0,000 mm 2,2 UV-I 574 W/m 1,5 C 8,4 C 20,9 km/h (4 Bft) 96,00 %
14.05.2019 15:52 11,7 C 14,4 C 24,4 C 54 % 1023,1 hPa 0,0 l/m 14,6 km/h (3 Bft) N-NW 336 2 min 0,000 mm 2,4 UV-I 812 W/m 2,7 C 7,4 C 22,5 km/h (4 Bft) 95,83 %
14.05.2019 15:54 11,9 C 14,4 C 24,4 C 52 % 1023,1 hPa 0,0 l/m 20,3 km/h (4 Bft) NO 34 2 min 0,000 mm 2,2 UV-I 705 W/m 2,4 C 5,7 C 29,0 km/h (5 Bft) 94,29 %
14.05.2019 15:56 11,9 C 14,4 C 23,3 C 52 % 1023,1 hPa 0,0 l/m 17,7 km/h (3 Bft) N 350 2 min 0,000 mm 1,9 UV-I 604 W/m 2,4 C 6,5 C 22,5 km/h (4 Bft) 96,15 %
14.05.2019 15:58 11,7 C 14,4 C 21,7 C 52 % 1023,0 hPa 0,0 l/m 15,2 km/h (3 Bft) N 9 2 min 0,000 mm 1,6 UV-I 513 W/m 2,2 C 7,1 C 22,5 km/h (4 Bft) 94,74 %
14.05.2019 16:00 11,5 C 14,4 C 20,6 C 50 % 1023,1 hPa 0,0 l/m 19,8 km/h (3 Bft) N-NW 338 2 min 0,000 mm 1,7 UV-I 455 W/m 1,4 C 5,3 C 27,4 km/h (4 Bft) 92,45 %
14.05.2019 16:02 11,3 C 14,4 C 20,6 C 47 % 1023,1 hPa 0,0 l/m 19,4 km/h (3 Bft) N 5 2 min 0,406 mm 1,9 UV-I 563 W/m 0,4 C 5,2 C 27,4 km/h (4 Bft) 98,00 %
14.05.2019 16:04 11,3 C 14,4 C 21,1 C 50 % 1023,0 hPa 0,0 l/m 21,5 km/h (4 Bft) N-NO 15 2 min 0,000 mm 2,0 UV-I 613 W/m 1,3 C 4,5 C 27,4 km/h (4 Bft) 96,23 %
14.05.2019 16:06 11,4 C 14,4 C 21,1 C 52 % 1023,0 hPa 0,0 l/m 19,9 km/h (4 Bft) N-NW 338 2 min 0,000 mm 2,0 UV-I 600 W/m 1,9 C 5,1 C 32,2 km/h (5 Bft) 97,14 %
14.05.2019 16:08 11,4 C 14,4 C 21,1 C 52 % 1022,9 hPa 0,0 l/m 16,2 km/h (3 Bft) N 349 2 min 0,000 mm 1,9 UV-I 527 W/m 1,9 C 6,4 C 25,7 km/h (4 Bft) 96,61 %
14.05.2019 16:10 11,2 C 14,4 C 20,6 C 52 % 1022,9 hPa 0,0 l/m 19,4 km/h (3 Bft) N-NO 12 2 min 0,000 mm 1,9 UV-I 511 W/m 1,7 C 5,0 C 30,6 km/h (5 Bft) 97,56 %
14.05.2019 16:12 11,1 C 14,4 C 21,1 C 54 % 1023,0 hPa 0,0 l/m 16,2 km/h (3 Bft) N-NO 19 2 min 0,000 mm 1,8 UV-I 524 W/m 2,2 C 6,0 C 25,7 km/h (4 Bft) 96,23 %
14.05.2019 16:14 11,1 C 14,4 C 21,1 C 53 % 1023,0 hPa 0,0 l/m 18,0 km/h (3 Bft) NO 39 2 min 0,000 mm 1,8 UV-I 513 W/m 1,9 C 5,4 C 25,7 km/h (4 Bft) 97,73 %
14.05.2019 16:16 11,1 C 14,4 C 21,1 C 53 % 1022,9 hPa 0,0 l/m 19,4 km/h (3 Bft) N-NO 13 2 min 0,000 mm 1,8 UV-I 541 W/m 1,9 C 4,9 C 29,0 km/h (5 Bft) 97,87 %
14.05.2019 16:19 11,1 C 14,4 C 21,7 C 55 % 1023,0 hPa 0,0 l/m 17,1 km/h (3 Bft) N-NO 26 3 min 0,000 mm 1,9 UV-I 589 W/m 2,4 C 5,7 C 27,4 km/h (4 Bft) 97,06 %
14.05.2019 16:20 11,1 C 14,4 C 22,2 C 54 % 1023,0 hPa 0,0 l/m 15,6 km/h (3 Bft) N 350 1 min 0,000 mm 1,9 UV-I 603 W/m 2,2 C 6,2 C 19,3 km/h (3 Bft) 92,31 %
14.05.2019 16:22 11,2 C 14,4 C 22,2 C 54 % 1022,9 hPa 0,0 l/m 18,1 km/h (3 Bft) N-NW 347 2 min 0,000 mm 1,9 UV-I 621 W/m 2,2 C 5,5 C 25,7 km/h (4 Bft) 94,87 %
14.05.2019 16:24 11,3 C 14,4 C 22,2 C 57 % 1022,9 hPa 0,0 l/m 16,3 km/h (3 Bft) N-NO 26 2 min 0,000 mm 1,7 UV-I 567 W/m 3,1 C 6,2 C 22,5 km/h (4 Bft) 94,00 %
14.05.2019 16:26 11,3 C 14,4 C 21,1 C 56 % 1023,0 hPa 0,0 l/m 17,1 km/h (3 Bft) N 355 2 min 0,000 mm 1,5 UV-I 491 W/m 2,8 C 5,9 C 32,2 km/h (5 Bft) 92,31 %
14.05.2019 16:28 11,1 C 14,4 C 18,9 C 52 % 1023,0 hPa 0,0 l/m 22,0 km/h (4 Bft) N-NO 20 0 min 0,000 mm 1,4 UV-I 324 W/m 1,6 C 4,1 C 32,2 km/h (5 Bft) 95,24 %
14.05.2019 16:30 10,8 C 14,4 C 17,2 C 53 % 1023,0 hPa 0,0 l/m 15,4 km/h (3 Bft) N 10 0 min 0,000 mm 1,3 UV-I 288 W/m 1,6 C 5,9 C 24,1 km/h (4 Bft) 97,56 %
14.05.2019 16:32 10,6 C 14,4 C 17,2 C 53 % 1023,0 hPa 0,0 l/m 14,7 km/h (3 Bft) N-NO 19 0 min 0,000 mm 1,4 UV-I 266 W/m 1,4 C 6,0 C 20,9 km/h (4 Bft) 92,86 %
14.05.2019 16:34 10,6 C 14,4 C 19,4 C 55 % 1023,0 hPa 0,0 l/m 12,8 km/h (3 Bft) N-NO 23 2 min 0,000 mm 1,6 UV-I 607 W/m 1,9 C 6,8 C 19,3 km/h (3 Bft) 95,74 %
14.05.2019 16:36 10,9 C 14,4 C 21,1 C 56 % 1023,0 hPa 0,0 l/m 11,8 km/h (2 Bft) N 349 2 min 0,000 mm 1,5 UV-I 588 W/m 2,5 C 7,6 C 19,3 km/h (3 Bft) 95,12 %
14.05.2019 16:38 11,2 C 14,4 C 20,6 C 54 % 1022,9 hPa 0,0 l/m 17,6 km/h (3 Bft) N-NO 32 2 min 0,000 mm 1,4 UV-I 573 W/m 2,2 C 5,6 C 25,7 km/h (4 Bft) 94,00 %
14.05.2019 16:40 11,1 C 14,4 C 19,4 C 54 % 1023,0 hPa 0,0 l/m 16,7 km/h (3 Bft) N-NO 15 2 min 0,000 mm 1,3 UV-I 469 W/m 2,2 C 5,8 C 25,7 km/h (4 Bft) 96,00 %
14.05.2019 16:42 10,9 C 14,4 C 17,8 C 54 % 1022,9 hPa 0,0 l/m 17,5 km/h (3 Bft) NO 51 0 min 0,000 mm 1,1 UV-I 317 W/m 2,0 C 5,3 C 24,1 km/h (4 Bft) 95,74 %
14.05.2019 16:44 10,7 C 14,4 C 16,1 C 56 % 1022,9 hPa 0,0 l/m 21,8 km/h (4 Bft) NO 36 0 min 0,000 mm 1,1 UV-I 277 W/m 2,3 C 3,6 C 30,6 km/h (5 Bft) 95,45 %
14.05.2019 16:46 10,5 C 14,4 C 15,6 C 54 % 1022,9 hPa 0,0 l/m 18,0 km/h (3 Bft) N-NO 28 0 min 0,000 mm 1,2 UV-I 307 W/m 1,6 C 4,6 C 30,6 km/h (5 Bft) 98,00 %
14.05.2019 16:48 10,4 C 14,4 C 15,6 C 56 % 1022,9 hPa 0,0 l/m 21,6 km/h (4 Bft) N-NO 17 2 min 0,000 mm 1,2 UV-I 327 W/m 2,0 C 3,3 C 30,6 km/h (5 Bft) 97,37 %
14.05.2019 16:50 10,4 C 14,4 C 16,1 C 58 % 1022,9 hPa 0,0 l/m 17,3 km/h (3 Bft) N-NO 13 2 min 0,000 mm 1,2 UV-I 391 W/m 2,5 C 4,7 C 24,1 km/h (4 Bft) 98,00 %
14.05.2019 16:52 10,4 C 14,4 C 16,7 C 59 % 1022,9 hPa 0,0 l/m 26,3 km/h (4 Bft) N 355 2 min 0,000 mm 1,3 UV-I 420 W/m 2,7 C 2,1 C 38,6 km/h (5 Bft) 91,49 %
14.05.2019 16:54 10,3 C 14,4 C 15,6 C 59 % 1022,9 hPa 0,0 l/m 27,1 km/h (4 Bft) N-NO 30 2 min 0,000 mm 1,2 UV-I 378 W/m 2,6 C 1,7 C 32,2 km/h (5 Bft) 96,23 %
14.05.2019 16:56 10,2 C 14,4 C 16,7 C 59 % 1022,9 hPa 0,0 l/m 22,0 km/h (4 Bft) NO 35 2 min 0,000 mm 1,4 UV-I 469 W/m 2,6 C 2,9 C 35,4 km/h (5 Bft) 97,56 %
14.05.2019 16:58 10,4 C 14,4 C 18,9 C 60 % 1023,0 hPa 0,0 l/m 21,4 km/h (4 Bft) N-NW 348 2 min 0,000 mm 1,4 UV-I 644 W/m 3,0 C 3,4 C 35,4 km/h (5 Bft) 96,23 %
14.05.2019 17:00 10,3 C 14,4 C 17,2 C 55 % 1022,9 hPa 0,0 l/m 23,1 km/h (4 Bft) NO 56 2 min 0,305 mm 1,1 UV-I 358 W/m 1,7 C 2,7 C 35,4 km/h (5 Bft) 93,62 %
14.05.2019 17:02 10,2 C 14,4 C 16,1 C 57 % 1023,0 hPa 0,0 l/m 17,9 km/h (3 Bft) N-NO 14 2 min 0,000 mm 1,0 UV-I 303 W/m 2,1 C 4,3 C 24,1 km/h (4 Bft) 93,62 %
14.05.2019 17:04 9,8 C 14,4 C 14,4 C 57 % 1022,9 hPa 0,0 l/m 18,8 km/h (3 Bft) N 9 0 min 0,000 mm 0,9 UV-I 229 W/m 1,7 C 3,4 C 30,6 km/h (5 Bft) 93,62 %
14.05.2019 17:06 9,6 C 14,4 C 13,3 C 58 % 1022,9 hPa 0,0 l/m 19,6 km/h (3 Bft) N 355 0 min 0,000 mm 0,9 UV-I 221 W/m 1,8 C 2,9 C 25,7 km/h (4 Bft) 94,44 %
14.05.2019 17:08 9,3 C 14,4 C 12,8 C 60 % 1022,9 hPa 0,0 l/m 13,4 km/h (3 Bft) N-NO 15 0 min 0,000 mm 0,9 UV-I 210 W/m 1,9 C 5,0 C 19,3 km/h (3 Bft) 93,22 %
14.05.2019 17:10 9,2 C 14,4 C 12,8 C 61 % 1023,0 hPa 0,0 l/m 8,2 km/h (2 Bft) N-NO 12 0 min 0,000 mm 0,8 UV-I 207 W/m 2,1 C 7,9 C 14,5 km/h (3 Bft) 94,29 %
14.05.2019 17:12 9,1 C 14,4 C 12,2 C 61 % 1022,9 hPa 0,0 l/m 10,3 km/h (2 Bft) NO 36 0 min 0,000 mm 0,7 UV-I 194 W/m 2,0 C 6,4 C 17,7 km/h (3 Bft) 92,00 %
14.05.2019 17:14 9,0 C 14,4 C 12,2 C 63 % 1022,9 hPa 0,0 l/m 9,1 km/h (2 Bft) N 11 0 min 0,000 mm 0,6 UV-I 185 W/m 2,3 C 7,1 C 19,3 km/h (3 Bft) 92,45 %
14.05.2019 17:16 8,9 C 14,4 C 11,7 C 65 % 1022,9 hPa 0,0 l/m 11,1 km/h (2 Bft) NO 34 0 min 0,000 mm 0,6 UV-I 189 W/m 2,7 C 5,7 C 17,7 km/h (3 Bft) 100,00 %
14.05.2019 17:18 8,8 C 14,4 C 11,7 C 66 % 1022,9 hPa 0,0 l/m 15,9 km/h (3 Bft) N-NO 19 0 min 0,000 mm 0,6 UV-I 203 W/m 2,8 C 3,3 C 20,9 km/h (4 Bft) 97,87 %
14.05.2019 17:20 8,8 C 14,4 C 12,2 C 67 % 1022,9 hPa 0,0 l/m 17,0 km/h (3 Bft) NO 44 0 min 0,000 mm 0,6 UV-I 221 W/m 3,0 C 2,8 C 24,1 km/h (4 Bft) 100,00 %
14.05.2019 17:22 8,8 C 14,4 C 12,8 C 66 % 1023,0 hPa 0,0 l/m 16,8 km/h (3 Bft) N 350 0 min 0,000 mm 0,7 UV-I 272 W/m 2,8 C 2,9 C 22,5 km/h (4 Bft) 98,21 %
14.05.2019 17:24 8,9 C 14,4 C 13,9 C 66 % 1022,9 hPa 0,0 l/m 17,1 km/h (3 Bft) N-NO 28 2 min 0,000 mm 0,7 UV-I 348 W/m 2,9 C 2,9 C 27,4 km/h (4 Bft) 97,56 %
14.05.2019 17:26 9,1 C 14,4 C 15,0 C 66 % 1022,9 hPa 0,0 l/m 15,1 km/h (3 Bft) N-NW 345 2 min 0,000 mm 0,7 UV-I 371 W/m 3,1 C 4,0 C 25,7 km/h (4 Bft) 96,23 %
14.05.2019 17:28 9,3 C 14,4 C 15,6 C 64 % 1022,9 hPa 0,0 l/m 18,9 km/h (3 Bft) N-NO 29 2 min 0,000 mm 0,8 UV-I 357 W/m 2,8 C 2,8 C 27,4 km/h (4 Bft) 100,00 %
14.05.2019 17:30 9,4 C 14,4 C 16,7 C 64 % 1022,9 hPa 0,0 l/m 19,2 km/h (3 Bft) NO 48 2 min 0,000 mm 0,8 UV-I 395 W/m 2,9 C 2,8 C 24,1 km/h (4 Bft) 100,00 %
14.05.2019 17:32 9,6 C 14,4 C 17,2 C 64 % 1022,9 hPa 0,0 l/m 19,9 km/h (4 Bft) NO 44 2 min 0,000 mm 0,9 UV-I 475 W/m 3,1 C 2,8 C 25,7 km/h (4 Bft) 100,00 %
14.05.2019 17:34 9,8 C 14,4 C 17,2 C 62 % 1022,8 hPa 0,0 l/m 19,6 km/h (3 Bft) O-NO 64 2 min 0,000 mm 0,8 UV-I 403 W/m 2,9 C 3,2 C 24,1 km/h (4 Bft) 100,00 %
14.05.2019 17:36 9,8 C 14,4 C 16,7 C 60 % 1022,8 hPa 0,0 l/m 21,9 km/h (4 Bft) NO 35 2 min 0,000 mm 0,8 UV-I 330 W/m 2,4 C 2,4 C 30,6 km/h (5 Bft) 98,04 %
14.05.2019 17:38 9,7 C 14,4 C 16,1 C 61 % 1022,8 hPa 0,0 l/m 17,8 km/h (3 Bft) N-NO 24 2 min 0,000 mm 0,7 UV-I 307 W/m 2,5 C 3,7 C 24,1 km/h (4 Bft) 100,00 %
14.05.2019 17:40 9,7 C 14,4 C 15,0 C 60 % 1022,8 hPa 0,0 l/m 21,6 km/h (4 Bft) NO 52 2 min 0,000 mm 0,7 UV-I 288 W/m 2,3 C 2,4 C 27,4 km/h (4 Bft) 100,00 %
14.05.2019 17:42 9,6 C 14,4 C 14,4 C 59 % 1022,8 hPa 0,0 l/m 17,5 km/h (3 Bft) N-NO 22 2 min 0,000 mm 0,6 UV-I 248 W/m 2,0 C 3,6 C 24,1 km/h (4 Bft) 100,00 %
14.05.2019 17:44 9,5 C 14,4 C 14,4 C 62 % 1022,7 hPa 0,0 l/m 16,8 km/h (3 Bft) NO 50 2 min 0,000 mm 0,6 UV-I 257 W/m 2,6 C 3,8 C 24,1 km/h (4 Bft) 100,00 %
14.05.2019 17:46 9,4 C 14,4 C 14,4 C 62 % 1022,7 hPa 0,0 l/m 15,5 km/h (3 Bft) NO 51 2 min 0,000 mm 0,6 UV-I 250 W/m 2,5 C 4,2 C 17,7 km/h (3 Bft) 100,00 %
14.05.2019 17:48 9,5 C 14,4 C 13,9 C 61 % 1022,7 hPa 0,0 l/m 17,7 km/h (3 Bft) NO 44 0 min 0,000 mm 0,6 UV-I 223 W/m 2,4 C 3,4 C 25,7 km/h (4 Bft) 97,87 %
14.05.2019 17:50 9,4 C 14,4 C 13,3 C 62 % 1022,7 hPa 0,0 l/m 15,3 km/h (3 Bft) NO 53 0 min 0,000 mm 0,5 UV-I 188 W/m 2,5 C 4,3 C 24,1 km/h (4 Bft) 100,00 %
14.05.2019 17:52 9,4 C 14,4 C 12,2 C 60 % 1022,7 hPa 0,0 l/m 19,8 km/h (3 Bft) NO 36 0 min 0,000 mm 0,5 UV-I 177 W/m 2,0 C 2,6 C 25,7 km/h (4 Bft) 100,00 %
14.05.2019 17:54 9,3 C 14,4 C 12,2 C 59 % 1022,7 hPa 0,0 l/m 18,1 km/h (3 Bft) N-NO 26 0 min 0,000 mm 0,5 UV-I 178 W/m 1,7 C 3,0 C 25,7 km/h (4 Bft) 100,00 %
14.05.2019 17:56 9,2 C 14,4 C 11,7 C 60 % 1022,7 hPa 0,0 l/m 21,8 km/h (4 Bft) N-NO 24 0 min 0,000 mm 0,0 UV-I 186 W/m 1,8 C 1,7 C 29,0 km/h (5 Bft) 100,00 %
14.05.2019 17:59 9,1 C 14,4 C 12,2 C 61 % 1022,6 hPa 0,0 l/m 18,6 km/h (3 Bft) N-NO 18 0 min 0,000 mm 0,0 UV-I 212 W/m 2,0 C 2,6 C 25,7 km/h (4 Bft) 96,20 %
14.05.2019 18:00 9,2 C 14,4 C 12,2 C 62 % 1022,6 hPa 0,0 l/m 17,3 km/h (3 Bft) N-NO 17 0 min 0,000 mm 0,0 UV-I 210 W/m 2,3 C 3,2 C 22,5 km/h (4 Bft) 100,00 %
14.05.2019 18:02 9,2 C 14,4 C 12,8 C 63 % 1022,6 hPa 0,0 l/m 13,9 km/h (3 Bft) N 5 0 min 0,178 mm 0,0 UV-I 202 W/m 2,5 C 4,7 C 16,1 km/h (3 Bft) 98,00 %
14.05.2019 18:04 9,2 C 14,4 C 12,8 C 62 % 1022,6 hPa 0,0 l/m 7,8 km/h (2 Bft) N-NO 24 0 min 0,000 mm 0,0 UV-I 197 W/m 2,3 C 8,2 C 12,9 km/h (3 Bft) 95,74 %
14.05.2019 18:06 9,2 C 14,4 C 12,8 C 62 % 1022,5 hPa 0,0 l/m 11,9 km/h (2 Bft) NO 34 0 min 0,000 mm 0,0 UV-I 179 W/m 2,3 C 5,6 C 17,7 km/h (3 Bft) 97,87 %
14.05.2019 18:08 9,2 C 14,4 C 12,8 C 64 % 1022,6 hPa 0,0 l/m 14,1 km/h (3 Bft) NO 43 0 min 0,000 mm 0,0 UV-I 161 W/m 2,8 C 4,6 C 22,5 km/h (4 Bft) 97,87 %
14.05.2019 18:10 9,1 C 14,4 C 12,2 C 63 % 1022,5 hPa 0,0 l/m 12,7 km/h (3 Bft) N-NO 33 0 min 0,000 mm 0,0 UV-I 153 W/m 2,4 C 5,1 C 17,7 km/h (3 Bft) 98,00 %
14.05.2019 18:12 9,1 C 14,4 C 11,7 C 62 % 1022,5 hPa 0,0 l/m 17,6 km/h (3 Bft) NO 53 0 min 0,000 mm 0,0 UV-I 152 W/m 2,2 C 3,0 C 22,5 km/h (4 Bft) 98,00 %
14.05.2019 18:14 9,0 C 14,4 C 11,7 C 62 % 1022,5 hPa 0,0 l/m 18,1 km/h (3 Bft) NO 52 0 min 0,000 mm 0,0 UV-I 167 W/m 2,1 C 2,7 C 22,5 km/h (4 Bft) 97,14 %
14.05.2019 18:16 8,9 C 14,4 C 11,7 C 62 % 1022,5 hPa 0,0 l/m 14,9 km/h (3 Bft) N-NO 26 0 min 0,000 mm 0,1 UV-I 191 W/m 2,0 C 3,8 C 19,3 km/h (3 Bft) 94,00 %
14.05.2019 18:18 9,0 C 14,4 C 12,2 C 63 % 1022,5 hPa 0,0 l/m 12,6 km/h (3 Bft) NO 38 2 min 0,000 mm 0,5 UV-I 201 W/m 2,3 C 5,1 C 17,7 km/h (3 Bft) 92,86 %
14.05.2019 18:20 9,1 C 14,4 C 12,2 C 63 % 1022,4 hPa 0,0 l/m 16,8 km/h (3 Bft) O-NO 72 2 min 0,000 mm 0,4 UV-I 196 W/m 2,4 C 3,3 C 24,1 km/h (4 Bft) 95,24 %
14.05.2019 18:22 9,1 C 14,4 C 12,2 C 63 % 1022,4 hPa 0,0 l/m 13,4 km/h (3 Bft) N-NO 30 2 min 0,000 mm 0,0 UV-I 202 W/m 2,4 C 4,8 C 20,9 km/h (4 Bft) 93,62 %
14.05.2019 18:24 9,2 C 14,4 C 12,8 C 63 % 1022,4 hPa 0,0 l/m 13,7 km/h (3 Bft) NO 42 2 min 0,000 mm 0,0 UV-I 194 W/m 2,5 C 4,8 C 19,3 km/h (3 Bft) 95,45 %
14.05.2019 18:26 9,1 C 14,4 C 12,2 C 63 % 1022,4 hPa 0,0 l/m 13,1 km/h (3 Bft) N-NO 25 0 min 0,000 mm 0,0 UV-I 179 W/m 2,4 C 4,9 C 19,3 km/h (3 Bft) 98,11 %
14.05.2019 18:28 9,1 C 14,4 C 11,7 C 63 % 1022,4 hPa 0,0 l/m 10,5 km/h (2 Bft) NO 38 0 min 0,000 mm 0,0 UV-I 143 W/m 2,4 C 6,3 C 14,5 km/h (3 Bft) 97,56 %
14.05.2019 18:30 9,0 C 14,4 C 11,7 C 64 % 1022,4 hPa 0,0 l/m 15,3 km/h (3 Bft) NO 49 0 min 0,000 mm 0,0 UV-I 140 W/m 2,6 C 3,8 C 20,9 km/h (4 Bft) 96,23 %
14.05.2019 18:32 8,9 C 14,4 C 11,1 C 63 % 1022,4 hPa 0,0 l/m 13,8 km/h (3 Bft) N-NO 22 0 min 0,000 mm 0,0 UV-I 135 W/m 2,2 C 4,3 C 19,3 km/h (3 Bft) 95,45 %
14.05.2019 18:34 8,9 C 14,4 C 11,1 C 64 % 1022,4 hPa 0,0 l/m 13,0 km/h (3 Bft) NO 42 0 min 0,000 mm 0,0 UV-I 133 W/m 2,5 C 4,7 C 16,1 km/h (3 Bft) 97,73 %
14.05.2019 18:36 8,9 C 14,4 C 10,6 C 64 % 1022,4 hPa 0,0 l/m 11,5 km/h (2 Bft) N 5 0 min 0,000 mm 0,0 UV-I 133 W/m 2,5 C 5,5 C 16,1 km/h (3 Bft) 97,56 %
14.05.2019 18:38 8,9 C 14,4 C 10,6 C 64 % 1022,4 hPa 0,0 l/m 9,9 km/h (2 Bft) N-NO 17 0 min 0,000 mm 0,0 UV-I 131 W/m 2,5 C 6,4 C 14,5 km/h (3 Bft) 98,11 %
14.05.2019 18:40 8,9 C 14,4 C 11,1 C 65 % 1022,4 hPa 0,0 l/m 7,6 km/h (2 Bft) NO 51 0 min 0,000 mm 0,0 UV-I 133 W/m 2,7 C 8,0 C 11,3 km/h (2 Bft) 100,00 %
14.05.2019 18:42 8,9 C 14,4 C 11,1 C 64 % 1022,4 hPa 0,0 l/m 6,4 km/h (2 Bft) N-NO 24 0 min 0,000 mm 0,0 UV-I 129 W/m 2,5 C 8,9 C 8,0 km/h (2 Bft) 98,11 %
14.05.2019 18:44 8,9 C 14,4 C 11,1 C 65 % 1022,4 hPa 0,0 l/m 7,7 km/h (2 Bft) N-NO 18 0 min 0,000 mm 0,0 UV-I 121 W/m 2,7 C 7,9 C 14,5 km/h (3 Bft) 100,00 %
14.05.2019 18:46 8,9 C 14,4 C 10,6 C 66 % 1022,4 hPa 0,0 l/m 7,2 km/h (2 Bft) N-NO 15 0 min 0,000 mm 0,0 UV-I 111 W/m 2,9 C 8,3 C 11,3 km/h (2 Bft) 98,11 %
14.05.2019 18:48 8,9 C 14,4 C 10,6 C 64 % 1022,5 hPa 0,0 l/m 9,2 km/h (2 Bft) N 10 0 min 0,000 mm 0,0 UV-I 101 W/m 2,5 C 6,9 C 12,9 km/h (3 Bft) 100,00 %
14.05.2019 18:50 8,9 C 14,4 C 10,6 C 64 % 1022,5 hPa 0,0 l/m 7,0 km/h (2 Bft) N-NO 15 0 min 0,000 mm 0,0 UV-I 93 W/m 2,5 C 8,4 C 11,3 km/h (2 Bft) 100,00 %
14.05.2019 18:52 8,9 C 14,4 C 10,6 C 65 % 1022,4 hPa 0,0 l/m 6,2 km/h (2 Bft) N-NO 26 0 min 0,000 mm 0,0 UV-I 89 W/m 2,7 C 8,9 C 8,0 km/h (2 Bft) 100,00 %
14.05.2019 18:54 8,8 C 14,4 C 10,0 C 66 % 1022,5 hPa 0,0 l/m 7,0 km/h (2 Bft) N-NO 16 0 min 0,000 mm 0,0 UV-I 85 W/m 2,8 C 8,3 C 14,5 km/h (3 Bft) 98,00 %
14.05.2019 18:56 8,8 C 14,4 C 10,0 C 64 % 1022,5 hPa 0,0 l/m 8,8 km/h (2 Bft) N 355 0 min 0,000 mm 0,0 UV-I 80 W/m 2,4 C 7,0 C 12,9 km/h (3 Bft) 97,56 %
14.05.2019 18:58 8,8 C 14,4 C 10,0 C 62 % 1022,5 hPa 0,0 l/m 7,3 km/h (2 Bft) N-NO 20 0 min 0,000 mm 0,0 UV-I 73 W/m 1,9 C 8,1 C 12,9 km/h (3 Bft) 100,00 %
14.05.2019 19:00 8,8 C 14,4 C 10,0 C 62 % 1022,5 hPa 0,0 l/m 12,1 km/h (2 Bft) N-NW 328 0 min 0,000 mm 0,0 UV-I 68 W/m 1,9 C 5,1 C 16,1 km/h (3 Bft) 100,00 %
14.05.2019 19:02 8,8 C 14,4 C 9,4 C 62 % 1022,5 hPa 0,0 l/m 11,1 km/h (2 Bft) N 5 0 min 0,101 mm 0,0 UV-I 69 W/m 1,9 C 5,6 C 16,1 km/h (3 Bft) 100,00 %
14.05.2019 19:04 8,8 C 14,4 C 9,4 C 62 % 1022,5 hPa 0,0 l/m 9,5 km/h (2 Bft) N 9 0 min 0,000 mm 0,0 UV-I 70 W/m 1,9 C 6,6 C 14,5 km/h (3 Bft) 98,11 %
14.05.2019 19:06 8,8 C 14,4 C 9,4 C 62 % 1022,6 hPa 0,0 l/m 9,1 km/h (2 Bft) N-NO 13 0 min 0,000 mm 0,0 UV-I 70 W/m 1,9 C 6,8 C 14,5 km/h (3 Bft) 100,00 %
14.05.2019 19:08 8,8 C 14,4 C 9,4 C 61 % 1022,6 hPa 0,0 l/m 11,4 km/h (2 Bft) N 5 0 min 0,000 mm 0,0 UV-I 71 W/m 1,7 C 5,5 C 14,5 km/h (3 Bft) 100,00 %
14.05.2019 19:10 8,8 C 14,4 C 9,4 C 61 % 1022,6 hPa 0,0 l/m 7,5 km/h (2 Bft) NO 39 0 min 0,000 mm 0,0 UV-I 69 W/m 1,7 C 8,0 C 11,3 km/h (2 Bft) 100,00 %
14.05.2019 19:12 8,8 C 14,4 C 9,4 C 61 % 1022,6 hPa 0,0 l/m 13,7 km/h (3 Bft) N-NO 19 0 min 0,000 mm 0,0 UV-I 66 W/m 1,7 C 4,3 C 24,1 km/h (4 Bft) 100,00 %
14.05.2019 19:14 8,8 C 14,4 C 9,4 C 62 % 1022,7 hPa 0,0 l/m 10,9 km/h (2 Bft) NO 38 0 min 0,000 mm 0,0 UV-I 69 W/m 1,9 C 5,7 C 16,1 km/h (3 Bft) 100,00 %
14.05.2019 19:16 8,8 C 14,4 C 9,4 C 64 % 1022,7 hPa 0,0 l/m 20,5 km/h (4 Bft) N-NO 23 0 min 0,000 mm 0,0 UV-I 74 W/m 2,4 C 1,6 C 30,6 km/h (5 Bft) 100,00 %
14.05.2019 19:18 8,7 C 14,4 C 9,4 C 65 % 1022,7 hPa 0,0 l/m 17,8 km/h (3 Bft) N-NO 24 0 min 0,000 mm 0,0 UV-I 76 W/m 2,5 C 2,4 C 22,5 km/h (4 Bft) 100,00 %
14.05.2019 19:20 8,5 C 14,4 C 8,9 C 65 % 1022,8 hPa 0,0 l/m 21,4 km/h (4 Bft) NO 39 0 min 0,000 mm 0,0 UV-I 74 W/m 2,3 C 0,9 C 29,0 km/h (5 Bft) 100,00 %
14.05.2019 19:22 8,4 C 14,4 C 8,9 C 65 % 1022,8 hPa 0,0 l/m 16,2 km/h (3 Bft) N-NO 24 0 min 0,000 mm 0,0 UV-I 67 W/m 2,2 C 2,7 C 22,5 km/h (4 Bft) 97,14 %
14.05.2019 19:24 8,3 C 14,4 C 8,9 C 66 % 1022,8 hPa 0,0 l/m 11,0 km/h (2 Bft) N-NO 30 0 min 0,000 mm 0,0 UV-I 54 W/m 2,3 C 5,1 C 16,1 km/h (3 Bft) 100,00 %
14.05.2019 19:26 8,2 C 14,4 C 8,9 C 67 % 1022,8 hPa 0,0 l/m 14,8 km/h (3 Bft) N 9 0 min 0,000 mm 0,0 UV-I 40 W/m 2,4 C 3,0 C 20,9 km/h (4 Bft) 100,00 %
14.05.2019 19:28 8,2 C 14,4 C 8,3 C 67 % 1022,8 hPa 0,0 l/m 17,4 km/h (3 Bft) N-NO 12 0 min 0,000 mm 0,0 UV-I 30 W/m 2,4 C 1,9 C 22,5 km/h (4 Bft) 100,00 %
14.05.2019 19:30 8,1 C 14,4 C 8,3 C 67 % 1022,9 hPa 0,0 l/m 13,6 km/h (3 Bft) N-NO 28 0 min 0,000 mm 0,0 UV-I 26 W/m 2,3 C 3,5 C 19,3 km/h (3 Bft) 100,00 %
14.05.2019 19:32 8,1 C 14,4 C 7,8 C 70 % 1022,9 hPa 0,0 l/m 18,8 km/h (3 Bft) NO 46 0 min 0,000 mm 0,0 UV-I 31 W/m 3,0 C 1,3 C 24,1 km/h (4 Bft) 97,87 %
14.05.2019 19:34 7,9 C 14,4 C 7,2 C 70 % 1023,0 hPa 0,0 l/m 23,9 km/h (4 Bft) N-NO 32 0 min 0,000 mm 0,0 UV-I 32 W/m 2,8 C -0,7 C 33,8 km/h (5 Bft) 100,00 %
14.05.2019 19:36 7,7 C 14,4 C 6,7 C 71 % 1023,1 hPa 0,0 l/m 17,4 km/h (3 Bft) NO 35 0 min 0,000 mm 0,0 UV-I 32 W/m 2,8 C 1,3 C 22,5 km/h (4 Bft) 97,73 %
14.05.2019 19:38 7,5 C 14,4 C 6,7 C 73 % 1023,1 hPa 0,0 l/m 17,1 km/h (3 Bft) N-NO 27 0 min 0,000 mm 0,0 UV-I 30 W/m 3,0 C 1,2 C 24,1 km/h (4 Bft) 97,78 %
14.05.2019 19:40 7,3 C 14,4 C 6,1 C 74 % 1023,1 hPa 0,0 l/m 10,5 km/h (2 Bft) O-NO 59 0 min 0,000 mm 0,0 UV-I 26 W/m 3,0 C 4,3 C 16,1 km/h (3 Bft) 97,87 %
14.05.2019 19:42 7,2 C 14,4 C 6,1 C 74 % 1023,0 hPa 0,0 l/m 6,3 km/h (2 Bft) NO 54 0 min 0,000 mm 0,0 UV-I 28 W/m 2,9 C 7,2 C 11,3 km/h (2 Bft) 96,00 %
14.05.2019 19:44 7,2 C 14,4 C 6,1 C 73 % 1022,8 hPa 0,0 l/m 4,6 km/h (1 Bft) O-SO 107 0 min 0,000 mm 0,0 UV-I 32 W/m 2,7 C 7,2 C 6,4 km/h (2 Bft) 97,56 %
14.05.2019 19:46 7,2 C 14,4 C 6,1 C 73 % 1022,7 hPa 0,0 l/m 10,7 km/h (2 Bft) SO 131 0 min 0,000 mm 0,0 UV-I 36 W/m 2,7 C 4,1 C 14,5 km/h (3 Bft) 93,62 %
14.05.2019 19:48 7,3 C 14,4 C 6,7 C 74 % 1022,8 hPa 0,0 l/m 6,8 km/h (2 Bft) SO 132 0 min 0,000 mm 0,0 UV-I 40 W/m 3,0 C 7,0 C 11,3 km/h (2 Bft) 96,23 %
14.05.2019 19:50 7,3 C 14,4 C 6,7 C 77 % 1022,8 hPa 0,0 l/m 7,0 km/h (2 Bft) SO 134 0 min 0,000 mm 0,0 UV-I 40 W/m 3,5 C 6,8 C 11,3 km/h (2 Bft) 95,45 %
14.05.2019 19:52 7,2 C 14,4 C 6,7 C 76 % 1022,8 hPa 0,0 l/m 5,5 km/h (1 Bft) O-SO 119 0 min 0,000 mm 0,0 UV-I 39 W/m 3,3 C 7,2 C 9,7 km/h (2 Bft) 96,00 %
14.05.2019 19:54 7,1 C 14,4 C 6,7 C 75 % 1022,8 hPa 0,0 l/m 6,5 km/h (2 Bft) SO 133 0 min 0,000 mm 0,0 UV-I 35 W/m 3,0 C 7,0 C 11,3 km/h (2 Bft) 93,62 %
14.05.2019 19:56 7,0 C 14,4 C 6,7 C 74 % 1022,7 hPa 0,0 l/m 3,9 km/h (1 Bft) SO 133 0 min 0,000 mm 0,0 UV-I 31 W/m 2,7 C 7,0 C 4,8 km/h (1 Bft) 95,74 %
14.05.2019 19:58 7,0 C 14,4 C 6,7 C 75 % 1022,7 hPa 0,0 l/m 2,4 km/h (1 Bft) SO 133 0 min 0,000 mm 0,0 UV-I 29 W/m 2,9 C 7,0 C 4,8 km/h (1 Bft) 95,74 %
14.05.2019 20:00 7,1 C 14,4 C 6,7 C 76 % 1022,8 hPa 0,0 l/m 1,1 km/h (1 Bft) SO 133 0 min 0,000 mm 0,0 UV-I 26 W/m 3,2 C 7,1 C 3,2 km/h (1 Bft) 95,12 %
14.05.2019 20:02 7,1 C 14,4 C 6,7 C 78 % 1022,8 hPa 0,0 l/m 1,3 km/h (1 Bft) SO 133 0 min 0,051 mm 0,0 UV-I 25 W/m 3,5 C 7,1 C 3,2 km/h (1 Bft) 98,00 %
14.05.2019 20:04 7,1 C 14,4 C 6,7 C 78 % 1022,8 hPa 0,0 l/m 2,0 km/h (1 Bft) SO 134 0 min 0,000 mm 0,0 UV-I 31 W/m 3,5 C 7,1 C 3,2 km/h (1 Bft) 98,00 %
14.05.2019 20:06 7,1 C 14,4 C 6,7 C 77 % 1022,7 hPa 0,0 l/m 1,4 km/h (1 Bft) SO 134 0 min 0,000 mm 0,0 UV-I 30 W/m 3,3 C 7,1 C 3,2 km/h (1 Bft) 97,14 %
14.05.2019 20:08 7,1 C 14,4 C 6,7 C 75 % 1022,8 hPa 0,0 l/m 0,6 km/h (0 Bft) SO 134 2 min 0,000 mm 0,0 UV-I 33 W/m 3,0 C 7,1 C 1,6 km/h (1 Bft) 98,11 %
14.05.2019 20:10 7,1 C 14,4 C 6,7 C 75 % 1022,8 hPa 0,0 l/m 0,0 km/h (0 Bft) SO 134 2 min 0,000 mm 0,0 UV-I 28 W/m 3,0 C 7,1 C 1,6 km/h (1 Bft) 98,00 %
14.05.2019 20:12 7,1 C 14,4 C 6,7 C 72 % 1022,8 hPa 0,0 l/m 0,6 km/h (0 Bft) SO 134 2 min 0,000 mm 0,0 UV-I 25 W/m 2,4 C 7,1 C 1,6 km/h (1 Bft) 97,62 %
14.05.2019 20:14 7,2 C 14,4 C 6,7 C 73 % 1022,8 hPa 0,0 l/m 1,4 km/h (1 Bft) SO 134 2 min 0,000 mm 0,0 UV-I 23 W/m 2,7 C 7,2 C 3,2 km/h (1 Bft) 98,00 %
14.05.2019 20:16 7,2 C 14,4 C 6,7 C 75 % 1022,8 hPa 0,0 l/m 1,6 km/h (1 Bft) SO 134 2 min 0,000 mm 0,0 UV-I 23 W/m 3,1 C 7,2 C 3,2 km/h (1 Bft) 95,12 %
14.05.2019 20:18 7,2 C 14,4 C 6,7 C 77 % 1022,8 hPa 0,0 l/m 2,0 km/h (1 Bft) SO 134 2 min 0,000 mm 0,0 UV-I 19 W/m 3,4 C 7,2 C 3,2 km/h (1 Bft) 95,74 %
14.05.2019 20:20 7,2 C 14,4 C 6,1 C 76 % 1022,8 hPa 0,0 l/m 2,9 km/h (1 Bft) SO 134 2 min 0,000 mm 0,0 UV-I 17 W/m 3,3 C 7,2 C 3,2 km/h (1 Bft) 97,87 %
14.05.2019 20:22 7,2 C 14,4 C 6,1 C 76 % 1022,8 hPa 0,0 l/m 2,7 km/h (1 Bft) SO 135 2 min 0,000 mm 0,0 UV-I 16 W/m 3,3 C 7,2 C 4,8 km/h (1 Bft) 96,00 %
14.05.2019 20:24 7,1 C 14,4 C 6,1 C 75 % 1022,8 hPa 0,0 l/m 4,0 km/h (1 Bft) S 191 0 min 0,000 mm 0,0 UV-I 14 W/m 3,0 C 7,1 C 4,8 km/h (1 Bft) 94,00 %
14.05.2019 20:26 7,1 C 14,4 C 6,1 C 75 % 1022,8 hPa 0,0 l/m 3,9 km/h (1 Bft) S-SW 192 0 min 0,000 mm 0,0 UV-I 12 W/m 3,0 C 7,1 C 4,8 km/h (1 Bft) 98,00 %
14.05.2019 20:28 7,0 C 14,4 C 6,1 C 76 % 1022,8 hPa 0,0 l/m 2,6 km/h (1 Bft) S-SW 192 0 min 0,000 mm 0,0 UV-I 11 W/m 3,1 C 7,0 C 4,8 km/h (1 Bft) 95,74 %
14.05.2019 20:30 7,0 C 14,4 C 6,1 C 76 % 1022,8 hPa 0,0 l/m 1,8 km/h (1 Bft) S-SW 192 0 min 0,000 mm 0,0 UV-I 10 W/m 3,1 C 7,0 C 3,2 km/h (1 Bft) 97,37 %
14.05.2019 20:32 7,0 C 14,4 C 6,1 C 76 % 1022,8 hPa 0,0 l/m 1,6 km/h (1 Bft) SW 225 0 min 0,000 mm 0,0 UV-I 9 W/m 3,1 C 7,0 C 4,8 km/h (1 Bft) 96,00 %
14.05.2019 20:34 7,0 C 14,4 C 5,6 C 76 % 1022,8 hPa 0,0 l/m 5,3 km/h (1 Bft) W 265 0 min 0,000 mm 0,0 UV-I 9 W/m 3,1 C 7,0 C 6,4 km/h (2 Bft) 97,56 %
14.05.2019 20:36 6,9 C 14,4 C 5,6 C 76 % 1022,9 hPa 0,0 l/m 3,8 km/h (1 Bft) W 265 0 min 0,000 mm 0,0 UV-I 7 W/m 3,0 C 6,9 C 6,4 km/h (2 Bft) 98,11 %
14.05.2019 20:38 6,9 C 14,4 C 5,6 C 75 % 1022,9 hPa 0,0 l/m 4,7 km/h (1 Bft) SW 236 0 min 0,000 mm 0,0 UV-I 6 W/m 2,8 C 6,9 C 9,7 km/h (2 Bft) 98,00 %
14.05.2019 20:40 6,9 C 14,4 C 5,6 C 76 % 1022,9 hPa 0,0 l/m 3,8 km/h (1 Bft) W-SW 246 0 min 0,000 mm 0,0 UV-I 5 W/m 3,0 C 6,9 C 4,8 km/h (1 Bft) 93,62 %
14.05.2019 20:42 6,9 C 14,4 C 5,6 C 76 % 1022,9 hPa 0,0 l/m 3,9 km/h (1 Bft) W-SW 246 0 min 0,000 mm 0,0 UV-I 5 W/m 3,0 C 6,9 C 6,4 km/h (2 Bft) 97,37 %
14.05.2019 20:44 6,9 C 14,4 C 5,6 C 76 % 1022,9 hPa 0,0 l/m 4,3 km/h (1 Bft) W-SW 246 0 min 0,000 mm 0,0 UV-I 3 W/m 3,0 C 6,9 C 6,4 km/h (2 Bft) 98,00 %
14.05.2019 20:46 6,9 C 14,4 C 5,6 C 77 % 1022,9 hPa 0,0 l/m 2,2 km/h (1 Bft) W-SW 246 0 min 0,000 mm 0,0 UV-I 0 W/m 3,2 C 6,9 C 4,8 km/h (1 Bft) 96,00 %
14.05.2019 20:48 6,9 C 14,4 C 5,6 C 77 % 1022,9 hPa 0,0 l/m 3,8 km/h (1 Bft) W-SW 248 0 min 0,000 mm 0,0 UV-I 0 W/m 3,2 C 6,9 C 4,8 km/h (1 Bft) 95,24 %
14.05.2019 20:50 7,0 C 14,4 C 5,6 C 77 % 1022,9 hPa 0,0 l/m 3,8 km/h (1 Bft) W-SW 250 0 min 0,000 mm 0,0 UV-I 0 W/m 3,2 C 7,0 C 4,8 km/h (1 Bft) 97,37 %
14.05.2019 20:52 7,0 C 14,4 C 5,6 C 78 % 1022,9 hPa 0,0 l/m 6,3 km/h (2 Bft) W 270 0 min 0,000 mm 0,0 UV-I 0 W/m 3,4 C 7,0 C 9,7 km/h (2 Bft) 96,88 %
14.05.2019 20:54 7,1 C 14,4 C 5,6 C 78 % 1022,9 hPa 0,0 l/m 5,3 km/h (1 Bft) W-SW 246 0 min 0,000 mm 0,0 UV-I 0 W/m 3,5 C 7,1 C 11,3 km/h (2 Bft) 94,87 %
14.05.2019 20:56 7,0 C 14,4 C 5,6 C 78 % 1023,0 hPa 0,0 l/m 3,1 km/h (1 Bft) W-SW 246 0 min 0,000 mm 0,0 UV-I 0 W/m 3,4 C 7,0 C 4,8 km/h (1 Bft) 96,00 %
14.05.2019 20:59 6,9 C 14,4 C 6,1 C 78 % 1023,0 hPa 0,0 l/m 4,1 km/h (1 Bft) W-SW 250 0 min 0,000 mm 0,0 UV-I 0 W/m 3,3 C 6,9 C 11,3 km/h (2 Bft) 94,94 %
14.05.2019 21:00 6,9 C 14,4 C 6,1 C 78 % 1023,0 hPa 0,0 l/m 4,9 km/h (1 Bft) W-SW 250 0 min 0,000 mm 0,0 UV-I 0 W/m 3,3 C 6,9 C 6,4 km/h (2 Bft) 100,00 %
14.05.2019 21:02 6,9 C 14,4 C 6,1 C 79 % 1022,9 hPa 0,0 l/m 5,3 km/h (1 Bft) W-SW 254 0 min 0,025 mm 0,0 UV-I 0 W/m 3,5 C 6,9 C 8,0 km/h (2 Bft) 93,62 %
14.05.2019 21:04 6,9 C 14,4 C 6,1 C 79 % 1023,0 hPa 0,0 l/m 5,7 km/h (1 Bft) W 267 0 min 0,000 mm 0,0 UV-I 0 W/m 3,5 C 6,9 C 9,7 km/h (2 Bft) 90,24 %
14.05.2019 21:06 6,9 C 14,4 C 6,1 C 79 % 1023,0 hPa 0,0 l/m 6,9 km/h (2 Bft) W 259 0 min 0,000 mm 0,0 UV-I 0 W/m 3,5 C 6,5 C 11,3 km/h (2 Bft) 96,00 %
14.05.2019 21:08 6,8 C 14,4 C 6,1 C 79 % 1023,0 hPa 0,0 l/m 6,7 km/h (2 Bft) W 263 0 min 0,000 mm 0,0 UV-I 0 W/m 3,4 C 6,6 C 11,3 km/h (2 Bft) 95,45 %
14.05.2019 21:10 6,8 C 14,4 C 6,1 C 80 % 1023,0 hPa 0,0 l/m 4,6 km/h (1 Bft) W-SW 245 0 min 0,000 mm 0,0 UV-I 0 W/m 3,6 C 6,8 C 6,4 km/h (2 Bft) 94,00 %
14.05.2019 21:12 6,8 C 14,4 C 6,1 C 80 % 1023,0 hPa 0,0 l/m 6,3 km/h (2 Bft) SW 220 0 min 0,000 mm 0,0 UV-I 0 W/m 3,6 C 6,8 C 11,3 km/h (2 Bft) 95,74 %
14.05.2019 21:14 6,7 C 14,4 C 6,1 C 79 % 1023,0 hPa 0,0 l/m 10,9 km/h (2 Bft) W 264 0 min 0,000 mm 0,0 UV-I 0 W/m 3,3 C 3,4 C 14,5 km/h (3 Bft) 96,00 %
14.05.2019 21:16 6,6 C 14,4 C 6,1 C 79 % 1023,0 hPa 0,0 l/m 9,4 km/h (2 Bft) W-SW 240 0 min 0,000 mm 0,0 UV-I 0 W/m 3,2 C 4,2 C 16,1 km/h (3 Bft) 92,68 %
14.05.2019 21:18 6,6 C 14,4 C 6,1 C 79 % 1023,0 hPa 0,0 l/m 8,2 km/h (2 Bft) W-SW 258 0 min 0,000 mm 0,0 UV-I 0 W/m 3,2 C 5,1 C 14,5 km/h (3 Bft) 96,00 %
14.05.2019 21:20 6,5 C 13,9 C 6,1 C 79 % 1023,0 hPa 0,0 l/m 9,0 km/h (2 Bft) W-SW 254 0 min 0,000 mm 0,0 UV-I 0 W/m 3,1 C 4,4 C 14,5 km/h (3 Bft) 94,00 %
14.05.2019 21:22 6,5 C 13,9 C 6,1 C 80 % 1023,1 hPa 0,0 l/m 9,7 km/h (2 Bft) W 259 0 min 0,000 mm 0,0 UV-I 0 W/m 3,3 C 3,9 C 16,1 km/h (3 Bft) 100,00 %
14.05.2019 21:24 6,4 C 14,4 C 6,1 C 79 % 1023,0 hPa 0,0 l/m 10,9 km/h (2 Bft) W-SW 238 0 min 0,000 mm 0,0 UV-I 0 W/m 3,0 C 3,0 C 16,1 km/h (3 Bft) 100,00 %
14.05.2019 21:26 6,4 C 13,9 C 6,1 C 80 % 1023,0 hPa 0,0 l/m 8,9 km/h (2 Bft) W-SW 255 0 min 0,000 mm 0,0 UV-I 0 W/m 3,2 C 4,4 C 12,9 km/h (3 Bft) 97,87 %
14.05.2019 21:28 6,3 C 13,9 C 6,1 C 80 % 1023,1 hPa 0,0 l/m 5,2 km/h (1 Bft) W-SW 252 0 min 0,000 mm 0,0 UV-I 0 W/m 3,1 C 6,3 C 9,7 km/h (2 Bft) 100,00 %
14.05.2019 21:30 6,3 C 13,9 C 6,1 C 80 % 1023,1 hPa 0,0 l/m 5,7 km/h (1 Bft) S-SW 207 0 min 0,000 mm 0,0 UV-I 0 W/m 3,1 C 6,3 C 9,7 km/h (2 Bft) 100,00 %
14.05.2019 21:32 6,3 C 13,9 C 6,1 C 81 % 1023,1 hPa 0,0 l/m 6,5 km/h (2 Bft) S-SW 209 0 min 0,000 mm 0,0 UV-I 0 W/m 3,3 C 6,2 C 9,7 km/h (2 Bft) 98,21 %
14.05.2019 21:34 6,3 C 13,9 C 6,1 C 81 % 1023,1 hPa 0,0 l/m 7,8 km/h (2 Bft) SW 231 0 min 0,000 mm 0,0 UV-I 0 W/m 3,3 C 5,1 C 14,5 km/h (3 Bft) 100,00 %
14.05.2019 21:36 6,2 C 13,9 C 5,6 C 81 % 1023,2 hPa 0,0 l/m 8,4 km/h (2 Bft) SW 224 0 min 0,000 mm 0,0 UV-I 0 W/m 3,2 C 4,6 C 11,3 km/h (2 Bft) 100,00 %
14.05.2019 21:39 6,1 C 13,9 C 5,6 C 82 % 1023,0 hPa 0,0 l/m 8,4 km/h (2 Bft) SW 227 0 min 0,000 mm 0,0 UV-I 0 W/m 3,3 C 4,4 C 12,9 km/h (3 Bft) 100,00 %
14.05.2019 21:40 6,1 C 13,9 C 5,6 C 83 % 1023,0 hPa 0,0 l/m 9,7 km/h (2 Bft) S-SW 211 0 min 0,000 mm 0,0 UV-I 0 W/m 3,4 C 3,5 C 12,9 km/h (3 Bft) 100,00 %
14.05.2019 21:42 5,9 C 13,9 C 5,6 C 83 % 1023,0 hPa 0,0 l/m 7,9 km/h (2 Bft) W-SW 248 0 min 0,000 mm 0,0 UV-I 0 W/m 3,2 C 4,6 C 12,9 km/h (3 Bft) 97,56 %
14.05.2019 21:44 5,9 C 13,9 C 5,6 C 84 % 1023,0 hPa 0,0 l/m 4,3 km/h (1 Bft) SW 227 0 min 0,000 mm 0,0 UV-I 0 W/m 3,4 C 5,9 C 8,0 km/h (2 Bft) 94,00 %
14.05.2019 21:46 5,8 C 13,9 C 5,6 C 85 % 1023,0 hPa 0,0 l/m 6,4 km/h (2 Bft) W-SW 257 0 min 0,000 mm 0,0 UV-I 0 W/m 3,5 C 5,8 C 9,7 km/h (2 Bft) 98,00 %
14.05.2019 21:48 5,8 C 13,9 C 5,6 C 85 % 1023,0 hPa 0,0 l/m 6,8 km/h (2 Bft) W-SW 248 0 min 0,000 mm 0,0 UV-I 0 W/m 3,5 C 5,5 C 9,7 km/h (2 Bft) 97,87 %
14.05.2019 21:50 5,8 C 13,9 C 5,6 C 85 % 1022,9 hPa 0,0 l/m 7,8 km/h (2 Bft) S 173 0 min 0,000 mm 0,0 UV-I 0 W/m 3,5 C 4,6 C 14,5 km/h (3 Bft) 95,12 %
14.05.2019 21:52 5,7 C 13,9 C 5,6 C 86 % 1022,9 hPa 0,0 l/m 9,2 km/h (2 Bft) S-SW 198 0 min 0,000 mm 0,0 UV-I 0 W/m 3,5 C 3,4 C 12,9 km/h (3 Bft) 98,21 %
14.05.2019 21:54 5,7 C 13,9 C 5,6 C 86 % 1022,9 hPa 0,0 l/m 6,2 km/h (2 Bft) SW 232 0 min 0,000 mm 0,0 UV-I 0 W/m 3,5 C 5,7 C 11,3 km/h (2 Bft) 97,37 %
14.05.2019 21:56 5,7 C 13,9 C 5,6 C 86 % 1022,9 hPa 0,0 l/m 6,6 km/h (2 Bft) SW 221 0 min 0,000 mm 0,0 UV-I 0 W/m 3,5 C 5,6 C 11,3 km/h (2 Bft) 98,11 %
14.05.2019 21:58 5,7 C 13,9 C 5,6 C 87 % 1022,9 hPa 0,0 l/m 7,1 km/h (2 Bft) SW 217 0 min 0,000 mm 0,0 UV-I 0 W/m 3,7 C 5,1 C 9,7 km/h (2 Bft) 97,87 %
14.05.2019 22:00 5,7 C 13,9 C 5,6 C 87 % 1022,9 hPa 0,0 l/m 8,0 km/h (2 Bft) SW 215 0 min 0,000 mm 0,0 UV-I 0 W/m 3,7 C 4,3 C 11,3 km/h (2 Bft) 95,74 %
14.05.2019 22:02 5,7 C 13,9 C 5,6 C 87 % 1022,9 hPa 0,0 l/m 6,7 km/h (2 Bft) S-SW 211 0 min 0,026 mm 0,0 UV-I 0 W/m 3,7 C 5,5 C 9,7 km/h (2 Bft) 100,00 %
14.05.2019 22:04 5,7 C 13,9 C 5,6 C 87 % 1023,0 hPa 0,0 l/m 8,3 km/h (2 Bft) SW 233 0 min 0,000 mm 0,0 UV-I 0 W/m 3,7 C 4,1 C 12,9 km/h (3 Bft) 96,00 %
14.05.2019 22:06 5,7 C 13,9 C 5,6 C 87 % 1022,9 hPa 0,0 l/m 6,2 km/h (2 Bft) SW 221 0 min 0,000 mm 0,0 UV-I 0 W/m 3,7 C 5,7 C 9,7 km/h (2 Bft) 98,08 %
14.05.2019 22:08 5,7 C 13,9 C 5,6 C 87 % 1022,9 hPa 0,0 l/m 6,2 km/h (2 Bft) S-SW 201 0 min 0,000 mm 0,0 UV-I 0 W/m 3,7 C 5,7 C 9,7 km/h (2 Bft) 97,22 %
14.05.2019 22:10 5,7 C 13,9 C 5,6 C 87 % 1023,0 hPa 0,0 l/m 5,5 km/h (1 Bft) SW 222 0 min 0,000 mm 0,0 UV-I 0 W/m 3,7 C 5,7 C 8,0 km/h (2 Bft) 98,11 %
14.05.2019 22:12 5,7 C 13,9 C 5,6 C 87 % 1022,9 hPa 0,0 l/m 6,0 km/h (2 Bft) S-SW 212 0 min 0,000 mm 0,0 UV-I 0 W/m 3,7 C 5,7 C 11,3 km/h (2 Bft) 98,21 %
14.05.2019 22:14 5,7 C 13,9 C 5,6 C 88 % 1022,9 hPa 0,0 l/m 6,1 km/h (2 Bft) S-SW 209 0 min 0,000 mm 0,0 UV-I 0 W/m 3,9 C 5,7 C 9,7 km/h (2 Bft) 97,87 %
14.05.2019 22:16 5,7 C 13,9 C 5,6 C 88 % 1023,0 hPa 0,0 l/m 5,2 km/h (1 Bft) S-SW 207 0 min 0,000 mm 0,0 UV-I 0 W/m 3,9 C 5,7 C 9,7 km/h (2 Bft) 95,74 %
14.05.2019 22:18 5,6 C 13,9 C 5,6 C 88 % 1023,0 hPa 0,2 l/m 6,7 km/h (2 Bft) SW 219 0 min 0,000 mm 0,0 UV-I 0 W/m 3,8 C 5,4 C 9,7 km/h (2 Bft) 97,56 %
14.05.2019 22:20 5,7 C 13,9 C 5,6 C 88 % 1023,0 hPa 0,0 l/m 4,5 km/h (1 Bft) W-SW 237 0 min 0,000 mm 0,0 UV-I 0 W/m 3,9 C 5,7 C 6,4 km/h (2 Bft) 97,87 %
14.05.2019 22:22 5,7 C 13,9 C 5,6 C 88 % 1022,9 hPa 0,0 l/m 5,8 km/h (2 Bft) SW 232 0 min 0,000 mm 0,0 UV-I 0 W/m 3,9 C 5,7 C 8,0 km/h (2 Bft) 98,00 %
14.05.2019 22:24 5,7 C 13,9 C 5,6 C 88 % 1023,0 hPa 0,0 l/m 6,9 km/h (2 Bft) SW 226 0 min 0,000 mm 0,0 UV-I 0 W/m 3,9 C 5,3 C 12,9 km/h (3 Bft) 94,74 %
14.05.2019 22:26 5,7 C 13,9 C 5,6 C 88 % 1023,0 hPa 0,0 l/m 6,0 km/h (2 Bft) SW 230 0 min 0,000 mm 0,0 UV-I 0 W/m 3,9 C 5,7 C 9,7 km/h (2 Bft) 98,21 %
14.05.2019 22:28 5,7 C 13,9 C 5,6 C 89 % 1023,0 hPa 0,0 l/m 5,3 km/h (1 Bft) W-SW 246 0 min 0,000 mm 0,0 UV-I 0 W/m 4,0 C 5,7 C 8,0 km/h (2 Bft) 94,29 %
14.05.2019 22:30 5,7 C 13,9 C 5,6 C 89 % 1023,0 hPa 0,0 l/m 3,7 km/h (1 Bft) W-SW 246 0 min 0,000 mm 0,0 UV-I 0 W/m 4,0 C 5,7 C 6,4 km/h (2 Bft) 98,11 %
14.05.2019 22:32 5,7 C 13,9 C 5,6 C 89 % 1023,0 hPa 0,0 l/m 5,9 km/h (2 Bft) W 271 0 min 0,000 mm 0,0 UV-I 0 W/m 4,0 C 5,7 C 11,3 km/h (2 Bft) 97,87 %
14.05.2019 22:34 5,6 C 13,9 C 5,6 C 89 % 1023,0 hPa 0,0 l/m 6,8 km/h (2 Bft) SW 228 0 min 0,000 mm 0,0 UV-I 0 W/m 3,9 C 5,3 C 8,0 km/h (2 Bft) 98,00 %
14.05.2019 22:36 5,6 C 13,9 C 5,6 C 89 % 1023,0 hPa 0,0 l/m 6,4 km/h (2 Bft) SW 231 0 min 0,000 mm 0,0 UV-I 0 W/m 3,9 C 5,6 C 9,7 km/h (2 Bft) 97,56 %
14.05.2019 22:38 5,6 C 13,9 C 5,6 C 89 % 1023,0 hPa 0,2 l/m 3,7 km/h (1 Bft) SW 234 0 min 0,000 mm 0,0 UV-I 0 W/m 3,9 C 5,6 C 6,4 km/h (2 Bft) 98,00 %
14.05.2019 22:40 5,5 C 13,9 C 5,6 C 90 % 1023,0 hPa 0,0 l/m 3,8 km/h (1 Bft) W 259 0 min 0,000 mm 0,0 UV-I 0 W/m 4,0 C 5,5 C 6,4 km/h (2 Bft) 96,23 %
14.05.2019 22:42 5,5 C 13,9 C 5,6 C 90 % 1023,0 hPa 0,0 l/m 4,5 km/h (1 Bft) SW 226 0 min 0,000 mm 0,0 UV-I 0 W/m 4,0 C 5,5 C 6,4 km/h (2 Bft) 100,00 %
14.05.2019 22:44 5,4 C 13,9 C 5,6 C 90 % 1022,9 hPa 0,0 l/m 5,3 km/h (1 Bft) W-SW 238 0 min 0,000 mm 0,0 UV-I 0 W/m 3,9 C 5,4 C 8,0 km/h (2 Bft) 100,00 %
14.05.2019 22:46 5,4 C 13,9 C 5,6 C 90 % 1022,9 hPa 0,0 l/m 5,6 km/h (1 Bft) SW 223 0 min 0,000 mm 0,0 UV-I 0 W/m 3,9 C 5,4 C 9,7 km/h (2 Bft) 97,87 %
14.05.2019 22:48 5,4 C 13,9 C 5,6 C 90 % 1022,9 hPa 0,0 l/m 6,2 km/h (2 Bft) SW 230 0 min 0,000 mm 0,0 UV-I 0 W/m 3,9 C 5,4 C 11,3 km/h (2 Bft) 100,00 %
14.05.2019 22:50 5,4 C 13,9 C 5,6 C 90 % 1022,9 hPa 0,0 l/m 2,4 km/h (1 Bft) SW 230 0 min 0,000 mm 0,0 UV-I 0 W/m 3,9 C 5,4 C 3,2 km/h (1 Bft) 97,87 %
14.05.2019 22:52 5,4 C 13,9 C 5,6 C 90 % 1022,9 hPa 0,0 l/m 2,7 km/h (1 Bft) SW 217 0 min 0,000 mm 0,0 UV-I 0 W/m 3,9 C 5,4 C 4,8 km/h (1 Bft) 100,00 %
14.05.2019 22:54 5,5 C 13,9 C 5,6 C 91 % 1022,9 hPa 0,0 l/m 2,9 km/h (1 Bft) SW 220 0 min 0,000 mm 0,0 UV-I 0 W/m 4,2 C 5,5 C 4,8 km/h (1 Bft) 100,00 %
14.05.2019 22:56 5,5 C 13,9 C 5,6 C 91 % 1022,9 hPa 0,0 l/m 1,2 km/h (1 Bft) SW 220 0 min 0,000 mm 0,0 UV-I 0 W/m 4,2 C 5,5 C 3,2 km/h (1 Bft) 97,37 %
14.05.2019 22:59 5,5 C 13,9 C 5,6 C 91 % 1022,9 hPa 0,0 l/m 3,1 km/h (1 Bft) W-SW 246 0 min 0,000 mm 0,0 UV-I 0 W/m 4,2 C 5,5 C 6,4 km/h (2 Bft) 98,73 %
14.05.2019 23:00 5,4 C 13,9 C 5,6 C 91 % 1022,9 hPa 0,0 l/m 1,4 km/h (1 Bft) W-SW 246 0 min 0,000 mm 0,0 UV-I 0 W/m 4,1 C 5,4 C 4,8 km/h (1 Bft) 95,83 %
14.05.2019 23:02 5,4 C 13,9 C 5,6 C 91 % 1022,9 hPa 0,0 l/m 0,8 km/h (0 Bft) W-SW 246 0 min 0,000 mm 0,0 UV-I 0 W/m 4,1 C 5,4 C 1,6 km/h (1 Bft) 98,00 %
14.05.2019 23:04 5,4 C 13,9 C 5,6 C 91 % 1022,9 hPa 0,0 l/m 0,8 km/h (0 Bft) W-SW 246 0 min 0,000 mm 0,0 UV-I 0 W/m 4,1 C 5,4 C 1,6 km/h (1 Bft) 100,00 %
14.05.2019 23:06 5,4 C 13,9 C 5,6 C 91 % 1022,9 hPa 0,0 l/m 2,1 km/h (1 Bft) W-SW 246 0 min 0,000 mm 0,0 UV-I 0 W/m 4,1 C 5,4 C 4,8 km/h (1 Bft) 100,00 %
14.05.2019 23:09 5,4 C 13,9 C 5,6 C 91 % 1022,9 hPa 0,0 l/m 3,6 km/h (1 Bft) W-SW 248 0 min 0,000 mm 0,0 UV-I 0 W/m 4,1 C 5,4 C 6,4 km/h (2 Bft) 98,53 %
14.05.2019 23:10 5,4 C 13,9 C 5,6 C 91 % 1022,9 hPa 0,0 l/m 3,9 km/h (1 Bft) W-SW 248 0 min 0,000 mm 0,0 UV-I 0 W/m 4,1 C 5,4 C 4,8 km/h (1 Bft) 100,00 %
14.05.2019 23:12 5,3 C 13,9 C 5,6 C 91 % 1022,8 hPa 0,0 l/m 4,8 km/h (1 Bft) W-SW 238 0 min 0,000 mm 0,0 UV-I 0 W/m 4,0 C 5,3 C 8,0 km/h (2 Bft) 100,00 %
14.05.2019 23:14 5,3 C 13,9 C 5,6 C 92 % 1022,8 hPa 0,0 l/m 4,6 km/h (1 Bft) W-SW 251 0 min 0,000 mm 0,0 UV-I 0 W/m 4,1 C 5,3 C 11,3 km/h (2 Bft) 100,00 %
14.05.2019 23:16 5,3 C 13,9 C 5,6 C 91 % 1022,8 hPa 0,0 l/m 4,5 km/h (1 Bft) W-SW 254 0 min 0,000 mm 0,0 UV-I 0 W/m 4,0 C 5,3 C 6,4 km/h (2 Bft) 97,87 %
14.05.2019 23:18 5,4 C 13,9 C 5,6 C 91 % 1022,8 hPa 0,0 l/m 2,9 km/h (1 Bft) W-SW 253 0 min 0,000 mm 0,0 UV-I 0 W/m 4,1 C 5,4 C 4,8 km/h (1 Bft) 100,00 %
14.05.2019 23:20 5,4 C 13,9 C 5,6 C 91 % 1022,8 hPa 0,0 l/m 2,5 km/h (1 Bft) W-SW 253 0 min 0,000 mm 0,0 UV-I 0 W/m 4,1 C 5,4 C 4,8 km/h (1 Bft) 96,15 %
14.05.2019 23:22 5,4 C 13,9 C 5,6 C 92 % 1022,8 hPa 0,0 l/m 1,8 km/h (1 Bft) W-SW 253 0 min 0,000 mm 0,0 UV-I 0 W/m 4,2 C 5,4 C 3,2 km/h (1 Bft) 100,00 %
14.05.2019 23:24 5,4 C 13,9 C 5,6 C 91 % 1022,8 hPa 0,0 l/m 0,6 km/h (0 Bft) W-SW 253 0 min 0,000 mm 0,0 UV-I 0 W/m 4,1 C 5,4 C 1,6 km/h (1 Bft) 100,00 %
14.05.2019 23:26 5,4 C 13,9 C 5,6 C 92 % 1022,8 hPa 0,0 l/m 2,1 km/h (1 Bft) W-SW 253 0 min 0,000 mm 0,0 UV-I 0 W/m 4,2 C 5,4 C 3,2 km/h (1 Bft) 100,00 %
14.05.2019 23:29 5,4 C 13,9 C 5,6 C 91 % 1022,8 hPa 0,0 l/m 1,5 km/h (1 Bft) W-SW 253 0 min 0,000 mm 0,0 UV-I 0 W/m 4,1 C 5,4 C 3,2 km/h (1 Bft) 98,59 %
14.05.2019 23:30 5,4 C 13,9 C 5,6 C 92 % 1022,8 hPa 0,0 l/m 0,9 km/h (0 Bft) W-SW 253 0 min 0,000 mm 0,0 UV-I 0 W/m 4,2 C 5,4 C 1,6 km/h (1 Bft) 100,00 %
14.05.2019 23:32 5,4 C 13,9 C 5,6 C 92 % 1022,8 hPa 0,0 l/m 1,9 km/h (1 Bft) W-SW 253 0 min 0,000 mm 0,0 UV-I 0 W/m 4,2 C 5,4 C 3,2 km/h (1 Bft) 100,00 %
14.05.2019 23:34 5,5 C 13,9 C 5,6 C 92 % 1022,8 hPa 0,0 l/m 2,1 km/h (1 Bft) W-SW 253 0 min 0,000 mm 0,0 UV-I 0 W/m 4,3 C 5,5 C 3,2 km/h (1 Bft) 100,00 %
14.05.2019 23:36 5,5 C 13,9 C 5,6 C 92 % 1022,8 hPa 0,0 l/m 2,3 km/h (1 Bft) W-SW 253 0 min 0,000 mm 0,0 UV-I 0 W/m 4,3 C 5,5 C 3,2 km/h (1 Bft) 100,00 %
14.05.2019 23:39 5,6 C 13,9 C 5,6 C 92 % 1022,7 hPa 0,0 l/m 1,6 km/h (1 Bft) W-SW 253 0 min 0,000 mm 0,0 UV-I 0 W/m 4,4 C 5,6 C 4,8 km/h (1 Bft) 98,63 %
14.05.2019 23:40 5,6 C 13,9 C 5,6 C 92 % 1022,7 hPa 0,0 l/m 0,6 km/h (0 Bft) W-SW 253 0 min 0,000 mm 0,0 UV-I 0 W/m 4,4 C 5,6 C 1,6 km/h (1 Bft) 86,67 %
14.05.2019 23:42 5,5 C 13,9 C 5,6 C 92 % 1022,7 hPa 0,0 l/m 0,8 km/h (0 Bft) W-SW 253 0 min 0,000 mm 0,0 UV-I 0 W/m 4,3 C 5,5 C 1,6 km/h (1 Bft) 96,00 %
14.05.2019 23:44 5,6 C 13,9 C 5,6 C 92 % 1022,7 hPa 0,0 l/m 0,5 km/h (0 Bft) W-SW 253 0 min 0,000 mm 0,0 UV-I 0 W/m 4,4 C 5,6 C 3,2 km/h (1 Bft) 96,00 %
14.05.2019 23:46 5,6 C 13,9 C 5,6 C 92 % 1022,7 hPa 0,0 l/m 0,9 km/h (0 Bft) W-SW 253 0 min 0,000 mm 0,0 UV-I 0 W/m 4,4 C 5,6 C 1,6 km/h (1 Bft) 93,62 %
14.05.2019 23:48 5,6 C 13,9 C 5,6 C 92 % 1022,7 hPa 0,0 l/m 1,0 km/h (0 Bft) W-SW 253 0 min 0,000 mm 0,0 UV-I 0 W/m 4,4 C 5,6 C 1,6 km/h (1 Bft) 94,74 %
14.05.2019 23:50 5,6 C 13,9 C 6,1 C 92 % 1022,6 hPa 0,0 l/m 1,5 km/h (1 Bft) W-SW 253 0 min 0,000 mm 0,0 UV-I 0 W/m 4,4 C 5,6 C 3,2 km/h (1 Bft) 94,34 %
14.05.2019 23:52 5,5 C 13,9 C 5,6 C 92 % 1022,6 hPa 0,0 l/m 1,3 km/h (1 Bft) W-SW 253 0 min 0,000 mm 0,0 UV-I 0 W/m 4,3 C 5,5 C 3,2 km/h (1 Bft) 96,00 %
14.05.2019 23:54 5,6 C 13,9 C 5,6 C 92 % 1022,6 hPa 0,0 l/m 2,5 km/h (1 Bft) W-SW 254 0 min 0,000 mm 0,0 UV-I 0 W/m 4,4 C 5,6 C 3,2 km/h (1 Bft) 95,12 %
14.05.2019 23:56 5,6 C 13,9 C 5,6 C 92 % 1022,6 hPa 0,0 l/m 2,9 km/h (1 Bft) W-SW 254 0 min 0,000 mm 0,0 UV-I 0 W/m 4,4 C 5,6 C 4,8 km/h (1 Bft) 92,00 %
14.05.2019 23:58 5,5 C 13,9 C 5,6 C 92 % 1022,6 hPa 0,0 l/m 3,0 km/h (1 Bft) W 281 0 min 0,000 mm 0,0 UV-I 0 W/m 4,3 C 5,5 C 6,4 km/h (2 Bft) 92,00 %
_ Min-Zeit 06:00 01:42 05:41 12:34 18:20 - 09:26 - - - - - - 13:48 19:34 09:26 23:40
Minimum _ 3,7 C 13,3 C 0,0 C 46 % 1022,4 hPa - 0,0 km/h (0 Bft) - - - - - - -0,5 C -0,7 C 0,0 km/h (0 Bft) 86,67 %
_ Max-Zeit 15:12 15:16 12:58 06:10 00:00 22:18 16:54 - - 05:46 13:02 12:56 13:02 00:40 13:04 15:44 00:00
Maximum _ 12,6 C 14,4 C 29,4 C 95 % 1030,2 hPa 0,2 l/m 27,1 km/h
N-NO (4 Bft)
- - 4 min 0,432 mm 3,8 UV-I 1021 W/m 5,3 C 11,0 C 40,2 km/h
N-NO (6 Bft)
100,00 %
Durchschnitt _ 7,8 C 13,8 C 10,7 C 74 % 1025,6 hPa #0,4 l/m 7,4 km/h (2 Bft) SW - #7:18 h #2,845 mm 1,6 UV-I 311 W/m 3,0 C 6,2 C 11,3 km/h (2 Bft) 97,34 %